<?xml version="1.0" encoding="UTF-8" standalone="no" ?>
<gpx xmlns="http://www.topografix.com/GPX/1/1" xmlns:xsi="http://www.w3.org/2001/XMLSchema-instance" xsi:schemaLocation="http://www.topografix.com/GPX/1/1 http://www.topografix.com/GPX/1/1/gpx.xsd" version="1.1" creator="VisuGPX - https://www.visugpx.com">
  <metadata>
    <name>Les Opies 04/03/11</name>
    <desc><![CDATA[Départ/Retour d\'Aureille en passant au village des cow-boys et ensuite chez Boum !
température fraiche au départ, pas de tempête de vent au sommet des Opies ! (ça change)
Casse croute dans la garrigue, sous le soleil voilé.
2 courageuses parmi les 15 randonneurs.
Bernard]]></desc>
  </metadata>
  <trk>
    <name><![CDATA[Les Opies 04/03/11_1]]></name>
    <trkseg>
      <trkpt lat="43.70596" lon="4.95152">
        <ele>127</ele>
        <time>2011-03-04T08:17:09Z</time>
      </trkpt>
      <trkpt lat="43.70595" lon="4.95189">
        <ele>138</ele>
        <time>2011-03-04T08:18:08Z</time>
      </trkpt>
      <trkpt lat="43.70595" lon="4.95202">
        <ele>137</ele>
        <time>2011-03-04T08:18:32Z</time>
      </trkpt>
      <trkpt lat="43.70598" lon="4.95219">
        <ele>137</ele>
        <time>2011-03-04T08:18:42Z</time>
      </trkpt>
      <trkpt lat="43.70598" lon="4.95236">
        <ele>137</ele>
        <time>2011-03-04T08:18:52Z</time>
      </trkpt>
      <trkpt lat="43.70599" lon="4.95253">
        <ele>137</ele>
        <time>2011-03-04T08:19:02Z</time>
      </trkpt>
      <trkpt lat="43.70601" lon="4.95269">
        <ele>137</ele>
        <time>2011-03-04T08:19:12Z</time>
      </trkpt>
      <trkpt lat="43.70603" lon="4.95286">
        <ele>137</ele>
        <time>2011-03-04T08:19:22Z</time>
      </trkpt>
      <trkpt lat="43.70607" lon="4.95303">
        <ele>137</ele>
        <time>2011-03-04T08:19:32Z</time>
      </trkpt>
      <trkpt lat="43.70612" lon="4.95319">
        <ele>137</ele>
        <time>2011-03-04T08:19:42Z</time>
      </trkpt>
      <trkpt lat="43.70617" lon="4.95335">
        <ele>137</ele>
        <time>2011-03-04T08:19:52Z</time>
      </trkpt>
      <trkpt lat="43.7062" lon="4.95352">
        <ele>136</ele>
        <time>2011-03-04T08:20:02Z</time>
      </trkpt>
      <trkpt lat="43.70621" lon="4.95369">
        <ele>134</ele>
        <time>2011-03-04T08:20:12Z</time>
      </trkpt>
      <trkpt lat="43.70623" lon="4.95385">
        <ele>132</ele>
        <time>2011-03-04T08:20:23Z</time>
      </trkpt>
      <trkpt lat="43.70626" lon="4.95401">
        <ele>131</ele>
        <time>2011-03-04T08:20:33Z</time>
      </trkpt>
      <trkpt lat="43.70626" lon="4.95418">
        <ele>131</ele>
        <time>2011-03-04T08:20:43Z</time>
      </trkpt>
      <trkpt lat="43.70625" lon="4.95437">
        <ele>131</ele>
        <time>2011-03-04T08:20:53Z</time>
      </trkpt>
      <trkpt lat="43.70624" lon="4.95454">
        <ele>131</ele>
        <time>2011-03-04T08:21:03Z</time>
      </trkpt>
      <trkpt lat="43.70627" lon="4.95471">
        <ele>135</ele>
        <time>2011-03-04T08:21:13Z</time>
      </trkpt>
      <trkpt lat="43.70631" lon="4.95487">
        <ele>138</ele>
        <time>2011-03-04T08:21:23Z</time>
      </trkpt>
      <trkpt lat="43.70636" lon="4.95503">
        <ele>139</ele>
        <time>2011-03-04T08:21:33Z</time>
      </trkpt>
      <trkpt lat="43.7064" lon="4.95519">
        <ele>139</ele>
        <time>2011-03-04T08:21:43Z</time>
      </trkpt>
      <trkpt lat="43.70644" lon="4.95536">
        <ele>139</ele>
        <time>2011-03-04T08:21:53Z</time>
      </trkpt>
      <trkpt lat="43.70649" lon="4.95553">
        <ele>140</ele>
        <time>2011-03-04T08:22:03Z</time>
      </trkpt>
      <trkpt lat="43.70658" lon="4.95567">
        <ele>141</ele>
        <time>2011-03-04T08:22:14Z</time>
      </trkpt>
      <trkpt lat="43.7067" lon="4.95574">
        <ele>143</ele>
        <time>2011-03-04T08:22:24Z</time>
      </trkpt>
      <trkpt lat="43.70683" lon="4.95577">
        <ele>143</ele>
        <time>2011-03-04T08:22:34Z</time>
      </trkpt>
      <trkpt lat="43.70696" lon="4.95579">
        <ele>145</ele>
        <time>2011-03-04T08:22:44Z</time>
      </trkpt>
      <trkpt lat="43.70709" lon="4.95582">
        <ele>147</ele>
        <time>2011-03-04T08:22:54Z</time>
      </trkpt>
      <trkpt lat="43.70721" lon="4.95586">
        <ele>147</ele>
        <time>2011-03-04T08:23:04Z</time>
      </trkpt>
      <trkpt lat="43.70733" lon="4.9559">
        <ele>147</ele>
        <time>2011-03-04T08:23:14Z</time>
      </trkpt>
      <trkpt lat="43.70747" lon="4.95591">
        <ele>147</ele>
        <time>2011-03-04T08:23:24Z</time>
      </trkpt>
      <trkpt lat="43.7076" lon="4.95592">
        <ele>149</ele>
        <time>2011-03-04T08:23:34Z</time>
      </trkpt>
      <trkpt lat="43.70773" lon="4.95595">
        <ele>150</ele>
        <time>2011-03-04T08:23:44Z</time>
      </trkpt>
      <trkpt lat="43.70785" lon="4.956">
        <ele>150</ele>
        <time>2011-03-04T08:23:54Z</time>
      </trkpt>
      <trkpt lat="43.70797" lon="4.95608">
        <ele>150</ele>
        <time>2011-03-04T08:24:05Z</time>
      </trkpt>
      <trkpt lat="43.7081" lon="4.95614">
        <ele>150</ele>
        <time>2011-03-04T08:24:15Z</time>
      </trkpt>
      <trkpt lat="43.70822" lon="4.95621">
        <ele>150</ele>
        <time>2011-03-04T08:24:25Z</time>
      </trkpt>
      <trkpt lat="43.70835" lon="4.95626">
        <ele>151</ele>
        <time>2011-03-04T08:24:36Z</time>
      </trkpt>
      <trkpt lat="43.70847" lon="4.95631">
        <ele>151</ele>
        <time>2011-03-04T08:24:46Z</time>
      </trkpt>
      <trkpt lat="43.7086" lon="4.95638">
        <ele>151</ele>
        <time>2011-03-04T08:24:56Z</time>
      </trkpt>
      <trkpt lat="43.70871" lon="4.95646">
        <ele>151</ele>
        <time>2011-03-04T08:25:06Z</time>
      </trkpt>
      <trkpt lat="43.70883" lon="4.95654">
        <ele>151</ele>
        <time>2011-03-04T08:25:16Z</time>
      </trkpt>
      <trkpt lat="43.70896" lon="4.9566">
        <ele>151</ele>
        <time>2011-03-04T08:25:26Z</time>
      </trkpt>
      <trkpt lat="43.7091" lon="4.95664">
        <ele>151</ele>
        <time>2011-03-04T08:25:36Z</time>
      </trkpt>
      <trkpt lat="43.70922" lon="4.95668">
        <ele>151</ele>
        <time>2011-03-04T08:25:46Z</time>
      </trkpt>
      <trkpt lat="43.70936" lon="4.95672">
        <ele>151</ele>
        <time>2011-03-04T08:25:56Z</time>
      </trkpt>
      <trkpt lat="43.7095" lon="4.95675">
        <ele>151</ele>
        <time>2011-03-04T08:26:06Z</time>
      </trkpt>
      <trkpt lat="43.70963" lon="4.9568">
        <ele>151</ele>
        <time>2011-03-04T08:26:16Z</time>
      </trkpt>
      <trkpt lat="43.70977" lon="4.95685">
        <ele>151</ele>
        <time>2011-03-04T08:26:27Z</time>
      </trkpt>
      <trkpt lat="43.70988" lon="4.95694">
        <ele>151</ele>
        <time>2011-03-04T08:26:37Z</time>
      </trkpt>
      <trkpt lat="43.70996" lon="4.95709">
        <ele>151</ele>
        <time>2011-03-04T08:26:47Z</time>
      </trkpt>
      <trkpt lat="43.71001" lon="4.95723">
        <ele>152</ele>
        <time>2011-03-04T08:26:57Z</time>
      </trkpt>
      <trkpt lat="43.7101" lon="4.95733">
        <ele>153</ele>
        <time>2011-03-04T08:27:07Z</time>
      </trkpt>
      <trkpt lat="43.71021" lon="4.9574">
        <ele>154</ele>
        <time>2011-03-04T08:27:17Z</time>
      </trkpt>
      <trkpt lat="43.71033" lon="4.95744">
        <ele>155</ele>
        <time>2011-03-04T08:27:27Z</time>
      </trkpt>
      <trkpt lat="43.71046" lon="4.95748">
        <ele>156</ele>
        <time>2011-03-04T08:27:37Z</time>
      </trkpt>
      <trkpt lat="43.71058" lon="4.95755">
        <ele>156</ele>
        <time>2011-03-04T08:27:47Z</time>
      </trkpt>
      <trkpt lat="43.71069" lon="4.95762">
        <ele>156</ele>
        <time>2011-03-04T08:27:57Z</time>
      </trkpt>
      <trkpt lat="43.7108" lon="4.95771">
        <ele>157</ele>
        <time>2011-03-04T08:28:08Z</time>
      </trkpt>
      <trkpt lat="43.71092" lon="4.95782">
        <ele>158</ele>
        <time>2011-03-04T08:28:19Z</time>
      </trkpt>
      <trkpt lat="43.71102" lon="4.95791">
        <ele>158</ele>
        <time>2011-03-04T08:28:29Z</time>
      </trkpt>
      <trkpt lat="43.71114" lon="4.95798">
        <ele>158</ele>
        <time>2011-03-04T08:28:39Z</time>
      </trkpt>
      <trkpt lat="43.71127" lon="4.95806">
        <ele>158</ele>
        <time>2011-03-04T08:28:49Z</time>
      </trkpt>
      <trkpt lat="43.71137" lon="4.95813">
        <ele>158</ele>
        <time>2011-03-04T08:28:59Z</time>
      </trkpt>
      <trkpt lat="43.7115" lon="4.95823">
        <ele>158</ele>
        <time>2011-03-04T08:29:10Z</time>
      </trkpt>
      <trkpt lat="43.71162" lon="4.95834">
        <ele>158</ele>
        <time>2011-03-04T08:29:21Z</time>
      </trkpt>
      <trkpt lat="43.71175" lon="4.95844">
        <ele>160</ele>
        <time>2011-03-04T08:29:32Z</time>
      </trkpt>
      <trkpt lat="43.71184" lon="4.95853">
        <ele>161</ele>
        <time>2011-03-04T08:29:42Z</time>
      </trkpt>
      <trkpt lat="43.71196" lon="4.95863">
        <ele>161</ele>
        <time>2011-03-04T08:29:53Z</time>
      </trkpt>
      <trkpt lat="43.71209" lon="4.95875">
        <ele>162</ele>
        <time>2011-03-04T08:30:04Z</time>
      </trkpt>
      <trkpt lat="43.71221" lon="4.95883">
        <ele>162</ele>
        <time>2011-03-04T08:30:14Z</time>
      </trkpt>
      <trkpt lat="43.71233" lon="4.95888">
        <ele>162</ele>
        <time>2011-03-04T08:30:25Z</time>
      </trkpt>
      <trkpt lat="43.71246" lon="4.95891">
        <ele>162</ele>
        <time>2011-03-04T08:30:35Z</time>
      </trkpt>
      <trkpt lat="43.71259" lon="4.95895">
        <ele>162</ele>
        <time>2011-03-04T08:30:45Z</time>
      </trkpt>
      <trkpt lat="43.71273" lon="4.95898">
        <ele>162</ele>
        <time>2011-03-04T08:30:55Z</time>
      </trkpt>
      <trkpt lat="43.71286" lon="4.95897">
        <ele>163</ele>
        <time>2011-03-04T08:31:05Z</time>
      </trkpt>
      <trkpt lat="43.71298" lon="4.95896">
        <ele>163</ele>
        <time>2011-03-04T08:31:15Z</time>
      </trkpt>
      <trkpt lat="43.71312" lon="4.959">
        <ele>164</ele>
        <time>2011-03-04T08:31:25Z</time>
      </trkpt>
      <trkpt lat="43.71322" lon="4.95912">
        <ele>165</ele>
        <time>2011-03-04T08:31:35Z</time>
      </trkpt>
      <trkpt lat="43.71329" lon="4.95927">
        <ele>167</ele>
        <time>2011-03-04T08:31:45Z</time>
      </trkpt>
      <trkpt lat="43.71339" lon="4.9594">
        <ele>167</ele>
        <time>2011-03-04T08:31:56Z</time>
      </trkpt>
      <trkpt lat="43.71349" lon="4.95953">
        <ele>168</ele>
        <time>2011-03-04T08:32:06Z</time>
      </trkpt>
      <trkpt lat="43.71356" lon="4.95968">
        <ele>169</ele>
        <time>2011-03-04T08:32:16Z</time>
      </trkpt>
      <trkpt lat="43.71358" lon="4.95986">
        <ele>171</ele>
        <time>2011-03-04T08:32:26Z</time>
      </trkpt>
      <trkpt lat="43.71357" lon="4.96003">
        <ele>171</ele>
        <time>2011-03-04T08:32:36Z</time>
      </trkpt>
      <trkpt lat="43.71358" lon="4.96022">
        <ele>171</ele>
        <time>2011-03-04T08:32:46Z</time>
      </trkpt>
      <trkpt lat="43.71363" lon="4.96038">
        <ele>171</ele>
        <time>2011-03-04T08:32:56Z</time>
      </trkpt>
      <trkpt lat="43.7137" lon="4.96054">
        <ele>171</ele>
        <time>2011-03-04T08:33:06Z</time>
      </trkpt>
      <trkpt lat="43.71378" lon="4.96068">
        <ele>171</ele>
        <time>2011-03-04T08:33:16Z</time>
      </trkpt>
      <trkpt lat="43.71386" lon="4.96081">
        <ele>171</ele>
        <time>2011-03-04T08:33:26Z</time>
      </trkpt>
      <trkpt lat="43.71395" lon="4.96092">
        <ele>171</ele>
        <time>2011-03-04T08:33:36Z</time>
      </trkpt>
      <trkpt lat="43.71406" lon="4.96104">
        <ele>171</ele>
        <time>2011-03-04T08:33:47Z</time>
      </trkpt>
      <trkpt lat="43.71415" lon="4.96116">
        <ele>173</ele>
        <time>2011-03-04T08:33:57Z</time>
      </trkpt>
      <trkpt lat="43.71424" lon="4.9613">
        <ele>174</ele>
        <time>2011-03-04T08:34:08Z</time>
      </trkpt>
      <trkpt lat="43.71433" lon="4.96144">
        <ele>174</ele>
        <time>2011-03-04T08:34:19Z</time>
      </trkpt>
      <trkpt lat="43.71441" lon="4.96158">
        <ele>174</ele>
        <time>2011-03-04T08:34:29Z</time>
      </trkpt>
      <trkpt lat="43.71448" lon="4.96173">
        <ele>174</ele>
        <time>2011-03-04T08:34:39Z</time>
      </trkpt>
      <trkpt lat="43.71453" lon="4.96189">
        <ele>174</ele>
        <time>2011-03-04T08:34:49Z</time>
      </trkpt>
      <trkpt lat="43.7146" lon="4.96206">
        <ele>175</ele>
        <time>2011-03-04T08:34:59Z</time>
      </trkpt>
      <trkpt lat="43.71468" lon="4.96218">
        <ele>176</ele>
        <time>2011-03-04T08:35:09Z</time>
      </trkpt>
      <trkpt lat="43.71479" lon="4.96228">
        <ele>177</ele>
        <time>2011-03-04T08:35:19Z</time>
      </trkpt>
      <trkpt lat="43.71486" lon="4.96241">
        <ele>177</ele>
        <time>2011-03-04T08:35:29Z</time>
      </trkpt>
      <trkpt lat="43.71492" lon="4.96256">
        <ele>177</ele>
        <time>2011-03-04T08:35:39Z</time>
      </trkpt>
      <trkpt lat="43.71502" lon="4.96271">
        <ele>177</ele>
        <time>2011-03-04T08:35:50Z</time>
      </trkpt>
      <trkpt lat="43.7151" lon="4.96283">
        <ele>177</ele>
        <time>2011-03-04T08:36:00Z</time>
      </trkpt>
      <trkpt lat="43.7152" lon="4.96296">
        <ele>178</ele>
        <time>2011-03-04T08:36:10Z</time>
      </trkpt>
      <trkpt lat="43.71527" lon="4.9631">
        <ele>180</ele>
        <time>2011-03-04T08:36:21Z</time>
      </trkpt>
      <trkpt lat="43.71531" lon="4.96324">
        <ele>182</ele>
        <time>2011-03-04T08:36:31Z</time>
      </trkpt>
      <trkpt lat="43.71533" lon="4.96342">
        <ele>185</ele>
        <time>2011-03-04T08:36:41Z</time>
      </trkpt>
      <trkpt lat="43.71535" lon="4.96357">
        <ele>186</ele>
        <time>2011-03-04T08:36:51Z</time>
      </trkpt>
      <trkpt lat="43.71537" lon="4.96372">
        <ele>186</ele>
        <time>2011-03-04T08:37:01Z</time>
      </trkpt>
      <trkpt lat="43.7154" lon="4.96389">
        <ele>186</ele>
        <time>2011-03-04T08:37:12Z</time>
      </trkpt>
      <trkpt lat="43.71543" lon="4.96402">
        <ele>186</ele>
        <time>2011-03-04T08:37:22Z</time>
      </trkpt>
      <trkpt lat="43.71549" lon="4.96417">
        <ele>186</ele>
        <time>2011-03-04T08:37:32Z</time>
      </trkpt>
      <trkpt lat="43.71555" lon="4.96433">
        <ele>188</ele>
        <time>2011-03-04T08:37:42Z</time>
      </trkpt>
      <trkpt lat="43.71561" lon="4.96449">
        <ele>189</ele>
        <time>2011-03-04T08:37:53Z</time>
      </trkpt>
      <trkpt lat="43.71569" lon="4.96464">
        <ele>189</ele>
        <time>2011-03-04T08:38:03Z</time>
      </trkpt>
      <trkpt lat="43.71575" lon="4.9648">
        <ele>189</ele>
        <time>2011-03-04T08:38:13Z</time>
      </trkpt>
      <trkpt lat="43.71578" lon="4.96497">
        <ele>189</ele>
        <time>2011-03-04T08:38:23Z</time>
      </trkpt>
      <trkpt lat="43.71581" lon="4.96516">
        <ele>189</ele>
        <time>2011-03-04T08:38:33Z</time>
      </trkpt>
      <trkpt lat="43.7158" lon="4.96535">
        <ele>191</ele>
        <time>2011-03-04T08:38:43Z</time>
      </trkpt>
      <trkpt lat="43.71577" lon="4.96554">
        <ele>192</ele>
        <time>2011-03-04T08:38:53Z</time>
      </trkpt>
      <trkpt lat="43.71575" lon="4.9657">
        <ele>192</ele>
        <time>2011-03-04T08:39:03Z</time>
      </trkpt>
      <trkpt lat="43.71575" lon="4.9659">
        <ele>192</ele>
        <time>2011-03-04T08:39:13Z</time>
      </trkpt>
      <trkpt lat="43.71577" lon="4.96607">
        <ele>194</ele>
        <time>2011-03-04T08:39:23Z</time>
      </trkpt>
      <trkpt lat="43.71579" lon="4.96624">
        <ele>195</ele>
        <time>2011-03-04T08:39:33Z</time>
      </trkpt>
      <trkpt lat="43.71584" lon="4.96642">
        <ele>195</ele>
        <time>2011-03-04T08:39:43Z</time>
      </trkpt>
      <trkpt lat="43.71585" lon="4.96659">
        <ele>197</ele>
        <time>2011-03-04T08:39:53Z</time>
      </trkpt>
      <trkpt lat="43.71577" lon="4.96672">
        <ele>197</ele>
        <time>2011-03-04T08:40:03Z</time>
      </trkpt>
      <trkpt lat="43.71571" lon="4.96686">
        <ele>197</ele>
        <time>2011-03-04T08:40:14Z</time>
      </trkpt>
      <trkpt lat="43.71572" lon="4.96703">
        <ele>197</ele>
        <time>2011-03-04T08:40:25Z</time>
      </trkpt>
      <trkpt lat="43.71575" lon="4.96722">
        <ele>197</ele>
        <time>2011-03-04T08:40:36Z</time>
      </trkpt>
      <trkpt lat="43.71581" lon="4.96737">
        <ele>197</ele>
        <time>2011-03-04T08:40:46Z</time>
      </trkpt>
      <trkpt lat="43.71583" lon="4.96755">
        <ele>199</ele>
        <time>2011-03-04T08:40:56Z</time>
      </trkpt>
      <trkpt lat="43.71595" lon="4.96751">
        <ele>199</ele>
        <time>2011-03-04T08:41:07Z</time>
      </trkpt>
      <trkpt lat="43.71605" lon="4.96748">
        <ele>199</ele>
        <time>2011-03-04T08:41:17Z</time>
      </trkpt>
      <trkpt lat="43.71612" lon="4.96757">
        <ele>199</ele>
        <time>2011-03-04T08:41:27Z</time>
      </trkpt>
      <trkpt lat="43.71609" lon="4.96774">
        <ele>201</ele>
        <time>2011-03-04T08:41:37Z</time>
      </trkpt>
      <trkpt lat="43.71604" lon="4.96789">
        <ele>203</ele>
        <time>2011-03-04T08:41:47Z</time>
      </trkpt>
      <trkpt lat="43.71602" lon="4.96806">
        <ele>203</ele>
        <time>2011-03-04T08:41:57Z</time>
      </trkpt>
      <trkpt lat="43.71604" lon="4.96822">
        <ele>203</ele>
        <time>2011-03-04T08:42:07Z</time>
      </trkpt>
      <trkpt lat="43.71608" lon="4.96837">
        <ele>204</ele>
        <time>2011-03-04T08:42:17Z</time>
      </trkpt>
      <trkpt lat="43.71613" lon="4.96852">
        <ele>204</ele>
        <time>2011-03-04T08:42:27Z</time>
      </trkpt>
      <trkpt lat="43.71622" lon="4.96864">
        <ele>204</ele>
        <time>2011-03-04T08:42:38Z</time>
      </trkpt>
      <trkpt lat="43.7163" lon="4.96876">
        <ele>205</ele>
        <time>2011-03-04T08:42:48Z</time>
      </trkpt>
      <trkpt lat="43.71631" lon="4.96892">
        <ele>207</ele>
        <time>2011-03-04T08:42:58Z</time>
      </trkpt>
      <trkpt lat="43.71621" lon="4.96903">
        <ele>208</ele>
        <time>2011-03-04T08:43:08Z</time>
      </trkpt>
      <trkpt lat="43.71611" lon="4.96911">
        <ele>209</ele>
        <time>2011-03-04T08:43:18Z</time>
      </trkpt>
      <trkpt lat="43.71601" lon="4.96923">
        <ele>209</ele>
        <time>2011-03-04T08:43:29Z</time>
      </trkpt>
      <trkpt lat="43.7159" lon="4.96929">
        <ele>210</ele>
        <time>2011-03-04T08:43:40Z</time>
      </trkpt>
      <trkpt lat="43.71579" lon="4.96936">
        <ele>210</ele>
        <time>2011-03-04T08:43:50Z</time>
      </trkpt>
      <trkpt lat="43.71571" lon="4.96949">
        <ele>210</ele>
        <time>2011-03-04T08:44:00Z</time>
      </trkpt>
      <trkpt lat="43.71559" lon="4.96957">
        <ele>214</ele>
        <time>2011-03-04T08:44:10Z</time>
      </trkpt>
      <trkpt lat="43.7155" lon="4.96967">
        <ele>214</ele>
        <time>2011-03-04T08:44:20Z</time>
      </trkpt>
      <trkpt lat="43.71543" lon="4.9698">
        <ele>214</ele>
        <time>2011-03-04T08:44:30Z</time>
      </trkpt>
      <trkpt lat="43.71542" lon="4.96997">
        <ele>214</ele>
        <time>2011-03-04T08:44:40Z</time>
      </trkpt>
      <trkpt lat="43.71549" lon="4.97012">
        <ele>216</ele>
        <time>2011-03-04T08:44:50Z</time>
      </trkpt>
      <trkpt lat="43.71562" lon="4.97021">
        <ele>217</ele>
        <time>2011-03-04T08:45:02Z</time>
      </trkpt>
      <trkpt lat="43.71572" lon="4.97026">
        <ele>217</ele>
        <time>2011-03-04T08:45:12Z</time>
      </trkpt>
      <trkpt lat="43.71585" lon="4.97028">
        <ele>217</ele>
        <time>2011-03-04T08:45:23Z</time>
      </trkpt>
      <trkpt lat="43.71594" lon="4.97036">
        <ele>219</ele>
        <time>2011-03-04T08:45:33Z</time>
      </trkpt>
      <trkpt lat="43.71592" lon="4.97052">
        <ele>220</ele>
        <time>2011-03-04T08:45:43Z</time>
      </trkpt>
      <trkpt lat="43.71585" lon="4.97066">
        <ele>220</ele>
        <time>2011-03-04T08:45:54Z</time>
      </trkpt>
      <trkpt lat="43.71577" lon="4.97077">
        <ele>220</ele>
        <time>2011-03-04T08:46:04Z</time>
      </trkpt>
      <trkpt lat="43.71571" lon="4.97091">
        <ele>220</ele>
        <time>2011-03-04T08:46:14Z</time>
      </trkpt>
      <trkpt lat="43.71567" lon="4.9711">
        <ele>220</ele>
        <time>2011-03-04T08:46:24Z</time>
      </trkpt>
      <trkpt lat="43.71569" lon="4.9713">
        <ele>223</ele>
        <time>2011-03-04T08:46:35Z</time>
      </trkpt>
      <trkpt lat="43.7157" lon="4.97144">
        <ele>226</ele>
        <time>2011-03-04T08:46:45Z</time>
      </trkpt>
      <trkpt lat="43.71569" lon="4.97158">
        <ele>226</ele>
        <time>2011-03-04T08:46:55Z</time>
      </trkpt>
      <trkpt lat="43.71563" lon="4.97171">
        <ele>228</ele>
        <time>2011-03-04T08:47:06Z</time>
      </trkpt>
      <trkpt lat="43.71555" lon="4.97187">
        <ele>230</ele>
        <time>2011-03-04T08:47:18Z</time>
      </trkpt>
      <trkpt lat="43.71546" lon="4.97198">
        <ele>232</ele>
        <time>2011-03-04T08:47:29Z</time>
      </trkpt>
      <trkpt lat="43.71536" lon="4.97205">
        <ele>231</ele>
        <time>2011-03-04T08:47:40Z</time>
      </trkpt>
      <trkpt lat="43.71529" lon="4.97217">
        <ele>228</ele>
        <time>2011-03-04T08:47:50Z</time>
      </trkpt>
      <trkpt lat="43.71526" lon="4.97234">
        <ele>227</ele>
        <time>2011-03-04T08:48:02Z</time>
      </trkpt>
      <trkpt lat="43.71525" lon="4.97251">
        <ele>227</ele>
        <time>2011-03-04T08:48:12Z</time>
      </trkpt>
      <trkpt lat="43.71524" lon="4.97266">
        <ele>227</ele>
        <time>2011-03-04T08:48:22Z</time>
      </trkpt>
      <trkpt lat="43.71526" lon="4.97284">
        <ele>229</ele>
        <time>2011-03-04T08:48:32Z</time>
      </trkpt>
      <trkpt lat="43.71522" lon="4.97299">
        <ele>229</ele>
        <time>2011-03-04T08:48:42Z</time>
      </trkpt>
      <trkpt lat="43.71518" lon="4.97313">
        <ele>229</ele>
        <time>2011-03-04T08:48:52Z</time>
      </trkpt>
      <trkpt lat="43.71516" lon="4.97333">
        <ele>231</ele>
        <time>2011-03-04T08:49:03Z</time>
      </trkpt>
      <trkpt lat="43.71513" lon="4.97349">
        <ele>233</ele>
        <time>2011-03-04T08:49:13Z</time>
      </trkpt>
      <trkpt lat="43.71507" lon="4.97364">
        <ele>233</ele>
        <time>2011-03-04T08:49:23Z</time>
      </trkpt>
      <trkpt lat="43.715" lon="4.97379">
        <ele>233</ele>
        <time>2011-03-04T08:49:34Z</time>
      </trkpt>
      <trkpt lat="43.71494" lon="4.97393">
        <ele>233</ele>
        <time>2011-03-04T08:49:44Z</time>
      </trkpt>
      <trkpt lat="43.71494" lon="4.9741">
        <ele>233</ele>
        <time>2011-03-04T08:49:54Z</time>
      </trkpt>
      <trkpt lat="43.71492" lon="4.97425">
        <ele>233</ele>
        <time>2011-03-04T08:50:04Z</time>
      </trkpt>
      <trkpt lat="43.71486" lon="4.97442">
        <ele>236</ele>
        <time>2011-03-04T08:50:15Z</time>
      </trkpt>
      <trkpt lat="43.71478" lon="4.97455">
        <ele>237</ele>
        <time>2011-03-04T08:50:27Z</time>
      </trkpt>
      <trkpt lat="43.71472" lon="4.9747">
        <ele>237</ele>
        <time>2011-03-04T08:50:38Z</time>
      </trkpt>
      <trkpt lat="43.71466" lon="4.97486">
        <ele>237</ele>
        <time>2011-03-04T08:50:49Z</time>
      </trkpt>
      <trkpt lat="43.71461" lon="4.97502">
        <ele>237</ele>
        <time>2011-03-04T08:50:59Z</time>
      </trkpt>
      <trkpt lat="43.71458" lon="4.97517">
        <ele>238</ele>
        <time>2011-03-04T08:51:09Z</time>
      </trkpt>
      <trkpt lat="43.71453" lon="4.9753">
        <ele>239</ele>
        <time>2011-03-04T08:51:19Z</time>
      </trkpt>
      <trkpt lat="43.7145" lon="4.97545">
        <ele>239</ele>
        <time>2011-03-04T08:51:30Z</time>
      </trkpt>
      <trkpt lat="43.71445" lon="4.9756">
        <ele>239</ele>
        <time>2011-03-04T08:51:42Z</time>
      </trkpt>
      <trkpt lat="43.71441" lon="4.97572">
        <ele>239</ele>
        <time>2011-03-04T08:51:54Z</time>
      </trkpt>
      <trkpt lat="43.71437" lon="4.97584">
        <ele>239</ele>
        <time>2011-03-04T08:52:04Z</time>
      </trkpt>
      <trkpt lat="43.71432" lon="4.97596">
        <ele>239</ele>
        <time>2011-03-04T08:52:14Z</time>
      </trkpt>
      <trkpt lat="43.71429" lon="4.9761">
        <ele>243</ele>
        <time>2011-03-04T08:52:24Z</time>
      </trkpt>
      <trkpt lat="43.71425" lon="4.97623">
        <ele>245</ele>
        <time>2011-03-04T08:52:35Z</time>
      </trkpt>
      <trkpt lat="43.71426" lon="4.97637">
        <ele>245</ele>
        <time>2011-03-04T08:52:45Z</time>
      </trkpt>
      <trkpt lat="43.71431" lon="4.97647">
        <ele>246</ele>
        <time>2011-03-04T08:52:55Z</time>
      </trkpt>
      <trkpt lat="43.71436" lon="4.97661">
        <ele>246</ele>
        <time>2011-03-04T08:53:07Z</time>
      </trkpt>
      <trkpt lat="43.71438" lon="4.97676">
        <ele>246</ele>
        <time>2011-03-04T08:53:17Z</time>
      </trkpt>
      <trkpt lat="43.71438" lon="4.97692">
        <ele>246</ele>
        <time>2011-03-04T08:53:28Z</time>
      </trkpt>
      <trkpt lat="43.71437" lon="4.97708">
        <ele>248</ele>
        <time>2011-03-04T08:53:39Z</time>
      </trkpt>
      <trkpt lat="43.71433" lon="4.9772">
        <ele>250</ele>
        <time>2011-03-04T08:53:51Z</time>
      </trkpt>
      <trkpt lat="43.71429" lon="4.97731">
        <ele>251</ele>
        <time>2011-03-04T08:54:02Z</time>
      </trkpt>
      <trkpt lat="43.71424" lon="4.97743">
        <ele>251</ele>
        <time>2011-03-04T08:54:12Z</time>
      </trkpt>
      <trkpt lat="43.71421" lon="4.97757">
        <ele>251</ele>
        <time>2011-03-04T08:54:22Z</time>
      </trkpt>
      <trkpt lat="43.71421" lon="4.97771">
        <ele>255</ele>
        <time>2011-03-04T08:54:32Z</time>
      </trkpt>
      <trkpt lat="43.71423" lon="4.97783">
        <ele>256</ele>
        <time>2011-03-04T08:54:42Z</time>
      </trkpt>
      <trkpt lat="43.71426" lon="4.97794">
        <ele>256</ele>
        <time>2011-03-04T08:54:53Z</time>
      </trkpt>
      <trkpt lat="43.71429" lon="4.97807">
        <ele>257</ele>
        <time>2011-03-04T08:55:04Z</time>
      </trkpt>
      <trkpt lat="43.71433" lon="4.97818">
        <ele>258</ele>
        <time>2011-03-04T08:55:14Z</time>
      </trkpt>
      <trkpt lat="43.71437" lon="4.97827">
        <ele>261</ele>
        <time>2011-03-04T08:55:25Z</time>
      </trkpt>
      <trkpt lat="43.71444" lon="4.97833">
        <ele>264</ele>
        <time>2011-03-04T08:55:35Z</time>
      </trkpt>
      <trkpt lat="43.71451" lon="4.97841">
        <ele>266</ele>
        <time>2011-03-04T08:55:46Z</time>
      </trkpt>
      <trkpt lat="43.71457" lon="4.97849">
        <ele>267</ele>
        <time>2011-03-04T08:55:56Z</time>
      </trkpt>
      <trkpt lat="43.71463" lon="4.97858">
        <ele>268</ele>
        <time>2011-03-04T08:56:06Z</time>
      </trkpt>
      <trkpt lat="43.71469" lon="4.97865">
        <ele>271</ele>
        <time>2011-03-04T08:56:16Z</time>
      </trkpt>
      <trkpt lat="43.7147" lon="4.97876">
        <ele>273</ele>
        <time>2011-03-04T08:56:27Z</time>
      </trkpt>
      <trkpt lat="43.71471" lon="4.97884">
        <ele>273</ele>
        <time>2011-03-04T08:56:38Z</time>
      </trkpt>
      <trkpt lat="43.71475" lon="4.97893">
        <ele>273</ele>
        <time>2011-03-04T08:56:49Z</time>
      </trkpt>
      <trkpt lat="43.71476" lon="4.979">
        <ele>277</ele>
        <time>2011-03-04T08:57:02Z</time>
      </trkpt>
      <trkpt lat="43.71473" lon="4.97911">
        <ele>278</ele>
        <time>2011-03-04T08:57:14Z</time>
      </trkpt>
      <trkpt lat="43.7147" lon="4.97921">
        <ele>279</ele>
        <time>2011-03-04T08:57:25Z</time>
      </trkpt>
      <trkpt lat="43.71475" lon="4.97928">
        <ele>280</ele>
        <time>2011-03-04T08:57:35Z</time>
      </trkpt>
      <trkpt lat="43.71479" lon="4.97939">
        <ele>282</ele>
        <time>2011-03-04T08:57:45Z</time>
      </trkpt>
      <trkpt lat="43.71482" lon="4.97957">
        <ele>283</ele>
        <time>2011-03-04T08:57:55Z</time>
      </trkpt>
      <trkpt lat="43.71487" lon="4.97974">
        <ele>284</ele>
        <time>2011-03-04T08:58:05Z</time>
      </trkpt>
      <trkpt lat="43.71489" lon="4.97991">
        <ele>287</ele>
        <time>2011-03-04T08:58:15Z</time>
      </trkpt>
      <trkpt lat="43.71489" lon="4.98004">
        <ele>290</ele>
        <time>2011-03-04T08:58:26Z</time>
      </trkpt>
      <trkpt lat="43.71491" lon="4.98018">
        <ele>292</ele>
        <time>2011-03-04T08:58:36Z</time>
      </trkpt>
      <trkpt lat="43.71494" lon="4.98033">
        <ele>295</ele>
        <time>2011-03-04T08:58:46Z</time>
      </trkpt>
      <trkpt lat="43.71493" lon="4.98046">
        <ele>298</ele>
        <time>2011-03-04T08:58:56Z</time>
      </trkpt>
      <trkpt lat="43.71485" lon="4.98054">
        <ele>300</ele>
        <time>2011-03-04T08:59:06Z</time>
      </trkpt>
      <trkpt lat="43.71477" lon="4.9806">
        <ele>301</ele>
        <time>2011-03-04T08:59:16Z</time>
      </trkpt>
      <trkpt lat="43.71474" lon="4.98073">
        <ele>302</ele>
        <time>2011-03-04T08:59:26Z</time>
      </trkpt>
      <trkpt lat="43.7147" lon="4.98085">
        <ele>304</ele>
        <time>2011-03-04T08:59:36Z</time>
      </trkpt>
      <trkpt lat="43.71467" lon="4.98095">
        <ele>305</ele>
        <time>2011-03-04T08:59:46Z</time>
      </trkpt>
      <trkpt lat="43.71466" lon="4.98104">
        <ele>307</ele>
        <time>2011-03-04T08:59:57Z</time>
      </trkpt>
      <trkpt lat="43.71464" lon="4.98114">
        <ele>309</ele>
        <time>2011-03-04T09:00:07Z</time>
      </trkpt>
      <trkpt lat="43.71461" lon="4.98123">
        <ele>311</ele>
        <time>2011-03-04T09:00:17Z</time>
      </trkpt>
      <trkpt lat="43.71459" lon="4.98132">
        <ele>313</ele>
        <time>2011-03-04T09:00:27Z</time>
      </trkpt>
      <trkpt lat="43.71457" lon="4.98143">
        <ele>313</ele>
        <time>2011-03-04T09:00:38Z</time>
      </trkpt>
      <trkpt lat="43.71454" lon="4.98151">
        <ele>314</ele>
        <time>2011-03-04T09:00:48Z</time>
      </trkpt>
      <trkpt lat="43.71449" lon="4.98161">
        <ele>315</ele>
        <time>2011-03-04T09:00:58Z</time>
      </trkpt>
      <trkpt lat="43.71446" lon="4.98171">
        <ele>318</ele>
        <time>2011-03-04T09:01:08Z</time>
      </trkpt>
      <trkpt lat="43.71443" lon="4.9818">
        <ele>321</ele>
        <time>2011-03-04T09:01:18Z</time>
      </trkpt>
      <trkpt lat="43.71445" lon="4.98192">
        <ele>322</ele>
        <time>2011-03-04T09:01:29Z</time>
      </trkpt>
      <trkpt lat="43.71451" lon="4.98203">
        <ele>323</ele>
        <time>2011-03-04T09:01:40Z</time>
      </trkpt>
      <trkpt lat="43.71455" lon="4.98214">
        <ele>326</ele>
        <time>2011-03-04T09:01:51Z</time>
      </trkpt>
      <trkpt lat="43.71457" lon="4.98225">
        <ele>328</ele>
        <time>2011-03-04T09:02:01Z</time>
      </trkpt>
      <trkpt lat="43.71458" lon="4.98239">
        <ele>330</ele>
        <time>2011-03-04T09:02:12Z</time>
      </trkpt>
      <trkpt lat="43.7146" lon="4.98248">
        <ele>331</ele>
        <time>2011-03-04T09:02:22Z</time>
      </trkpt>
      <trkpt lat="43.71458" lon="4.98248">
        <ele>334</ele>
        <time>2011-03-04T09:03:06Z</time>
      </trkpt>
      <trkpt lat="43.71458" lon="4.98246">
        <ele>335</ele>
        <time>2011-03-04T09:03:16Z</time>
      </trkpt>
      <trkpt lat="43.7146" lon="4.98245">
        <ele>335</ele>
        <time>2011-03-04T09:04:17Z</time>
      </trkpt>
      <trkpt lat="43.71458" lon="4.98248">
        <ele>336</ele>
        <time>2011-03-04T09:04:34Z</time>
      </trkpt>
      <trkpt lat="43.71458" lon="4.98246">
        <ele>336</ele>
        <time>2011-03-04T09:05:13Z</time>
      </trkpt>
      <trkpt lat="43.71459" lon="4.98247">
        <ele>336</ele>
        <time>2011-03-04T09:06:40Z</time>
      </trkpt>
      <trkpt lat="43.71457" lon="4.98246">
        <ele>336</ele>
        <time>2011-03-04T09:07:29Z</time>
      </trkpt>
      <trkpt lat="43.7145" lon="4.98234">
        <ele>336</ele>
        <time>2011-03-04T09:07:40Z</time>
      </trkpt>
      <trkpt lat="43.71442" lon="4.98223">
        <ele>336</ele>
        <time>2011-03-04T09:07:51Z</time>
      </trkpt>
      <trkpt lat="43.71434" lon="4.98212">
        <ele>336</ele>
        <time>2011-03-04T09:08:01Z</time>
      </trkpt>
      <trkpt lat="43.71428" lon="4.98201">
        <ele>336</ele>
        <time>2011-03-04T09:08:11Z</time>
      </trkpt>
      <trkpt lat="43.71421" lon="4.9819">
        <ele>336</ele>
        <time>2011-03-04T09:08:21Z</time>
      </trkpt>
      <trkpt lat="43.71413" lon="4.98184">
        <ele>336</ele>
        <time>2011-03-04T09:08:31Z</time>
      </trkpt>
      <trkpt lat="43.71405" lon="4.98174">
        <ele>336</ele>
        <time>2011-03-04T09:08:41Z</time>
      </trkpt>
      <trkpt lat="43.71398" lon="4.98161">
        <ele>336</ele>
        <time>2011-03-04T09:08:51Z</time>
      </trkpt>
      <trkpt lat="43.71393" lon="4.98147">
        <ele>336</ele>
        <time>2011-03-04T09:09:01Z</time>
      </trkpt>
      <trkpt lat="43.71388" lon="4.98135">
        <ele>336</ele>
        <time>2011-03-04T09:09:11Z</time>
      </trkpt>
      <trkpt lat="43.71382" lon="4.9812">
        <ele>337</ele>
        <time>2011-03-04T09:09:21Z</time>
      </trkpt>
      <trkpt lat="43.71373" lon="4.98111">
        <ele>339</ele>
        <time>2011-03-04T09:09:31Z</time>
      </trkpt>
      <trkpt lat="43.71366" lon="4.98098">
        <ele>340</ele>
        <time>2011-03-04T09:09:42Z</time>
      </trkpt>
      <trkpt lat="43.7136" lon="4.98088">
        <ele>341</ele>
        <time>2011-03-04T09:09:52Z</time>
      </trkpt>
      <trkpt lat="43.71353" lon="4.98077">
        <ele>341</ele>
        <time>2011-03-04T09:10:02Z</time>
      </trkpt>
      <trkpt lat="43.71351" lon="4.98064">
        <ele>342</ele>
        <time>2011-03-04T09:10:12Z</time>
      </trkpt>
      <trkpt lat="43.71347" lon="4.98052">
        <ele>343</ele>
        <time>2011-03-04T09:10:22Z</time>
      </trkpt>
      <trkpt lat="43.71342" lon="4.98042">
        <ele>344</ele>
        <time>2011-03-04T09:10:32Z</time>
      </trkpt>
      <trkpt lat="43.71336" lon="4.98029">
        <ele>345</ele>
        <time>2011-03-04T09:10:42Z</time>
      </trkpt>
      <trkpt lat="43.71328" lon="4.98024">
        <ele>346</ele>
        <time>2011-03-04T09:10:53Z</time>
      </trkpt>
      <trkpt lat="43.71321" lon="4.98022">
        <ele>347</ele>
        <time>2011-03-04T09:11:03Z</time>
      </trkpt>
      <trkpt lat="43.71314" lon="4.98023">
        <ele>349</ele>
        <time>2011-03-04T09:11:14Z</time>
      </trkpt>
      <trkpt lat="43.7131" lon="4.98028">
        <ele>350</ele>
        <time>2011-03-04T09:11:24Z</time>
      </trkpt>
      <trkpt lat="43.71307" lon="4.98032">
        <ele>353</ele>
        <time>2011-03-04T09:11:34Z</time>
      </trkpt>
      <trkpt lat="43.71303" lon="4.98034">
        <ele>357</ele>
        <time>2011-03-04T09:11:44Z</time>
      </trkpt>
      <trkpt lat="43.71303" lon="4.9804">
        <ele>359</ele>
        <time>2011-03-04T09:11:57Z</time>
      </trkpt>
      <trkpt lat="43.71302" lon="4.98045">
        <ele>360</ele>
        <time>2011-03-04T09:12:08Z</time>
      </trkpt>
      <trkpt lat="43.71298" lon="4.98049">
        <ele>361</ele>
        <time>2011-03-04T09:12:19Z</time>
      </trkpt>
      <trkpt lat="43.71295" lon="4.98052">
        <ele>362</ele>
        <time>2011-03-04T09:12:31Z</time>
      </trkpt>
      <trkpt lat="43.71291" lon="4.98054">
        <ele>363</ele>
        <time>2011-03-04T09:12:42Z</time>
      </trkpt>
      <trkpt lat="43.71287" lon="4.98056">
        <ele>366</ele>
        <time>2011-03-04T09:12:53Z</time>
      </trkpt>
      <trkpt lat="43.71283" lon="4.98059">
        <ele>368</ele>
        <time>2011-03-04T09:13:05Z</time>
      </trkpt>
      <trkpt lat="43.71278" lon="4.98057">
        <ele>370</ele>
        <time>2011-03-04T09:13:15Z</time>
      </trkpt>
      <trkpt lat="43.71275" lon="4.9806">
        <ele>371</ele>
        <time>2011-03-04T09:13:28Z</time>
      </trkpt>
      <trkpt lat="43.7127" lon="4.98062">
        <ele>373</ele>
        <time>2011-03-04T09:13:39Z</time>
      </trkpt>
      <trkpt lat="43.71265" lon="4.98062">
        <ele>375</ele>
        <time>2011-03-04T09:13:49Z</time>
      </trkpt>
      <trkpt lat="43.71258" lon="4.98062">
        <ele>376</ele>
        <time>2011-03-04T09:14:00Z</time>
      </trkpt>
      <trkpt lat="43.71251" lon="4.98068">
        <ele>378</ele>
        <time>2011-03-04T09:14:11Z</time>
      </trkpt>
      <trkpt lat="43.71244" lon="4.98073">
        <ele>380</ele>
        <time>2011-03-04T09:14:22Z</time>
      </trkpt>
      <trkpt lat="43.71238" lon="4.98078">
        <ele>383</ele>
        <time>2011-03-04T09:14:34Z</time>
      </trkpt>
      <trkpt lat="43.71234" lon="4.98082">
        <ele>384</ele>
        <time>2011-03-04T09:14:44Z</time>
      </trkpt>
      <trkpt lat="43.7123" lon="4.98086">
        <ele>388</ele>
        <time>2011-03-04T09:14:56Z</time>
      </trkpt>
      <trkpt lat="43.71224" lon="4.9809">
        <ele>390</ele>
        <time>2011-03-04T09:15:07Z</time>
      </trkpt>
      <trkpt lat="43.71217" lon="4.98091">
        <ele>390</ele>
        <time>2011-03-04T09:15:18Z</time>
      </trkpt>
      <trkpt lat="43.71212" lon="4.98091">
        <ele>393</ele>
        <time>2011-03-04T09:15:28Z</time>
      </trkpt>
      <trkpt lat="43.71207" lon="4.9809">
        <ele>397</ele>
        <time>2011-03-04T09:15:40Z</time>
      </trkpt>
      <trkpt lat="43.71207" lon="4.98093">
        <ele>398</ele>
        <time>2011-03-04T09:15:52Z</time>
      </trkpt>
      <trkpt lat="43.71205" lon="4.98095">
        <ele>402</ele>
        <time>2011-03-04T09:16:02Z</time>
      </trkpt>
      <trkpt lat="43.71198" lon="4.98094">
        <ele>405</ele>
        <time>2011-03-04T09:16:12Z</time>
      </trkpt>
      <trkpt lat="43.71192" lon="4.98096">
        <ele>405</ele>
        <time>2011-03-04T09:16:24Z</time>
      </trkpt>
      <trkpt lat="43.7119" lon="4.981">
        <ele>407</ele>
        <time>2011-03-04T09:16:34Z</time>
      </trkpt>
      <trkpt lat="43.71189" lon="4.98104">
        <ele>409</ele>
        <time>2011-03-04T09:16:47Z</time>
      </trkpt>
      <trkpt lat="43.71191" lon="4.98105">
        <ele>411</ele>
        <time>2011-03-04T09:17:01Z</time>
      </trkpt>
      <trkpt lat="43.71188" lon="4.9811">
        <ele>413</ele>
        <time>2011-03-04T09:17:11Z</time>
      </trkpt>
      <trkpt lat="43.71184" lon="4.98114">
        <ele>414</ele>
        <time>2011-03-04T09:17:22Z</time>
      </trkpt>
      <trkpt lat="43.71177" lon="4.98114">
        <ele>415</ele>
        <time>2011-03-04T09:17:32Z</time>
      </trkpt>
      <trkpt lat="43.71172" lon="4.98119">
        <ele>417</ele>
        <time>2011-03-04T09:17:43Z</time>
      </trkpt>
      <trkpt lat="43.71167" lon="4.98125">
        <ele>419</ele>
        <time>2011-03-04T09:17:53Z</time>
      </trkpt>
      <trkpt lat="43.71159" lon="4.98129">
        <ele>421</ele>
        <time>2011-03-04T09:18:03Z</time>
      </trkpt>
      <trkpt lat="43.71154" lon="4.9813">
        <ele>421</ele>
        <time>2011-03-04T09:18:15Z</time>
      </trkpt>
      <trkpt lat="43.71149" lon="4.98135">
        <ele>423</ele>
        <time>2011-03-04T09:18:26Z</time>
      </trkpt>
      <trkpt lat="43.71145" lon="4.98137">
        <ele>424</ele>
        <time>2011-03-04T09:18:36Z</time>
      </trkpt>
      <trkpt lat="43.71144" lon="4.98149">
        <ele>425</ele>
        <time>2011-03-04T09:18:47Z</time>
      </trkpt>
      <trkpt lat="43.71145" lon="4.98152">
        <ele>425</ele>
        <time>2011-03-04T09:19:03Z</time>
      </trkpt>
      <trkpt lat="43.71146" lon="4.98153">
        <ele>425</ele>
        <time>2011-03-04T09:19:16Z</time>
      </trkpt>
      <trkpt lat="43.71145" lon="4.98151">
        <ele>429</ele>
        <time>2011-03-04T09:19:38Z</time>
      </trkpt>
      <trkpt lat="43.71143" lon="4.9815">
        <ele>431</ele>
        <time>2011-03-04T09:19:57Z</time>
      </trkpt>
      <trkpt lat="43.71144" lon="4.98152">
        <ele>431</ele>
        <time>2011-03-04T09:20:12Z</time>
      </trkpt>
      <trkpt lat="43.71146" lon="4.98157">
        <ele>431</ele>
        <time>2011-03-04T09:20:22Z</time>
      </trkpt>
      <trkpt lat="43.7115" lon="4.98161">
        <ele>431</ele>
        <time>2011-03-04T09:20:34Z</time>
      </trkpt>
      <trkpt lat="43.71152" lon="4.98167">
        <ele>431</ele>
        <time>2011-03-04T09:20:45Z</time>
      </trkpt>
      <trkpt lat="43.71155" lon="4.98174">
        <ele>433</ele>
        <time>2011-03-04T09:20:56Z</time>
      </trkpt>
      <trkpt lat="43.71157" lon="4.98184">
        <ele>434</ele>
        <time>2011-03-04T09:21:06Z</time>
      </trkpt>
      <trkpt lat="43.7116" lon="4.98195">
        <ele>434</ele>
        <time>2011-03-04T09:21:20Z</time>
      </trkpt>
      <trkpt lat="43.71164" lon="4.98194">
        <ele>440</ele>
        <time>2011-03-04T09:21:41Z</time>
      </trkpt>
      <trkpt lat="43.71166" lon="4.98197">
        <ele>446</ele>
        <time>2011-03-04T09:21:55Z</time>
      </trkpt>
      <trkpt lat="43.71167" lon="4.98192">
        <ele>451</ele>
        <time>2011-03-04T09:22:07Z</time>
      </trkpt>
      <trkpt lat="43.71171" lon="4.98189">
        <ele>454</ele>
        <time>2011-03-04T09:22:18Z</time>
      </trkpt>
      <trkpt lat="43.71175" lon="4.98179">
        <ele>454</ele>
        <time>2011-03-04T09:22:29Z</time>
      </trkpt>
      <trkpt lat="43.71179" lon="4.98173">
        <ele>454</ele>
        <time>2011-03-04T09:22:39Z</time>
      </trkpt>
      <trkpt lat="43.71185" lon="4.98176">
        <ele>454</ele>
        <time>2011-03-04T09:22:50Z</time>
      </trkpt>
      <trkpt lat="43.71187" lon="4.98181">
        <ele>454</ele>
        <time>2011-03-04T09:23:00Z</time>
      </trkpt>
      <trkpt lat="43.71188" lon="4.98182">
        <ele>454</ele>
        <time>2011-03-04T09:23:17Z</time>
      </trkpt>
      <trkpt lat="43.71188" lon="4.98188">
        <ele>454</ele>
        <time>2011-03-04T09:23:29Z</time>
      </trkpt>
      <trkpt lat="43.71186" lon="4.98195">
        <ele>454</ele>
        <time>2011-03-04T09:23:39Z</time>
      </trkpt>
      <trkpt lat="43.71186" lon="4.98204">
        <ele>454</ele>
        <time>2011-03-04T09:23:50Z</time>
      </trkpt>
      <trkpt lat="43.7119" lon="4.9821">
        <ele>452</ele>
        <time>2011-03-04T09:24:05Z</time>
      </trkpt>
      <trkpt lat="43.7119" lon="4.98219">
        <ele>452</ele>
        <time>2011-03-04T09:24:16Z</time>
      </trkpt>
      <trkpt lat="43.71186" lon="4.98228">
        <ele>454</ele>
        <time>2011-03-04T09:24:26Z</time>
      </trkpt>
      <trkpt lat="43.71183" lon="4.98237">
        <ele>454</ele>
        <time>2011-03-04T09:24:38Z</time>
      </trkpt>
      <trkpt lat="43.7118" lon="4.9824">
        <ele>456</ele>
        <time>2011-03-04T09:24:48Z</time>
      </trkpt>
      <trkpt lat="43.71182" lon="4.98241">
        <ele>460</ele>
        <time>2011-03-04T09:25:00Z</time>
      </trkpt>
      <trkpt lat="43.71183" lon="4.98247">
        <ele>463</ele>
        <time>2011-03-04T09:25:10Z</time>
      </trkpt>
      <trkpt lat="43.7118" lon="4.98257">
        <ele>464</ele>
        <time>2011-03-04T09:25:20Z</time>
      </trkpt>
      <trkpt lat="43.7118" lon="4.98269">
        <ele>464</ele>
        <time>2011-03-04T09:25:30Z</time>
      </trkpt>
      <trkpt lat="43.71184" lon="4.98275">
        <ele>465</ele>
        <time>2011-03-04T09:25:41Z</time>
      </trkpt>
      <trkpt lat="43.71188" lon="4.98278">
        <ele>466</ele>
        <time>2011-03-04T09:25:52Z</time>
      </trkpt>
      <trkpt lat="43.71192" lon="4.98275">
        <ele>467</ele>
        <time>2011-03-04T09:26:03Z</time>
      </trkpt>
      <trkpt lat="43.71195" lon="4.98273">
        <ele>468</ele>
        <time>2011-03-04T09:26:15Z</time>
      </trkpt>
      <trkpt lat="43.71196" lon="4.98271">
        <ele>469</ele>
        <time>2011-03-04T09:26:25Z</time>
      </trkpt>
      <trkpt lat="43.71199" lon="4.98271">
        <ele>472</ele>
        <time>2011-03-04T09:26:38Z</time>
      </trkpt>
      <trkpt lat="43.71204" lon="4.98267">
        <ele>479</ele>
        <time>2011-03-04T09:27:00Z</time>
      </trkpt>
      <trkpt lat="43.71208" lon="4.98268">
        <ele>482</ele>
        <time>2011-03-04T09:27:18Z</time>
      </trkpt>
      <trkpt lat="43.71211" lon="4.98271">
        <ele>482</ele>
        <time>2011-03-04T09:27:34Z</time>
      </trkpt>
      <trkpt lat="43.71214" lon="4.98275">
        <ele>482</ele>
        <time>2011-03-04T09:27:45Z</time>
      </trkpt>
      <trkpt lat="43.71215" lon="4.98267">
        <ele>483</ele>
        <time>2011-03-04T09:27:56Z</time>
      </trkpt>
      <trkpt lat="43.71216" lon="4.98272">
        <ele>487</ele>
        <time>2011-03-04T09:28:07Z</time>
      </trkpt>
      <trkpt lat="43.71219" lon="4.98274">
        <ele>484</ele>
        <time>2011-03-04T09:28:24Z</time>
      </trkpt>
      <trkpt lat="43.71217" lon="4.98274">
        <ele>484</ele>
        <time>2011-03-04T09:28:35Z</time>
      </trkpt>
      <trkpt lat="43.7122" lon="4.98272">
        <ele>484</ele>
        <time>2011-03-04T09:28:54Z</time>
      </trkpt>
      <trkpt lat="43.71218" lon="4.98269">
        <ele>484</ele>
        <time>2011-03-04T09:29:05Z</time>
      </trkpt>
      <trkpt lat="43.71216" lon="4.98275">
        <ele>484</ele>
        <time>2011-03-04T09:29:16Z</time>
      </trkpt>
      <trkpt lat="43.71217" lon="4.98278">
        <ele>487</ele>
        <time>2011-03-04T09:29:28Z</time>
      </trkpt>
      <trkpt lat="43.71216" lon="4.98271">
        <ele>487</ele>
        <time>2011-03-04T09:29:42Z</time>
      </trkpt>
      <trkpt lat="43.71212" lon="4.9827">
        <ele>489</ele>
        <time>2011-03-04T09:29:53Z</time>
      </trkpt>
      <trkpt lat="43.71213" lon="4.9827">
        <ele>490</ele>
        <time>2011-03-04T09:30:06Z</time>
      </trkpt>
      <trkpt lat="43.71216" lon="4.98272">
        <ele>489</ele>
        <time>2011-03-04T09:30:21Z</time>
      </trkpt>
      <trkpt lat="43.71215" lon="4.98275">
        <ele>488</ele>
        <time>2011-03-04T09:30:33Z</time>
      </trkpt>
      <trkpt lat="43.71215" lon="4.98275">
        <ele>488</ele>
        <time>2011-03-04T09:30:51Z</time>
      </trkpt>
      <trkpt lat="43.71215" lon="4.98273">
        <ele>488</ele>
        <time>2011-03-04T09:31:02Z</time>
      </trkpt>
      <trkpt lat="43.71217" lon="4.98269">
        <ele>488</ele>
        <time>2011-03-04T09:31:12Z</time>
      </trkpt>
      <trkpt lat="43.71218" lon="4.98274">
        <ele>488</ele>
        <time>2011-03-04T09:31:22Z</time>
      </trkpt>
      <trkpt lat="43.71217" lon="4.98282">
        <ele>488</ele>
        <time>2011-03-04T09:31:33Z</time>
      </trkpt>
      <trkpt lat="43.71216" lon="4.98285">
        <ele>488</ele>
        <time>2011-03-04T09:32:06Z</time>
      </trkpt>
      <trkpt lat="43.71217" lon="4.98285">
        <ele>488</ele>
        <time>2011-03-04T09:32:17Z</time>
      </trkpt>
      <trkpt lat="43.71215" lon="4.98278">
        <ele>488</ele>
        <time>2011-03-04T09:32:32Z</time>
      </trkpt>
      <trkpt lat="43.71214" lon="4.9828">
        <ele>488</ele>
        <time>2011-03-04T09:33:32Z</time>
      </trkpt>
      <trkpt lat="43.71214" lon="4.9828">
        <ele>488</ele>
        <time>2011-03-04T09:34:20Z</time>
      </trkpt>
      <trkpt lat="43.71214" lon="4.98281">
        <ele>487</ele>
        <time>2011-03-04T09:34:33Z</time>
      </trkpt>
      <trkpt lat="43.71212" lon="4.98288">
        <ele>487</ele>
        <time>2011-03-04T09:34:45Z</time>
      </trkpt>
      <trkpt lat="43.71208" lon="4.98291">
        <ele>487</ele>
        <time>2011-03-04T09:34:58Z</time>
      </trkpt>
      <trkpt lat="43.71206" lon="4.98286">
        <ele>484</ele>
        <time>2011-03-04T09:35:11Z</time>
      </trkpt>
      <trkpt lat="43.71202" lon="4.98281">
        <ele>482</ele>
        <time>2011-03-04T09:35:26Z</time>
      </trkpt>
      <trkpt lat="43.71199" lon="4.9828">
        <ele>480</ele>
        <time>2011-03-04T09:35:37Z</time>
      </trkpt>
      <trkpt lat="43.71199" lon="4.98273">
        <ele>476</ele>
        <time>2011-03-04T09:35:58Z</time>
      </trkpt>
      <trkpt lat="43.71194" lon="4.98276">
        <ele>474</ele>
        <time>2011-03-04T09:36:10Z</time>
      </trkpt>
      <trkpt lat="43.71187" lon="4.98277">
        <ele>472</ele>
        <time>2011-03-04T09:36:21Z</time>
      </trkpt>
      <trkpt lat="43.7118" lon="4.98269">
        <ele>470</ele>
        <time>2011-03-04T09:36:33Z</time>
      </trkpt>
      <trkpt lat="43.71179" lon="4.98257">
        <ele>469</ele>
        <time>2011-03-04T09:36:43Z</time>
      </trkpt>
      <trkpt lat="43.71183" lon="4.9825">
        <ele>469</ele>
        <time>2011-03-04T09:36:55Z</time>
      </trkpt>
      <trkpt lat="43.71184" lon="4.98244">
        <ele>467</ele>
        <time>2011-03-04T09:37:14Z</time>
      </trkpt>
      <trkpt lat="43.71182" lon="4.98243">
        <ele>465</ele>
        <time>2011-03-04T09:37:25Z</time>
      </trkpt>
      <trkpt lat="43.71178" lon="4.98242">
        <ele>463</ele>
        <time>2011-03-04T09:37:35Z</time>
      </trkpt>
      <trkpt lat="43.71176" lon="4.9824">
        <ele>461</ele>
        <time>2011-03-04T09:37:45Z</time>
      </trkpt>
      <trkpt lat="43.71174" lon="4.98239">
        <ele>458</ele>
        <time>2011-03-04T09:37:55Z</time>
      </trkpt>
      <trkpt lat="43.71172" lon="4.98225">
        <ele>457</ele>
        <time>2011-03-04T09:38:07Z</time>
      </trkpt>
      <trkpt lat="43.71174" lon="4.98219">
        <ele>457</ele>
        <time>2011-03-04T09:38:17Z</time>
      </trkpt>
      <trkpt lat="43.71176" lon="4.98214">
        <ele>457</ele>
        <time>2011-03-04T09:38:27Z</time>
      </trkpt>
      <trkpt lat="43.71175" lon="4.98207">
        <ele>455</ele>
        <time>2011-03-04T09:38:37Z</time>
      </trkpt>
      <trkpt lat="43.71174" lon="4.98202">
        <ele>454</ele>
        <time>2011-03-04T09:38:47Z</time>
      </trkpt>
      <trkpt lat="43.71172" lon="4.98194">
        <ele>453</ele>
        <time>2011-03-04T09:39:00Z</time>
      </trkpt>
      <trkpt lat="43.7117" lon="4.98191">
        <ele>452</ele>
        <time>2011-03-04T09:39:11Z</time>
      </trkpt>
      <trkpt lat="43.71168" lon="4.98194">
        <ele>448</ele>
        <time>2011-03-04T09:39:30Z</time>
      </trkpt>
      <trkpt lat="43.71168" lon="4.98195">
        <ele>442</ele>
        <time>2011-03-04T09:39:41Z</time>
      </trkpt>
      <trkpt lat="43.71166" lon="4.98196">
        <ele>439</ele>
        <time>2011-03-04T09:39:52Z</time>
      </trkpt>
      <trkpt lat="43.71161" lon="4.98195">
        <ele>438</ele>
        <time>2011-03-04T09:40:02Z</time>
      </trkpt>
      <trkpt lat="43.71159" lon="4.98185">
        <ele>438</ele>
        <time>2011-03-04T09:40:12Z</time>
      </trkpt>
      <trkpt lat="43.71156" lon="4.98173">
        <ele>438</ele>
        <time>2011-03-04T09:40:23Z</time>
      </trkpt>
      <trkpt lat="43.71152" lon="4.98164">
        <ele>436</ele>
        <time>2011-03-04T09:40:33Z</time>
      </trkpt>
      <trkpt lat="43.71149" lon="4.98159">
        <ele>435</ele>
        <time>2011-03-04T09:40:43Z</time>
      </trkpt>
      <trkpt lat="43.71142" lon="4.98153">
        <ele>432</ele>
        <time>2011-03-04T09:40:54Z</time>
      </trkpt>
      <trkpt lat="43.71138" lon="4.98144">
        <ele>431</ele>
        <time>2011-03-04T09:41:04Z</time>
      </trkpt>
      <trkpt lat="43.71135" lon="4.98134">
        <ele>431</ele>
        <time>2011-03-04T09:41:15Z</time>
      </trkpt>
      <trkpt lat="43.71135" lon="4.98133">
        <ele>431</ele>
        <time>2011-03-04T09:41:25Z</time>
      </trkpt>
      <trkpt lat="43.71134" lon="4.9813">
        <ele>431</ele>
        <time>2011-03-04T09:41:39Z</time>
      </trkpt>
      <trkpt lat="43.71135" lon="4.98135">
        <ele>431</ele>
        <time>2011-03-04T09:42:04Z</time>
      </trkpt>
      <trkpt lat="43.71128" lon="4.98132">
        <ele>431</ele>
        <time>2011-03-04T09:42:15Z</time>
      </trkpt>
      <trkpt lat="43.7113" lon="4.98137">
        <ele>434</ele>
        <time>2011-03-04T09:42:26Z</time>
      </trkpt>
      <trkpt lat="43.71136" lon="4.98139">
        <ele>434</ele>
        <time>2011-03-04T09:42:42Z</time>
      </trkpt>
      <trkpt lat="43.7114" lon="4.98141">
        <ele>433</ele>
        <time>2011-03-04T09:43:11Z</time>
      </trkpt>
      <trkpt lat="43.71138" lon="4.98138">
        <ele>433</ele>
        <time>2011-03-04T09:43:21Z</time>
      </trkpt>
      <trkpt lat="43.7114" lon="4.98143">
        <ele>432</ele>
        <time>2011-03-04T09:43:34Z</time>
      </trkpt>
      <trkpt lat="43.71146" lon="4.98137">
        <ele>432</ele>
        <time>2011-03-04T09:43:44Z</time>
      </trkpt>
      <trkpt lat="43.71149" lon="4.98138">
        <ele>429</ele>
        <time>2011-03-04T09:44:13Z</time>
      </trkpt>
      <trkpt lat="43.71148" lon="4.98131">
        <ele>429</ele>
        <time>2011-03-04T09:44:25Z</time>
      </trkpt>
      <trkpt lat="43.71152" lon="4.98128">
        <ele>428</ele>
        <time>2011-03-04T09:44:37Z</time>
      </trkpt>
      <trkpt lat="43.71157" lon="4.98125">
        <ele>426</ele>
        <time>2011-03-04T09:44:47Z</time>
      </trkpt>
      <trkpt lat="43.71166" lon="4.98121">
        <ele>424</ele>
        <time>2011-03-04T09:44:57Z</time>
      </trkpt>
      <trkpt lat="43.71172" lon="4.98118">
        <ele>422</ele>
        <time>2011-03-04T09:45:09Z</time>
      </trkpt>
      <trkpt lat="43.71179" lon="4.98114">
        <ele>419</ele>
        <time>2011-03-04T09:45:20Z</time>
      </trkpt>
      <trkpt lat="43.71186" lon="4.98112">
        <ele>417</ele>
        <time>2011-03-04T09:45:31Z</time>
      </trkpt>
      <trkpt lat="43.71188" lon="4.98107">
        <ele>416</ele>
        <time>2011-03-04T09:45:43Z</time>
      </trkpt>
      <trkpt lat="43.71188" lon="4.98104">
        <ele>415</ele>
        <time>2011-03-04T09:46:04Z</time>
      </trkpt>
      <trkpt lat="43.71188" lon="4.98103">
        <ele>414</ele>
        <time>2011-03-04T09:46:15Z</time>
      </trkpt>
      <trkpt lat="43.71191" lon="4.98094">
        <ele>411</ele>
        <time>2011-03-04T09:46:27Z</time>
      </trkpt>
      <trkpt lat="43.71198" lon="4.9809">
        <ele>409</ele>
        <time>2011-03-04T09:46:38Z</time>
      </trkpt>
      <trkpt lat="43.71205" lon="4.98093">
        <ele>407</ele>
        <time>2011-03-04T09:46:50Z</time>
      </trkpt>
      <trkpt lat="43.71207" lon="4.98089">
        <ele>403</ele>
        <time>2011-03-04T09:47:03Z</time>
      </trkpt>
      <trkpt lat="43.71214" lon="4.98083">
        <ele>397</ele>
        <time>2011-03-04T09:47:14Z</time>
      </trkpt>
      <trkpt lat="43.71224" lon="4.9808">
        <ele>394</ele>
        <time>2011-03-04T09:47:24Z</time>
      </trkpt>
      <trkpt lat="43.71229" lon="4.98074">
        <ele>392</ele>
        <time>2011-03-04T09:47:35Z</time>
      </trkpt>
      <trkpt lat="43.71235" lon="4.98069">
        <ele>390</ele>
        <time>2011-03-04T09:47:46Z</time>
      </trkpt>
      <trkpt lat="43.71246" lon="4.98066">
        <ele>387</ele>
        <time>2011-03-04T09:47:57Z</time>
      </trkpt>
      <trkpt lat="43.71256" lon="4.98061">
        <ele>385</ele>
        <time>2011-03-04T09:48:08Z</time>
      </trkpt>
      <trkpt lat="43.71263" lon="4.98059">
        <ele>384</ele>
        <time>2011-03-04T09:48:19Z</time>
      </trkpt>
      <trkpt lat="43.7127" lon="4.98058">
        <ele>382</ele>
        <time>2011-03-04T09:48:30Z</time>
      </trkpt>
      <trkpt lat="43.71276" lon="4.98056">
        <ele>378</ele>
        <time>2011-03-04T09:48:43Z</time>
      </trkpt>
      <trkpt lat="43.71283" lon="4.98054">
        <ele>375</ele>
        <time>2011-03-04T09:48:54Z</time>
      </trkpt>
      <trkpt lat="43.71288" lon="4.98053">
        <ele>373</ele>
        <time>2011-03-04T09:49:04Z</time>
      </trkpt>
      <trkpt lat="43.71294" lon="4.9805">
        <ele>370</ele>
        <time>2011-03-04T09:49:16Z</time>
      </trkpt>
      <trkpt lat="43.71299" lon="4.98046">
        <ele>368</ele>
        <time>2011-03-04T09:49:27Z</time>
      </trkpt>
      <trkpt lat="43.71302" lon="4.98042">
        <ele>366</ele>
        <time>2011-03-04T09:49:39Z</time>
      </trkpt>
      <trkpt lat="43.71303" lon="4.98037">
        <ele>365</ele>
        <time>2011-03-04T09:49:50Z</time>
      </trkpt>
      <trkpt lat="43.71306" lon="4.98033">
        <ele>361</ele>
        <time>2011-03-04T09:50:02Z</time>
      </trkpt>
      <trkpt lat="43.71311" lon="4.98028">
        <ele>358</ele>
        <time>2011-03-04T09:50:12Z</time>
      </trkpt>
      <trkpt lat="43.71318" lon="4.98022">
        <ele>355</ele>
        <time>2011-03-04T09:50:23Z</time>
      </trkpt>
      <trkpt lat="43.71326" lon="4.98022">
        <ele>353</ele>
        <time>2011-03-04T09:50:33Z</time>
      </trkpt>
      <trkpt lat="43.71335" lon="4.98024">
        <ele>351</ele>
        <time>2011-03-04T09:50:43Z</time>
      </trkpt>
      <trkpt lat="43.71341" lon="4.98037">
        <ele>350</ele>
        <time>2011-03-04T09:50:53Z</time>
      </trkpt>
      <trkpt lat="43.71345" lon="4.98047">
        <ele>348</ele>
        <time>2011-03-04T09:51:03Z</time>
      </trkpt>
      <trkpt lat="43.71351" lon="4.98056">
        <ele>347</ele>
        <time>2011-03-04T09:51:13Z</time>
      </trkpt>
      <trkpt lat="43.71353" lon="4.98071">
        <ele>345</ele>
        <time>2011-03-04T09:51:23Z</time>
      </trkpt>
      <trkpt lat="43.7136" lon="4.98084">
        <ele>343</ele>
        <time>2011-03-04T09:51:34Z</time>
      </trkpt>
      <trkpt lat="43.71368" lon="4.98097">
        <ele>342</ele>
        <time>2011-03-04T09:51:45Z</time>
      </trkpt>
      <trkpt lat="43.71375" lon="4.98111">
        <ele>340</ele>
        <time>2011-03-04T09:51:56Z</time>
      </trkpt>
      <trkpt lat="43.71383" lon="4.9812">
        <ele>339</ele>
        <time>2011-03-04T09:52:06Z</time>
      </trkpt>
      <trkpt lat="43.71388" lon="4.98134">
        <ele>338</ele>
        <time>2011-03-04T09:52:16Z</time>
      </trkpt>
      <trkpt lat="43.71392" lon="4.98147">
        <ele>337</ele>
        <time>2011-03-04T09:52:26Z</time>
      </trkpt>
      <trkpt lat="43.71398" lon="4.98162">
        <ele>335</ele>
        <time>2011-03-04T09:52:36Z</time>
      </trkpt>
      <trkpt lat="43.71405" lon="4.98174">
        <ele>334</ele>
        <time>2011-03-04T09:52:46Z</time>
      </trkpt>
      <trkpt lat="43.71415" lon="4.98184">
        <ele>334</ele>
        <time>2011-03-04T09:52:56Z</time>
      </trkpt>
      <trkpt lat="43.71423" lon="4.98195">
        <ele>334</ele>
        <time>2011-03-04T09:53:07Z</time>
      </trkpt>
      <trkpt lat="43.71431" lon="4.98208">
        <ele>334</ele>
        <time>2011-03-04T09:53:17Z</time>
      </trkpt>
      <trkpt lat="43.71439" lon="4.9822">
        <ele>334</ele>
        <time>2011-03-04T09:53:28Z</time>
      </trkpt>
      <trkpt lat="43.71449" lon="4.98233">
        <ele>334</ele>
        <time>2011-03-04T09:53:39Z</time>
      </trkpt>
      <trkpt lat="43.71456" lon="4.98246">
        <ele>334</ele>
        <time>2011-03-04T09:53:49Z</time>
      </trkpt>
      <trkpt lat="43.71461" lon="4.9826">
        <ele>334</ele>
        <time>2011-03-04T09:54:00Z</time>
      </trkpt>
      <trkpt lat="43.71462" lon="4.98271">
        <ele>334</ele>
        <time>2011-03-04T09:54:10Z</time>
      </trkpt>
      <trkpt lat="43.71461" lon="4.98283">
        <ele>334</ele>
        <time>2011-03-04T09:54:21Z</time>
      </trkpt>
      <trkpt lat="43.71466" lon="4.98292">
        <ele>333</ele>
        <time>2011-03-04T09:54:31Z</time>
      </trkpt>
      <trkpt lat="43.71474" lon="4.98298">
        <ele>329</ele>
        <time>2011-03-04T09:54:43Z</time>
      </trkpt>
      <trkpt lat="43.71483" lon="4.98306">
        <ele>327</ele>
        <time>2011-03-04T09:54:54Z</time>
      </trkpt>
      <trkpt lat="43.71487" lon="4.98315">
        <ele>325</ele>
        <time>2011-03-04T09:55:04Z</time>
      </trkpt>
      <trkpt lat="43.71492" lon="4.98325">
        <ele>322</ele>
        <time>2011-03-04T09:55:14Z</time>
      </trkpt>
      <trkpt lat="43.715" lon="4.98328">
        <ele>319</ele>
        <time>2011-03-04T09:55:24Z</time>
      </trkpt>
      <trkpt lat="43.71508" lon="4.98332">
        <ele>317</ele>
        <time>2011-03-04T09:55:54Z</time>
      </trkpt>
      <trkpt lat="43.71506" lon="4.98333">
        <ele>317</ele>
        <time>2011-03-04T09:56:31Z</time>
      </trkpt>
      <trkpt lat="43.7151" lon="4.98339">
        <ele>316</ele>
        <time>2011-03-04T09:56:55Z</time>
      </trkpt>
      <trkpt lat="43.71511" lon="4.98352">
        <ele>316</ele>
        <time>2011-03-04T09:57:05Z</time>
      </trkpt>
      <trkpt lat="43.71514" lon="4.98364">
        <ele>314</ele>
        <time>2011-03-04T09:57:16Z</time>
      </trkpt>
      <trkpt lat="43.71518" lon="4.98377">
        <ele>311</ele>
        <time>2011-03-04T09:57:27Z</time>
      </trkpt>
      <trkpt lat="43.71521" lon="4.98391">
        <ele>308</ele>
        <time>2011-03-04T09:57:38Z</time>
      </trkpt>
      <trkpt lat="43.71522" lon="4.98397">
        <ele>307</ele>
        <time>2011-03-04T09:57:48Z</time>
      </trkpt>
      <trkpt lat="43.71522" lon="4.98405">
        <ele>306</ele>
        <time>2011-03-04T09:58:02Z</time>
      </trkpt>
      <trkpt lat="43.71522" lon="4.98406">
        <ele>306</ele>
        <time>2011-03-04T09:58:12Z</time>
      </trkpt>
      <trkpt lat="43.71521" lon="4.98412">
        <ele>306</ele>
        <time>2011-03-04T09:58:22Z</time>
      </trkpt>
      <trkpt lat="43.71525" lon="4.98427">
        <ele>304</ele>
        <time>2011-03-04T09:58:33Z</time>
      </trkpt>
      <trkpt lat="43.71531" lon="4.98444">
        <ele>303</ele>
        <time>2011-03-04T09:58:43Z</time>
      </trkpt>
      <trkpt lat="43.71532" lon="4.98461">
        <ele>302</ele>
        <time>2011-03-04T09:58:53Z</time>
      </trkpt>
      <trkpt lat="43.71528" lon="4.98479">
        <ele>300</ele>
        <time>2011-03-04T09:59:03Z</time>
      </trkpt>
      <trkpt lat="43.71533" lon="4.98496">
        <ele>299</ele>
        <time>2011-03-04T09:59:14Z</time>
      </trkpt>
      <trkpt lat="43.71538" lon="4.98512">
        <ele>298</ele>
        <time>2011-03-04T09:59:24Z</time>
      </trkpt>
      <trkpt lat="43.71542" lon="4.98527">
        <ele>298</ele>
        <time>2011-03-04T09:59:34Z</time>
      </trkpt>
      <trkpt lat="43.71548" lon="4.98541">
        <ele>297</ele>
        <time>2011-03-04T09:59:45Z</time>
      </trkpt>
      <trkpt lat="43.71549" lon="4.98555">
        <ele>295</ele>
        <time>2011-03-04T09:59:55Z</time>
      </trkpt>
      <trkpt lat="43.71551" lon="4.98568">
        <ele>294</ele>
        <time>2011-03-04T10:00:05Z</time>
      </trkpt>
      <trkpt lat="43.71553" lon="4.98582">
        <ele>292</ele>
        <time>2011-03-04T10:00:15Z</time>
      </trkpt>
      <trkpt lat="43.71559" lon="4.98597">
        <ele>291</ele>
        <time>2011-03-04T10:00:26Z</time>
      </trkpt>
      <trkpt lat="43.71564" lon="4.98611">
        <ele>291</ele>
        <time>2011-03-04T10:00:36Z</time>
      </trkpt>
      <trkpt lat="43.71569" lon="4.98626">
        <ele>291</ele>
        <time>2011-03-04T10:00:47Z</time>
      </trkpt>
      <trkpt lat="43.71579" lon="4.98631">
        <ele>291</ele>
        <time>2011-03-04T10:00:58Z</time>
      </trkpt>
      <trkpt lat="43.71589" lon="4.98631">
        <ele>291</ele>
        <time>2011-03-04T10:01:08Z</time>
      </trkpt>
      <trkpt lat="43.716" lon="4.9863">
        <ele>289</ele>
        <time>2011-03-04T10:01:19Z</time>
      </trkpt>
      <trkpt lat="43.71608" lon="4.98631">
        <ele>286</ele>
        <time>2011-03-04T10:01:29Z</time>
      </trkpt>
      <trkpt lat="43.71616" lon="4.98632">
        <ele>281</ele>
        <time>2011-03-04T10:01:39Z</time>
      </trkpt>
      <trkpt lat="43.71631" lon="4.98636">
        <ele>280</ele>
        <time>2011-03-04T10:01:49Z</time>
      </trkpt>
      <trkpt lat="43.71643" lon="4.98642">
        <ele>280</ele>
        <time>2011-03-04T10:01:59Z</time>
      </trkpt>
      <trkpt lat="43.71653" lon="4.98654">
        <ele>280</ele>
        <time>2011-03-04T10:02:10Z</time>
      </trkpt>
      <trkpt lat="43.71662" lon="4.98668">
        <ele>280</ele>
        <time>2011-03-04T10:02:20Z</time>
      </trkpt>
      <trkpt lat="43.71668" lon="4.98681">
        <ele>280</ele>
        <time>2011-03-04T10:02:30Z</time>
      </trkpt>
      <trkpt lat="43.71678" lon="4.9869">
        <ele>280</ele>
        <time>2011-03-04T10:02:41Z</time>
      </trkpt>
      <trkpt lat="43.71689" lon="4.98694">
        <ele>280</ele>
        <time>2011-03-04T10:02:52Z</time>
      </trkpt>
      <trkpt lat="43.71699" lon="4.98702">
        <ele>278</ele>
        <time>2011-03-04T10:03:03Z</time>
      </trkpt>
      <trkpt lat="43.71707" lon="4.98713">
        <ele>275</ele>
        <time>2011-03-04T10:03:13Z</time>
      </trkpt>
      <trkpt lat="43.71715" lon="4.98724">
        <ele>272</ele>
        <time>2011-03-04T10:03:24Z</time>
      </trkpt>
      <trkpt lat="43.71723" lon="4.98733">
        <ele>269</ele>
        <time>2011-03-04T10:03:34Z</time>
      </trkpt>
      <trkpt lat="43.7173" lon="4.98747">
        <ele>267</ele>
        <time>2011-03-04T10:03:45Z</time>
      </trkpt>
      <trkpt lat="43.7173" lon="4.98766">
        <ele>266</ele>
        <time>2011-03-04T10:03:55Z</time>
      </trkpt>
      <trkpt lat="43.71733" lon="4.98779">
        <ele>265</ele>
        <time>2011-03-04T10:04:05Z</time>
      </trkpt>
      <trkpt lat="43.71738" lon="4.98796">
        <ele>264</ele>
        <time>2011-03-04T10:04:16Z</time>
      </trkpt>
      <trkpt lat="43.71742" lon="4.98808">
        <ele>263</ele>
        <time>2011-03-04T10:04:26Z</time>
      </trkpt>
      <trkpt lat="43.71746" lon="4.98819">
        <ele>259</ele>
        <time>2011-03-04T10:04:36Z</time>
      </trkpt>
      <trkpt lat="43.7175" lon="4.98837">
        <ele>258</ele>
        <time>2011-03-04T10:04:47Z</time>
      </trkpt>
      <trkpt lat="43.71752" lon="4.98852">
        <ele>256</ele>
        <time>2011-03-04T10:04:57Z</time>
      </trkpt>
      <trkpt lat="43.71755" lon="4.98871">
        <ele>255</ele>
        <time>2011-03-04T10:05:07Z</time>
      </trkpt>
      <trkpt lat="43.71757" lon="4.98887">
        <ele>253</ele>
        <time>2011-03-04T10:05:17Z</time>
      </trkpt>
      <trkpt lat="43.7176" lon="4.98903">
        <ele>251</ele>
        <time>2011-03-04T10:05:27Z</time>
      </trkpt>
      <trkpt lat="43.71762" lon="4.98919">
        <ele>248</ele>
        <time>2011-03-04T10:05:37Z</time>
      </trkpt>
      <trkpt lat="43.71763" lon="4.98936">
        <ele>247</ele>
        <time>2011-03-04T10:05:47Z</time>
      </trkpt>
      <trkpt lat="43.71767" lon="4.98952">
        <ele>246</ele>
        <time>2011-03-04T10:05:57Z</time>
      </trkpt>
      <trkpt lat="43.71772" lon="4.98967">
        <ele>245</ele>
        <time>2011-03-04T10:06:07Z</time>
      </trkpt>
      <trkpt lat="43.7178" lon="4.98981">
        <ele>243</ele>
        <time>2011-03-04T10:06:18Z</time>
      </trkpt>
      <trkpt lat="43.71785" lon="4.98995">
        <ele>240</ele>
        <time>2011-03-04T10:06:29Z</time>
      </trkpt>
      <trkpt lat="43.71783" lon="4.99011">
        <ele>239</ele>
        <time>2011-03-04T10:06:39Z</time>
      </trkpt>
      <trkpt lat="43.71783" lon="4.99027">
        <ele>237</ele>
        <time>2011-03-04T10:06:50Z</time>
      </trkpt>
      <trkpt lat="43.71787" lon="4.99038">
        <ele>235</ele>
        <time>2011-03-04T10:07:01Z</time>
      </trkpt>
      <trkpt lat="43.71793" lon="4.9905">
        <ele>233</ele>
        <time>2011-03-04T10:07:12Z</time>
      </trkpt>
      <trkpt lat="43.71798" lon="4.99063">
        <ele>232</ele>
        <time>2011-03-04T10:07:22Z</time>
      </trkpt>
      <trkpt lat="43.71804" lon="4.99075">
        <ele>231</ele>
        <time>2011-03-04T10:07:32Z</time>
      </trkpt>
      <trkpt lat="43.7181" lon="4.99088">
        <ele>229</ele>
        <time>2011-03-04T10:07:42Z</time>
      </trkpt>
      <trkpt lat="43.71817" lon="4.99102">
        <ele>227</ele>
        <time>2011-03-04T10:07:53Z</time>
      </trkpt>
      <trkpt lat="43.71823" lon="4.99117">
        <ele>225</ele>
        <time>2011-03-04T10:08:03Z</time>
      </trkpt>
      <trkpt lat="43.71825" lon="4.99134">
        <ele>224</ele>
        <time>2011-03-04T10:08:13Z</time>
      </trkpt>
      <trkpt lat="43.71822" lon="4.99149">
        <ele>222</ele>
        <time>2011-03-04T10:08:23Z</time>
      </trkpt>
      <trkpt lat="43.71817" lon="4.99165">
        <ele>220</ele>
        <time>2011-03-04T10:08:33Z</time>
      </trkpt>
      <trkpt lat="43.71811" lon="4.99179">
        <ele>218</ele>
        <time>2011-03-04T10:08:43Z</time>
      </trkpt>
      <trkpt lat="43.71804" lon="4.99193">
        <ele>218</ele>
        <time>2011-03-04T10:08:53Z</time>
      </trkpt>
      <trkpt lat="43.71798" lon="4.99208">
        <ele>217</ele>
        <time>2011-03-04T10:09:03Z</time>
      </trkpt>
      <trkpt lat="43.71793" lon="4.99224">
        <ele>216</ele>
        <time>2011-03-04T10:09:13Z</time>
      </trkpt>
      <trkpt lat="43.7179" lon="4.99241">
        <ele>216</ele>
        <time>2011-03-04T10:09:23Z</time>
      </trkpt>
      <trkpt lat="43.71789" lon="4.99259">
        <ele>215</ele>
        <time>2011-03-04T10:09:33Z</time>
      </trkpt>
      <trkpt lat="43.71786" lon="4.99275">
        <ele>214</ele>
        <time>2011-03-04T10:09:43Z</time>
      </trkpt>
      <trkpt lat="43.71784" lon="4.99292">
        <ele>212</ele>
        <time>2011-03-04T10:09:53Z</time>
      </trkpt>
      <trkpt lat="43.71783" lon="4.99309">
        <ele>211</ele>
        <time>2011-03-04T10:10:03Z</time>
      </trkpt>
      <trkpt lat="43.7178" lon="4.99329">
        <ele>209</ele>
        <time>2011-03-04T10:10:14Z</time>
      </trkpt>
      <trkpt lat="43.71778" lon="4.99346">
        <ele>208</ele>
        <time>2011-03-04T10:10:24Z</time>
      </trkpt>
      <trkpt lat="43.71779" lon="4.99362">
        <ele>206</ele>
        <time>2011-03-04T10:10:34Z</time>
      </trkpt>
      <trkpt lat="43.71778" lon="4.99379">
        <ele>205</ele>
        <time>2011-03-04T10:10:44Z</time>
      </trkpt>
      <trkpt lat="43.71778" lon="4.99398">
        <ele>204</ele>
        <time>2011-03-04T10:10:54Z</time>
      </trkpt>
      <trkpt lat="43.71782" lon="4.99412">
        <ele>202</ele>
        <time>2011-03-04T10:11:04Z</time>
      </trkpt>
      <trkpt lat="43.71785" lon="4.99428">
        <ele>200</ele>
        <time>2011-03-04T10:11:14Z</time>
      </trkpt>
      <trkpt lat="43.71788" lon="4.99444">
        <ele>200</ele>
        <time>2011-03-04T10:11:24Z</time>
      </trkpt>
      <trkpt lat="43.71791" lon="4.9946">
        <ele>199</ele>
        <time>2011-03-04T10:11:35Z</time>
      </trkpt>
      <trkpt lat="43.71794" lon="4.99475">
        <ele>198</ele>
        <time>2011-03-04T10:11:45Z</time>
      </trkpt>
      <trkpt lat="43.71795" lon="4.9949">
        <ele>197</ele>
        <time>2011-03-04T10:11:55Z</time>
      </trkpt>
      <trkpt lat="43.71795" lon="4.99509">
        <ele>196</ele>
        <time>2011-03-04T10:12:05Z</time>
      </trkpt>
      <trkpt lat="43.7179" lon="4.99524">
        <ele>195</ele>
        <time>2011-03-04T10:12:15Z</time>
      </trkpt>
      <trkpt lat="43.71788" lon="4.99541">
        <ele>193</ele>
        <time>2011-03-04T10:12:25Z</time>
      </trkpt>
      <trkpt lat="43.71788" lon="4.99558">
        <ele>193</ele>
        <time>2011-03-04T10:12:35Z</time>
      </trkpt>
      <trkpt lat="43.71783" lon="4.99567">
        <ele>177</ele>
        <time>2011-03-04T10:13:17Z</time>
      </trkpt>
      <trkpt lat="43.71782" lon="4.99578">
        <ele>178</ele>
        <time>2011-03-04T10:13:27Z</time>
      </trkpt>
      <trkpt lat="43.71781" lon="4.99585">
        <ele>180</ele>
        <time>2011-03-04T10:13:37Z</time>
      </trkpt>
      <trkpt lat="43.71783" lon="4.99606">
        <ele>185</ele>
        <time>2011-03-04T10:13:47Z</time>
      </trkpt>
      <trkpt lat="43.71786" lon="4.99623">
        <ele>187</ele>
        <time>2011-03-04T10:13:57Z</time>
      </trkpt>
      <trkpt lat="43.71785" lon="4.99636">
        <ele>188</ele>
        <time>2011-03-04T10:14:07Z</time>
      </trkpt>
      <trkpt lat="43.71786" lon="4.99649">
        <ele>189</ele>
        <time>2011-03-04T10:14:17Z</time>
      </trkpt>
      <trkpt lat="43.71791" lon="4.9966">
        <ele>190</ele>
        <time>2011-03-04T10:14:27Z</time>
      </trkpt>
      <trkpt lat="43.718" lon="4.99666">
        <ele>191</ele>
        <time>2011-03-04T10:14:37Z</time>
      </trkpt>
      <trkpt lat="43.71807" lon="4.99669">
        <ele>191</ele>
        <time>2011-03-04T10:14:47Z</time>
      </trkpt>
      <trkpt lat="43.71815" lon="4.99673">
        <ele>191</ele>
        <time>2011-03-04T10:14:57Z</time>
      </trkpt>
      <trkpt lat="43.71822" lon="4.99676">
        <ele>191</ele>
        <time>2011-03-04T10:15:07Z</time>
      </trkpt>
      <trkpt lat="43.71829" lon="4.99685">
        <ele>188</ele>
        <time>2011-03-04T10:15:17Z</time>
      </trkpt>
      <trkpt lat="43.71835" lon="4.99698">
        <ele>186</ele>
        <time>2011-03-04T10:15:27Z</time>
      </trkpt>
      <trkpt lat="43.71845" lon="4.99705">
        <ele>184</ele>
        <time>2011-03-04T10:15:38Z</time>
      </trkpt>
      <trkpt lat="43.71854" lon="4.99714">
        <ele>183</ele>
        <time>2011-03-04T10:15:48Z</time>
      </trkpt>
      <trkpt lat="43.71865" lon="4.99717">
        <ele>182</ele>
        <time>2011-03-04T10:15:58Z</time>
      </trkpt>
      <trkpt lat="43.71876" lon="4.99718">
        <ele>181</ele>
        <time>2011-03-04T10:16:08Z</time>
      </trkpt>
      <trkpt lat="43.71887" lon="4.99712">
        <ele>180</ele>
        <time>2011-03-04T10:16:19Z</time>
      </trkpt>
      <trkpt lat="43.71891" lon="4.99697">
        <ele>178</ele>
        <time>2011-03-04T10:16:29Z</time>
      </trkpt>
      <trkpt lat="43.71899" lon="4.99686">
        <ele>173</ele>
        <time>2011-03-04T10:16:39Z</time>
      </trkpt>
      <trkpt lat="43.71909" lon="4.9968">
        <ele>170</ele>
        <time>2011-03-04T10:16:49Z</time>
      </trkpt>
      <trkpt lat="43.71924" lon="4.99675">
        <ele>169</ele>
        <time>2011-03-04T10:17:00Z</time>
      </trkpt>
      <trkpt lat="43.71934" lon="4.99666">
        <ele>169</ele>
        <time>2011-03-04T10:17:11Z</time>
      </trkpt>
      <trkpt lat="43.71946" lon="4.9966">
        <ele>169</ele>
        <time>2011-03-04T10:17:21Z</time>
      </trkpt>
      <trkpt lat="43.71957" lon="4.99653">
        <ele>169</ele>
        <time>2011-03-04T10:17:31Z</time>
      </trkpt>
      <trkpt lat="43.71968" lon="4.99651">
        <ele>169</ele>
        <time>2011-03-04T10:17:42Z</time>
      </trkpt>
      <trkpt lat="43.71981" lon="4.99651">
        <ele>169</ele>
        <time>2011-03-04T10:17:53Z</time>
      </trkpt>
      <trkpt lat="43.71994" lon="4.99656">
        <ele>169</ele>
        <time>2011-03-04T10:18:03Z</time>
      </trkpt>
      <trkpt lat="43.71999" lon="4.99672">
        <ele>169</ele>
        <time>2011-03-04T10:18:13Z</time>
      </trkpt>
      <trkpt lat="43.71998" lon="4.9969">
        <ele>169</ele>
        <time>2011-03-04T10:18:23Z</time>
      </trkpt>
      <trkpt lat="43.71994" lon="4.99707">
        <ele>169</ele>
        <time>2011-03-04T10:18:33Z</time>
      </trkpt>
      <trkpt lat="43.71992" lon="4.99724">
        <ele>168</ele>
        <time>2011-03-04T10:18:43Z</time>
      </trkpt>
      <trkpt lat="43.71987" lon="4.99741">
        <ele>166</ele>
        <time>2011-03-04T10:18:53Z</time>
      </trkpt>
      <trkpt lat="43.71981" lon="4.99757">
        <ele>165</ele>
        <time>2011-03-04T10:19:03Z</time>
      </trkpt>
      <trkpt lat="43.71983" lon="4.99775">
        <ele>164</ele>
        <time>2011-03-04T10:19:13Z</time>
      </trkpt>
      <trkpt lat="43.71981" lon="4.99794">
        <ele>163</ele>
        <time>2011-03-04T10:19:23Z</time>
      </trkpt>
      <trkpt lat="43.71988" lon="4.99808">
        <ele>162</ele>
        <time>2011-03-04T10:19:33Z</time>
      </trkpt>
      <trkpt lat="43.71992" lon="4.99818">
        <ele>161</ele>
        <time>2011-03-04T10:19:44Z</time>
      </trkpt>
      <trkpt lat="43.71989" lon="4.9982">
        <ele>159</ele>
        <time>2011-03-04T10:19:54Z</time>
      </trkpt>
      <trkpt lat="43.71986" lon="4.99828">
        <ele>154</ele>
        <time>2011-03-04T10:20:04Z</time>
      </trkpt>
      <trkpt lat="43.71979" lon="4.99849">
        <ele>154</ele>
        <time>2011-03-04T10:20:14Z</time>
      </trkpt>
      <trkpt lat="43.71971" lon="4.99866">
        <ele>154</ele>
        <time>2011-03-04T10:20:24Z</time>
      </trkpt>
      <trkpt lat="43.71962" lon="4.99881">
        <ele>154</ele>
        <time>2011-03-04T10:20:34Z</time>
      </trkpt>
      <trkpt lat="43.71954" lon="4.99898">
        <ele>154</ele>
        <time>2011-03-04T10:20:44Z</time>
      </trkpt>
      <trkpt lat="43.71946" lon="4.99913">
        <ele>154</ele>
        <time>2011-03-04T10:20:54Z</time>
      </trkpt>
      <trkpt lat="43.71937" lon="4.99928">
        <ele>154</ele>
        <time>2011-03-04T10:21:04Z</time>
      </trkpt>
      <trkpt lat="43.71929" lon="4.99942">
        <ele>154</ele>
        <time>2011-03-04T10:21:14Z</time>
      </trkpt>
      <trkpt lat="43.71919" lon="4.99956">
        <ele>154</ele>
        <time>2011-03-04T10:21:24Z</time>
      </trkpt>
      <trkpt lat="43.7191" lon="4.9997">
        <ele>154</ele>
        <time>2011-03-04T10:21:34Z</time>
      </trkpt>
      <trkpt lat="43.71901" lon="4.99983">
        <ele>153</ele>
        <time>2011-03-04T10:21:44Z</time>
      </trkpt>
      <trkpt lat="43.7189" lon="4.99997">
        <ele>150</ele>
        <time>2011-03-04T10:21:55Z</time>
      </trkpt>
      <trkpt lat="43.71881" lon="5.00011">
        <ele>149</ele>
        <time>2011-03-04T10:22:05Z</time>
      </trkpt>
      <trkpt lat="43.71872" lon="5.00027">
        <ele>149</ele>
        <time>2011-03-04T10:22:15Z</time>
      </trkpt>
      <trkpt lat="43.71864" lon="5.00043">
        <ele>149</ele>
        <time>2011-03-04T10:22:26Z</time>
      </trkpt>
      <trkpt lat="43.71858" lon="5.00061">
        <ele>149</ele>
        <time>2011-03-04T10:22:36Z</time>
      </trkpt>
      <trkpt lat="43.71852" lon="5.00078">
        <ele>149</ele>
        <time>2011-03-04T10:22:46Z</time>
      </trkpt>
      <trkpt lat="43.71847" lon="5.00096">
        <ele>149</ele>
        <time>2011-03-04T10:22:56Z</time>
      </trkpt>
      <trkpt lat="43.71842" lon="5.00112">
        <ele>148</ele>
        <time>2011-03-04T10:23:06Z</time>
      </trkpt>
      <trkpt lat="43.71837" lon="5.00129">
        <ele>147</ele>
        <time>2011-03-04T10:23:16Z</time>
      </trkpt>
      <trkpt lat="43.71833" lon="5.00146">
        <ele>146</ele>
        <time>2011-03-04T10:23:26Z</time>
      </trkpt>
      <trkpt lat="43.71829" lon="5.00165">
        <ele>146</ele>
        <time>2011-03-04T10:23:36Z</time>
      </trkpt>
      <trkpt lat="43.71827" lon="5.00184">
        <ele>146</ele>
        <time>2011-03-04T10:23:46Z</time>
      </trkpt>
      <trkpt lat="43.71825" lon="5.00203">
        <ele>146</ele>
        <time>2011-03-04T10:23:56Z</time>
      </trkpt>
      <trkpt lat="43.71821" lon="5.0022">
        <ele>146</ele>
        <time>2011-03-04T10:24:07Z</time>
      </trkpt>
      <trkpt lat="43.71816" lon="5.00239">
        <ele>146</ele>
        <time>2011-03-04T10:24:18Z</time>
      </trkpt>
      <trkpt lat="43.71804" lon="5.00248">
        <ele>146</ele>
        <time>2011-03-04T10:24:29Z</time>
      </trkpt>
      <trkpt lat="43.71791" lon="5.00243">
        <ele>146</ele>
        <time>2011-03-04T10:24:40Z</time>
      </trkpt>
      <trkpt lat="43.71782" lon="5.00233">
        <ele>145</ele>
        <time>2011-03-04T10:24:50Z</time>
      </trkpt>
      <trkpt lat="43.71777" lon="5.00217">
        <ele>144</ele>
        <time>2011-03-04T10:25:00Z</time>
      </trkpt>
      <trkpt lat="43.71776" lon="5.00202">
        <ele>142</ele>
        <time>2011-03-04T10:25:10Z</time>
      </trkpt>
      <trkpt lat="43.71775" lon="5.00184">
        <ele>141</ele>
        <time>2011-03-04T10:25:20Z</time>
      </trkpt>
      <trkpt lat="43.71774" lon="5.00167">
        <ele>139</ele>
        <time>2011-03-04T10:25:30Z</time>
      </trkpt>
      <trkpt lat="43.71772" lon="5.00148">
        <ele>139</ele>
        <time>2011-03-04T10:25:41Z</time>
      </trkpt>
      <trkpt lat="43.71764" lon="5.00135">
        <ele>142</ele>
        <time>2011-03-04T10:25:51Z</time>
      </trkpt>
      <trkpt lat="43.71751" lon="5.00126">
        <ele>142</ele>
        <time>2011-03-04T10:26:02Z</time>
      </trkpt>
      <trkpt lat="43.71737" lon="5.0012">
        <ele>142</ele>
        <time>2011-03-04T10:26:12Z</time>
      </trkpt>
      <trkpt lat="43.71724" lon="5.00118">
        <ele>142</ele>
        <time>2011-03-04T10:26:22Z</time>
      </trkpt>
      <trkpt lat="43.71711" lon="5.00119">
        <ele>143</ele>
        <time>2011-03-04T10:26:32Z</time>
      </trkpt>
      <trkpt lat="43.71699" lon="5.00119">
        <ele>144</ele>
        <time>2011-03-04T10:26:42Z</time>
      </trkpt>
      <trkpt lat="43.71686" lon="5.00119">
        <ele>144</ele>
        <time>2011-03-04T10:26:52Z</time>
      </trkpt>
      <trkpt lat="43.71671" lon="5.00119">
        <ele>144</ele>
        <time>2011-03-04T10:27:03Z</time>
      </trkpt>
      <trkpt lat="43.71659" lon="5.00118">
        <ele>144</ele>
        <time>2011-03-04T10:27:13Z</time>
      </trkpt>
      <trkpt lat="43.71648" lon="5.00115">
        <ele>145</ele>
        <time>2011-03-04T10:27:23Z</time>
      </trkpt>
      <trkpt lat="43.71638" lon="5.00111">
        <ele>146</ele>
        <time>2011-03-04T10:27:33Z</time>
      </trkpt>
      <trkpt lat="43.71626" lon="5.00107">
        <ele>147</ele>
        <time>2011-03-04T10:27:43Z</time>
      </trkpt>
      <trkpt lat="43.71613" lon="5.00106">
        <ele>147</ele>
        <time>2011-03-04T10:27:54Z</time>
      </trkpt>
      <trkpt lat="43.71598" lon="5.00108">
        <ele>148</ele>
        <time>2011-03-04T10:28:05Z</time>
      </trkpt>
      <trkpt lat="43.71586" lon="5.00115">
        <ele>148</ele>
        <time>2011-03-04T10:28:15Z</time>
      </trkpt>
      <trkpt lat="43.71574" lon="5.00124">
        <ele>148</ele>
        <time>2011-03-04T10:28:26Z</time>
      </trkpt>
      <trkpt lat="43.71561" lon="5.00134">
        <ele>148</ele>
        <time>2011-03-04T10:28:37Z</time>
      </trkpt>
      <trkpt lat="43.71552" lon="5.00145">
        <ele>148</ele>
        <time>2011-03-04T10:28:47Z</time>
      </trkpt>
      <trkpt lat="43.71546" lon="5.00161">
        <ele>148</ele>
        <time>2011-03-04T10:28:57Z</time>
      </trkpt>
      <trkpt lat="43.71539" lon="5.00176">
        <ele>145</ele>
        <time>2011-03-04T10:29:07Z</time>
      </trkpt>
      <trkpt lat="43.71531" lon="5.00191">
        <ele>144</ele>
        <time>2011-03-04T10:29:17Z</time>
      </trkpt>
      <trkpt lat="43.71524" lon="5.00206">
        <ele>141</ele>
        <time>2011-03-04T10:29:27Z</time>
      </trkpt>
      <trkpt lat="43.71517" lon="5.00222">
        <ele>139</ele>
        <time>2011-03-04T10:29:37Z</time>
      </trkpt>
      <trkpt lat="43.7151" lon="5.00236">
        <ele>139</ele>
        <time>2011-03-04T10:29:47Z</time>
      </trkpt>
      <trkpt lat="43.715" lon="5.00247">
        <ele>138</ele>
        <time>2011-03-04T10:29:57Z</time>
      </trkpt>
      <trkpt lat="43.71489" lon="5.00256">
        <ele>138</ele>
        <time>2011-03-04T10:30:07Z</time>
      </trkpt>
      <trkpt lat="43.71479" lon="5.00263">
        <ele>138</ele>
        <time>2011-03-04T10:30:17Z</time>
      </trkpt>
      <trkpt lat="43.71466" lon="5.00272">
        <ele>138</ele>
        <time>2011-03-04T10:30:27Z</time>
      </trkpt>
      <trkpt lat="43.71455" lon="5.0028">
        <ele>138</ele>
        <time>2011-03-04T10:30:37Z</time>
      </trkpt>
      <trkpt lat="43.71444" lon="5.0029">
        <ele>138</ele>
        <time>2011-03-04T10:30:47Z</time>
      </trkpt>
      <trkpt lat="43.71434" lon="5.00307">
        <ele>138</ele>
        <time>2011-03-04T10:30:58Z</time>
      </trkpt>
      <trkpt lat="43.71423" lon="5.00317">
        <ele>139</ele>
        <time>2011-03-04T10:31:08Z</time>
      </trkpt>
      <trkpt lat="43.71412" lon="5.00315">
        <ele>139</ele>
        <time>2011-03-04T10:31:18Z</time>
      </trkpt>
      <trkpt lat="43.714" lon="5.00311">
        <ele>139</ele>
        <time>2011-03-04T10:31:28Z</time>
      </trkpt>
      <trkpt lat="43.71389" lon="5.00302">
        <ele>140</ele>
        <time>2011-03-04T10:31:38Z</time>
      </trkpt>
      <trkpt lat="43.71378" lon="5.00291">
        <ele>140</ele>
        <time>2011-03-04T10:31:49Z</time>
      </trkpt>
      <trkpt lat="43.71373" lon="5.00291">
        <ele>143</ele>
        <time>2011-03-04T10:32:16Z</time>
      </trkpt>
      <trkpt lat="43.71374" lon="5.00301">
        <ele>143</ele>
        <time>2011-03-04T10:32:27Z</time>
      </trkpt>
      <trkpt lat="43.71375" lon="5.00317">
        <ele>143</ele>
        <time>2011-03-04T10:32:37Z</time>
      </trkpt>
      <trkpt lat="43.71376" lon="5.0033">
        <ele>143</ele>
        <time>2011-03-04T10:32:47Z</time>
      </trkpt>
      <trkpt lat="43.71379" lon="5.00346">
        <ele>143</ele>
        <time>2011-03-04T10:32:57Z</time>
      </trkpt>
      <trkpt lat="43.71384" lon="5.0036">
        <ele>142</ele>
        <time>2011-03-04T10:33:07Z</time>
      </trkpt>
      <trkpt lat="43.71387" lon="5.00378">
        <ele>141</ele>
        <time>2011-03-04T10:33:17Z</time>
      </trkpt>
      <trkpt lat="43.71384" lon="5.00396">
        <ele>140</ele>
        <time>2011-03-04T10:33:27Z</time>
      </trkpt>
      <trkpt lat="43.71375" lon="5.00413">
        <ele>140</ele>
        <time>2011-03-04T10:33:37Z</time>
      </trkpt>
      <trkpt lat="43.71367" lon="5.00429">
        <ele>140</ele>
        <time>2011-03-04T10:33:47Z</time>
      </trkpt>
      <trkpt lat="43.7136" lon="5.00446">
        <ele>140</ele>
        <time>2011-03-04T10:33:58Z</time>
      </trkpt>
      <trkpt lat="43.71349" lon="5.00455">
        <ele>140</ele>
        <time>2011-03-04T10:34:08Z</time>
      </trkpt>
      <trkpt lat="43.71337" lon="5.00458">
        <ele>140</ele>
        <time>2011-03-04T10:34:18Z</time>
      </trkpt>
      <trkpt lat="43.71325" lon="5.00458">
        <ele>140</ele>
        <time>2011-03-04T10:34:28Z</time>
      </trkpt>
      <trkpt lat="43.71313" lon="5.00458">
        <ele>140</ele>
        <time>2011-03-04T10:34:39Z</time>
      </trkpt>
      <trkpt lat="43.71302" lon="5.00463">
        <ele>140</ele>
        <time>2011-03-04T10:34:49Z</time>
      </trkpt>
      <trkpt lat="43.71291" lon="5.00466">
        <ele>140</ele>
        <time>2011-03-04T10:34:59Z</time>
      </trkpt>
      <trkpt lat="43.71283" lon="5.00456">
        <ele>140</ele>
        <time>2011-03-04T10:35:10Z</time>
      </trkpt>
      <trkpt lat="43.71278" lon="5.00452">
        <ele>140</ele>
        <time>2011-03-04T10:35:21Z</time>
      </trkpt>
      <trkpt lat="43.71275" lon="5.00443">
        <ele>140</ele>
        <time>2011-03-04T10:35:31Z</time>
      </trkpt>
      <trkpt lat="43.71272" lon="5.00431">
        <ele>137</ele>
        <time>2011-03-04T10:35:41Z</time>
      </trkpt>
      <trkpt lat="43.7127" lon="5.00418">
        <ele>133</ele>
        <time>2011-03-04T10:35:51Z</time>
      </trkpt>
      <trkpt lat="43.71263" lon="5.00407">
        <ele>132</ele>
        <time>2011-03-04T10:36:02Z</time>
      </trkpt>
      <trkpt lat="43.71256" lon="5.00394">
        <ele>131</ele>
        <time>2011-03-04T10:36:12Z</time>
      </trkpt>
      <trkpt lat="43.7125" lon="5.00382">
        <ele>131</ele>
        <time>2011-03-04T10:36:23Z</time>
      </trkpt>
      <trkpt lat="43.71244" lon="5.00375">
        <ele>131</ele>
        <time>2011-03-04T10:36:33Z</time>
      </trkpt>
      <trkpt lat="43.71243" lon="5.00362">
        <ele>131</ele>
        <time>2011-03-04T10:36:44Z</time>
      </trkpt>
      <trkpt lat="43.71244" lon="5.00351">
        <ele>130</ele>
        <time>2011-03-04T10:36:54Z</time>
      </trkpt>
      <trkpt lat="43.71248" lon="5.00344">
        <ele>129</ele>
        <time>2011-03-04T10:37:09Z</time>
      </trkpt>
      <trkpt lat="43.71244" lon="5.00343">
        <ele>127</ele>
        <time>2011-03-04T10:37:27Z</time>
      </trkpt>
      <trkpt lat="43.71242" lon="5.0034">
        <ele>130</ele>
        <time>2011-03-04T10:37:44Z</time>
      </trkpt>
      <trkpt lat="43.71239" lon="5.00334">
        <ele>131</ele>
        <time>2011-03-04T10:37:55Z</time>
      </trkpt>
      <trkpt lat="43.71238" lon="5.00329">
        <ele>131</ele>
        <time>2011-03-04T10:38:06Z</time>
      </trkpt>
      <trkpt lat="43.71237" lon="5.00326">
        <ele>135</ele>
        <time>2011-03-04T10:38:27Z</time>
      </trkpt>
      <trkpt lat="43.71238" lon="5.00324">
        <ele>138</ele>
        <time>2011-03-04T10:38:49Z</time>
      </trkpt>
      <trkpt lat="43.7124" lon="5.00322">
        <ele>138</ele>
        <time>2011-03-04T10:38:59Z</time>
      </trkpt>
      <trkpt lat="43.71239" lon="5.00323">
        <ele>138</ele>
        <time>2011-03-04T10:39:10Z</time>
      </trkpt>
      <trkpt lat="43.71234" lon="5.00333">
        <ele>138</ele>
        <time>2011-03-04T10:39:23Z</time>
      </trkpt>
      <trkpt lat="43.71224" lon="5.00331">
        <ele>137</ele>
        <time>2011-03-04T10:39:33Z</time>
      </trkpt>
      <trkpt lat="43.71214" lon="5.00331">
        <ele>137</ele>
        <time>2011-03-04T10:39:43Z</time>
      </trkpt>
      <trkpt lat="43.71207" lon="5.00333">
        <ele>137</ele>
        <time>2011-03-04T10:39:54Z</time>
      </trkpt>
      <trkpt lat="43.71202" lon="5.00332">
        <ele>135</ele>
        <time>2011-03-04T10:40:06Z</time>
      </trkpt>
      <trkpt lat="43.71203" lon="5.00331">
        <ele>135</ele>
        <time>2011-03-04T10:40:17Z</time>
      </trkpt>
      <trkpt lat="43.71199" lon="5.00334">
        <ele>132</ele>
        <time>2011-03-04T10:40:27Z</time>
      </trkpt>
      <trkpt lat="43.71198" lon="5.0033">
        <ele>130</ele>
        <time>2011-03-04T10:40:38Z</time>
      </trkpt>
      <trkpt lat="43.71197" lon="5.00329">
        <ele>130</ele>
        <time>2011-03-04T10:40:50Z</time>
      </trkpt>
      <trkpt lat="43.71201" lon="5.00327">
        <ele>128</ele>
        <time>2011-03-04T10:41:06Z</time>
      </trkpt>
      <trkpt lat="43.71203" lon="5.00327">
        <ele>124</ele>
        <time>2011-03-04T10:41:18Z</time>
      </trkpt>
      <trkpt lat="43.71203" lon="5.00328">
        <ele>122</ele>
        <time>2011-03-04T10:41:29Z</time>
      </trkpt>
      <trkpt lat="43.71199" lon="5.00328">
        <ele>126</ele>
        <time>2011-03-04T10:41:41Z</time>
      </trkpt>
      <trkpt lat="43.712" lon="5.00328">
        <ele>128</ele>
        <time>2011-03-04T10:42:01Z</time>
      </trkpt>
      <trkpt lat="43.71202" lon="5.00326">
        <ele>128</ele>
        <time>2011-03-04T10:42:11Z</time>
      </trkpt>
      <trkpt lat="43.71201" lon="5.00332">
        <ele>132</ele>
        <time>2011-03-04T10:42:28Z</time>
      </trkpt>
      <trkpt lat="43.71193" lon="5.0034">
        <ele>134</ele>
        <time>2011-03-04T10:42:38Z</time>
      </trkpt>
      <trkpt lat="43.7119" lon="5.00339">
        <ele>133</ele>
        <time>2011-03-04T10:42:58Z</time>
      </trkpt>
      <trkpt lat="43.7118" lon="5.00341">
        <ele>133</ele>
        <time>2011-03-04T10:43:08Z</time>
      </trkpt>
      <trkpt lat="43.71173" lon="5.00341">
        <ele>133</ele>
        <time>2011-03-04T10:43:18Z</time>
      </trkpt>
      <trkpt lat="43.71164" lon="5.00342">
        <ele>133</ele>
        <time>2011-03-04T10:43:28Z</time>
      </trkpt>
      <trkpt lat="43.71156" lon="5.00344">
        <ele>132</ele>
        <time>2011-03-04T10:43:38Z</time>
      </trkpt>
      <trkpt lat="43.71149" lon="5.00351">
        <ele>132</ele>
        <time>2011-03-04T10:43:48Z</time>
      </trkpt>
      <trkpt lat="43.71144" lon="5.0035">
        <ele>132</ele>
        <time>2011-03-04T10:44:01Z</time>
      </trkpt>
      <trkpt lat="43.71145" lon="5.00344">
        <ele>128</ele>
        <time>2011-03-04T10:44:12Z</time>
      </trkpt>
      <trkpt lat="43.71142" lon="5.00347">
        <ele>127</ele>
        <time>2011-03-04T10:44:24Z</time>
      </trkpt>
      <trkpt lat="43.7114" lon="5.00345">
        <ele>128</ele>
        <time>2011-03-04T10:44:37Z</time>
      </trkpt>
      <trkpt lat="43.71137" lon="5.00346">
        <ele>128</ele>
        <time>2011-03-04T10:44:47Z</time>
      </trkpt>
      <trkpt lat="43.71135" lon="5.00335">
        <ele>128</ele>
        <time>2011-03-04T10:44:57Z</time>
      </trkpt>
      <trkpt lat="43.71135" lon="5.00322">
        <ele>128</ele>
        <time>2011-03-04T10:45:08Z</time>
      </trkpt>
      <trkpt lat="43.71132" lon="5.00311">
        <ele>128</ele>
        <time>2011-03-04T10:45:18Z</time>
      </trkpt>
      <trkpt lat="43.71123" lon="5.00306">
        <ele>128</ele>
        <time>2011-03-04T10:45:28Z</time>
      </trkpt>
      <trkpt lat="43.71111" lon="5.00305">
        <ele>130</ele>
        <time>2011-03-04T10:45:39Z</time>
      </trkpt>
      <trkpt lat="43.711" lon="5.00306">
        <ele>130</ele>
        <time>2011-03-04T10:45:49Z</time>
      </trkpt>
      <trkpt lat="43.71088" lon="5.00308">
        <ele>130</ele>
        <time>2011-03-04T10:45:59Z</time>
      </trkpt>
      <trkpt lat="43.71076" lon="5.00309">
        <ele>130</ele>
        <time>2011-03-04T10:46:09Z</time>
      </trkpt>
      <trkpt lat="43.71065" lon="5.00309">
        <ele>130</ele>
        <time>2011-03-04T10:46:19Z</time>
      </trkpt>
      <trkpt lat="43.71054" lon="5.00309">
        <ele>130</ele>
        <time>2011-03-04T10:46:29Z</time>
      </trkpt>
      <trkpt lat="43.71042" lon="5.00312">
        <ele>131</ele>
        <time>2011-03-04T10:46:39Z</time>
      </trkpt>
      <trkpt lat="43.7103" lon="5.00313">
        <ele>131</ele>
        <time>2011-03-04T10:46:49Z</time>
      </trkpt>
      <trkpt lat="43.71017" lon="5.00315">
        <ele>131</ele>
        <time>2011-03-04T10:46:59Z</time>
      </trkpt>
      <trkpt lat="43.71005" lon="5.00316">
        <ele>132</ele>
        <time>2011-03-04T10:47:09Z</time>
      </trkpt>
      <trkpt lat="43.70993" lon="5.00316">
        <ele>132</ele>
        <time>2011-03-04T10:47:19Z</time>
      </trkpt>
      <trkpt lat="43.7098" lon="5.00319">
        <ele>132</ele>
        <time>2011-03-04T10:47:29Z</time>
      </trkpt>
      <trkpt lat="43.70968" lon="5.00324">
        <ele>132</ele>
        <time>2011-03-04T10:47:40Z</time>
      </trkpt>
      <trkpt lat="43.70959" lon="5.00334">
        <ele>132</ele>
        <time>2011-03-04T10:47:50Z</time>
      </trkpt>
      <trkpt lat="43.70951" lon="5.00345">
        <ele>132</ele>
        <time>2011-03-04T10:48:00Z</time>
      </trkpt>
      <trkpt lat="43.70942" lon="5.00356">
        <ele>131</ele>
        <time>2011-03-04T10:48:11Z</time>
      </trkpt>
      <trkpt lat="43.70934" lon="5.00363">
        <ele>129</ele>
        <time>2011-03-04T10:48:21Z</time>
      </trkpt>
      <trkpt lat="43.70922" lon="5.00368">
        <ele>128</ele>
        <time>2011-03-04T10:48:31Z</time>
      </trkpt>
      <trkpt lat="43.70911" lon="5.00375">
        <ele>128</ele>
        <time>2011-03-04T10:48:42Z</time>
      </trkpt>
      <trkpt lat="43.70903" lon="5.00379">
        <ele>128</ele>
        <time>2011-03-04T10:48:52Z</time>
      </trkpt>
      <trkpt lat="43.70899" lon="5.00379">
        <ele>128</ele>
        <time>2011-03-04T10:49:03Z</time>
      </trkpt>
      <trkpt lat="43.70892" lon="5.00378">
        <ele>128</ele>
        <time>2011-03-04T10:49:14Z</time>
      </trkpt>
      <trkpt lat="43.70884" lon="5.00373">
        <ele>128</ele>
        <time>2011-03-04T10:49:24Z</time>
      </trkpt>
      <trkpt lat="43.70872" lon="5.00371">
        <ele>128</ele>
        <time>2011-03-04T10:49:35Z</time>
      </trkpt>
      <trkpt lat="43.70861" lon="5.00371">
        <ele>128</ele>
        <time>2011-03-04T10:49:45Z</time>
      </trkpt>
      <trkpt lat="43.7085" lon="5.00369">
        <ele>128</ele>
        <time>2011-03-04T10:49:56Z</time>
      </trkpt>
      <trkpt lat="43.70838" lon="5.00367">
        <ele>128</ele>
        <time>2011-03-04T10:50:06Z</time>
      </trkpt>
      <trkpt lat="43.70827" lon="5.00363">
        <ele>128</ele>
        <time>2011-03-04T10:50:16Z</time>
      </trkpt>
      <trkpt lat="43.70814" lon="5.0036">
        <ele>128</ele>
        <time>2011-03-04T10:50:27Z</time>
      </trkpt>
      <trkpt lat="43.70805" lon="5.00361">
        <ele>128</ele>
        <time>2011-03-04T10:50:37Z</time>
      </trkpt>
      <trkpt lat="43.70792" lon="5.00362">
        <ele>128</ele>
        <time>2011-03-04T10:50:48Z</time>
      </trkpt>
      <trkpt lat="43.70783" lon="5.00378">
        <ele>128</ele>
        <time>2011-03-04T10:50:59Z</time>
      </trkpt>
      <trkpt lat="43.70776" lon="5.00392">
        <ele>127</ele>
        <time>2011-03-04T10:51:09Z</time>
      </trkpt>
      <trkpt lat="43.7077" lon="5.00405">
        <ele>126</ele>
        <time>2011-03-04T10:51:19Z</time>
      </trkpt>
      <trkpt lat="43.70763" lon="5.00416">
        <ele>125</ele>
        <time>2011-03-04T10:51:29Z</time>
      </trkpt>
      <trkpt lat="43.70755" lon="5.00428">
        <ele>124</ele>
        <time>2011-03-04T10:51:40Z</time>
      </trkpt>
      <trkpt lat="43.7075" lon="5.00438">
        <ele>124</ele>
        <time>2011-03-04T10:51:52Z</time>
      </trkpt>
      <trkpt lat="43.70739" lon="5.00436">
        <ele>124</ele>
        <time>2011-03-04T10:52:02Z</time>
      </trkpt>
      <trkpt lat="43.70728" lon="5.00428">
        <ele>124</ele>
        <time>2011-03-04T10:52:13Z</time>
      </trkpt>
      <trkpt lat="43.70716" lon="5.00421">
        <ele>124</ele>
        <time>2011-03-04T10:52:24Z</time>
      </trkpt>
      <trkpt lat="43.70707" lon="5.00413">
        <ele>124</ele>
        <time>2011-03-04T10:52:34Z</time>
      </trkpt>
      <trkpt lat="43.70696" lon="5.00404">
        <ele>124</ele>
        <time>2011-03-04T10:52:45Z</time>
      </trkpt>
      <trkpt lat="43.70684" lon="5.00402">
        <ele>124</ele>
        <time>2011-03-04T10:52:55Z</time>
      </trkpt>
      <trkpt lat="43.7067" lon="5.00402">
        <ele>124</ele>
        <time>2011-03-04T10:53:06Z</time>
      </trkpt>
      <trkpt lat="43.70657" lon="5.00403">
        <ele>124</ele>
        <time>2011-03-04T10:53:16Z</time>
      </trkpt>
      <trkpt lat="43.70645" lon="5.00406">
        <ele>124</ele>
        <time>2011-03-04T10:53:26Z</time>
      </trkpt>
      <trkpt lat="43.70633" lon="5.00408">
        <ele>124</ele>
        <time>2011-03-04T10:53:36Z</time>
      </trkpt>
      <trkpt lat="43.7062" lon="5.00407">
        <ele>124</ele>
        <time>2011-03-04T10:53:46Z</time>
      </trkpt>
      <trkpt lat="43.70608" lon="5.00401">
        <ele>124</ele>
        <time>2011-03-04T10:53:56Z</time>
      </trkpt>
      <trkpt lat="43.70596" lon="5.00393">
        <ele>124</ele>
        <time>2011-03-04T10:54:07Z</time>
      </trkpt>
      <trkpt lat="43.70583" lon="5.00382">
        <ele>124</ele>
        <time>2011-03-04T10:54:18Z</time>
      </trkpt>
      <trkpt lat="43.70573" lon="5.00369">
        <ele>124</ele>
        <time>2011-03-04T10:54:29Z</time>
      </trkpt>
      <trkpt lat="43.70561" lon="5.00358">
        <ele>124</ele>
        <time>2011-03-04T10:54:40Z</time>
      </trkpt>
      <trkpt lat="43.70552" lon="5.00348">
        <ele>123</ele>
        <time>2011-03-04T10:54:50Z</time>
      </trkpt>
      <trkpt lat="43.70541" lon="5.00338">
        <ele>123</ele>
        <time>2011-03-04T10:55:00Z</time>
      </trkpt>
      <trkpt lat="43.70528" lon="5.00332">
        <ele>123</ele>
        <time>2011-03-04T10:55:10Z</time>
      </trkpt>
      <trkpt lat="43.70515" lon="5.00335">
        <ele>123</ele>
        <time>2011-03-04T10:55:20Z</time>
      </trkpt>
      <trkpt lat="43.70503" lon="5.00342">
        <ele>123</ele>
        <time>2011-03-04T10:55:30Z</time>
      </trkpt>
      <trkpt lat="43.70491" lon="5.00351">
        <ele>123</ele>
        <time>2011-03-04T10:55:40Z</time>
      </trkpt>
      <trkpt lat="43.7048" lon="5.00359">
        <ele>123</ele>
        <time>2011-03-04T10:55:50Z</time>
      </trkpt>
      <trkpt lat="43.70469" lon="5.00368">
        <ele>123</ele>
        <time>2011-03-04T10:56:00Z</time>
      </trkpt>
      <trkpt lat="43.70458" lon="5.00377">
        <ele>123</ele>
        <time>2011-03-04T10:56:10Z</time>
      </trkpt>
      <trkpt lat="43.70447" lon="5.00386">
        <ele>123</ele>
        <time>2011-03-04T10:56:20Z</time>
      </trkpt>
      <trkpt lat="43.70435" lon="5.00394">
        <ele>123</ele>
        <time>2011-03-04T10:56:30Z</time>
      </trkpt>
      <trkpt lat="43.70424" lon="5.00402">
        <ele>123</ele>
        <time>2011-03-04T10:56:40Z</time>
      </trkpt>
      <trkpt lat="43.70412" lon="5.0041">
        <ele>123</ele>
        <time>2011-03-04T10:56:50Z</time>
      </trkpt>
      <trkpt lat="43.70399" lon="5.00418">
        <ele>122</ele>
        <time>2011-03-04T10:57:01Z</time>
      </trkpt>
      <trkpt lat="43.70387" lon="5.00425">
        <ele>121</ele>
        <time>2011-03-04T10:57:12Z</time>
      </trkpt>
      <trkpt lat="43.70374" lon="5.00433">
        <ele>118</ele>
        <time>2011-03-04T10:57:23Z</time>
      </trkpt>
      <trkpt lat="43.70364" lon="5.00437">
        <ele>117</ele>
        <time>2011-03-04T10:57:33Z</time>
      </trkpt>
      <trkpt lat="43.70362" lon="5.00437">
        <ele>116</ele>
        <time>2011-03-04T10:57:44Z</time>
      </trkpt>
      <trkpt lat="43.70358" lon="5.00441">
        <ele>116</ele>
        <time>2011-03-04T10:58:09Z</time>
      </trkpt>
      <trkpt lat="43.70347" lon="5.00445">
        <ele>115</ele>
        <time>2011-03-04T10:58:19Z</time>
      </trkpt>
      <trkpt lat="43.70336" lon="5.0045">
        <ele>115</ele>
        <time>2011-03-04T10:58:29Z</time>
      </trkpt>
      <trkpt lat="43.70325" lon="5.00455">
        <ele>115</ele>
        <time>2011-03-04T10:58:39Z</time>
      </trkpt>
      <trkpt lat="43.70313" lon="5.00459">
        <ele>115</ele>
        <time>2011-03-04T10:58:50Z</time>
      </trkpt>
      <trkpt lat="43.70303" lon="5.00464">
        <ele>113</ele>
        <time>2011-03-04T10:59:00Z</time>
      </trkpt>
      <trkpt lat="43.70293" lon="5.0047">
        <ele>113</ele>
        <time>2011-03-04T10:59:10Z</time>
      </trkpt>
      <trkpt lat="43.70283" lon="5.00475">
        <ele>110</ele>
        <time>2011-03-04T10:59:21Z</time>
      </trkpt>
      <trkpt lat="43.70273" lon="5.00481">
        <ele>110</ele>
        <time>2011-03-04T10:59:31Z</time>
      </trkpt>
      <trkpt lat="43.70264" lon="5.00487">
        <ele>109</ele>
        <time>2011-03-04T10:59:41Z</time>
      </trkpt>
      <trkpt lat="43.70253" lon="5.00497">
        <ele>109</ele>
        <time>2011-03-04T10:59:51Z</time>
      </trkpt>
      <trkpt lat="43.7024" lon="5.00508">
        <ele>109</ele>
        <time>2011-03-04T11:00:01Z</time>
      </trkpt>
      <trkpt lat="43.70229" lon="5.00516">
        <ele>109</ele>
        <time>2011-03-04T11:00:11Z</time>
      </trkpt>
      <trkpt lat="43.70218" lon="5.00526">
        <ele>109</ele>
        <time>2011-03-04T11:00:21Z</time>
      </trkpt>
      <trkpt lat="43.70206" lon="5.00533">
        <ele>109</ele>
        <time>2011-03-04T11:00:31Z</time>
      </trkpt>
      <trkpt lat="43.70195" lon="5.00543">
        <ele>109</ele>
        <time>2011-03-04T11:00:42Z</time>
      </trkpt>
      <trkpt lat="43.70184" lon="5.00549">
        <ele>109</ele>
        <time>2011-03-04T11:00:52Z</time>
      </trkpt>
      <trkpt lat="43.70174" lon="5.00557">
        <ele>109</ele>
        <time>2011-03-04T11:01:02Z</time>
      </trkpt>
      <trkpt lat="43.70163" lon="5.00564">
        <ele>109</ele>
        <time>2011-03-04T11:01:12Z</time>
      </trkpt>
      <trkpt lat="43.70151" lon="5.00572">
        <ele>109</ele>
        <time>2011-03-04T11:01:23Z</time>
      </trkpt>
      <trkpt lat="43.70142" lon="5.00576">
        <ele>108</ele>
        <time>2011-03-04T11:01:33Z</time>
      </trkpt>
      <trkpt lat="43.70133" lon="5.0058">
        <ele>107</ele>
        <time>2011-03-04T11:01:57Z</time>
      </trkpt>
      <trkpt lat="43.70134" lon="5.00582">
        <ele>106</ele>
        <time>2011-03-04T11:02:13Z</time>
      </trkpt>
      <trkpt lat="43.70138" lon="5.00574">
        <ele>104</ele>
        <time>2011-03-04T11:02:51Z</time>
      </trkpt>
      <trkpt lat="43.70134" lon="5.00582">
        <ele>104</ele>
        <time>2011-03-04T11:03:01Z</time>
      </trkpt>
      <trkpt lat="43.70132" lon="5.00585">
        <ele>105</ele>
        <time>2011-03-04T11:03:11Z</time>
      </trkpt>
      <trkpt lat="43.70132" lon="5.00583">
        <ele>105</ele>
        <time>2011-03-04T11:03:28Z</time>
      </trkpt>
      <trkpt lat="43.70112" lon="5.00597">
        <ele>108</ele>
        <time>2011-03-04T11:04:02Z</time>
      </trkpt>
      <trkpt lat="43.70098" lon="5.00612">
        <ele>110</ele>
        <time>2011-03-04T11:04:15Z</time>
      </trkpt>
      <trkpt lat="43.70081" lon="5.00612">
        <ele>110</ele>
        <time>2011-03-04T11:04:29Z</time>
      </trkpt>
      <trkpt lat="43.70072" lon="5.00623">
        <ele>110</ele>
        <time>2011-03-04T11:04:39Z</time>
      </trkpt>
      <trkpt lat="43.70061" lon="5.00632">
        <ele>109</ele>
        <time>2011-03-04T11:04:49Z</time>
      </trkpt>
      <trkpt lat="43.70049" lon="5.0064">
        <ele>107</ele>
        <time>2011-03-04T11:05:00Z</time>
      </trkpt>
      <trkpt lat="43.70037" lon="5.00646">
        <ele>107</ele>
        <time>2011-03-04T11:05:10Z</time>
      </trkpt>
      <trkpt lat="43.69994" lon="5.00672">
        <ele>107</ele>
        <time>2011-03-04T11:05:37Z</time>
      </trkpt>
      <trkpt lat="43.69991" lon="5.00675">
        <ele>107</ele>
        <time>2011-03-04T11:05:47Z</time>
      </trkpt>
      <trkpt lat="43.6998" lon="5.00678">
        <ele>107</ele>
        <time>2011-03-04T11:05:58Z</time>
      </trkpt>
      <trkpt lat="43.69969" lon="5.00686">
        <ele>104</ele>
        <time>2011-03-04T11:06:09Z</time>
      </trkpt>
      <trkpt lat="43.69956" lon="5.00695">
        <ele>104</ele>
        <time>2011-03-04T11:06:19Z</time>
      </trkpt>
      <trkpt lat="43.69945" lon="5.00705">
        <ele>104</ele>
        <time>2011-03-04T11:06:29Z</time>
      </trkpt>
      <trkpt lat="43.69933" lon="5.00714">
        <ele>104</ele>
        <time>2011-03-04T11:06:39Z</time>
      </trkpt>
      <trkpt lat="43.69874" lon="5.00755">
        <ele>99</ele>
        <time>2011-03-04T11:07:31Z</time>
      </trkpt>
      <trkpt lat="43.69862" lon="5.00766">
        <ele>99</ele>
        <time>2011-03-04T11:07:41Z</time>
      </trkpt>
      <trkpt lat="43.69851" lon="5.00773">
        <ele>99</ele>
        <time>2011-03-04T11:07:51Z</time>
      </trkpt>
      <trkpt lat="43.69839" lon="5.00778">
        <ele>98</ele>
        <time>2011-03-04T11:08:02Z</time>
      </trkpt>
      <trkpt lat="43.69827" lon="5.00784">
        <ele>97</ele>
        <time>2011-03-04T11:08:12Z</time>
      </trkpt>
      <trkpt lat="43.69815" lon="5.00789">
        <ele>96</ele>
        <time>2011-03-04T11:08:22Z</time>
      </trkpt>
      <trkpt lat="43.69803" lon="5.008">
        <ele>96</ele>
        <time>2011-03-04T11:08:33Z</time>
      </trkpt>
      <trkpt lat="43.69795" lon="5.00806">
        <ele>96</ele>
        <time>2011-03-04T11:08:44Z</time>
      </trkpt>
      <trkpt lat="43.69784" lon="5.00815">
        <ele>96</ele>
        <time>2011-03-04T11:08:55Z</time>
      </trkpt>
      <trkpt lat="43.69774" lon="5.00823">
        <ele>95</ele>
        <time>2011-03-04T11:09:05Z</time>
      </trkpt>
      <trkpt lat="43.69765" lon="5.00832">
        <ele>95</ele>
        <time>2011-03-04T11:09:15Z</time>
      </trkpt>
      <trkpt lat="43.69754" lon="5.00842">
        <ele>95</ele>
        <time>2011-03-04T11:09:26Z</time>
      </trkpt>
      <trkpt lat="43.69743" lon="5.00851">
        <ele>95</ele>
        <time>2011-03-04T11:09:37Z</time>
      </trkpt>
      <trkpt lat="43.69733" lon="5.00858">
        <ele>95</ele>
        <time>2011-03-04T11:09:47Z</time>
      </trkpt>
      <trkpt lat="43.69721" lon="5.00869">
        <ele>95</ele>
        <time>2011-03-04T11:09:58Z</time>
      </trkpt>
      <trkpt lat="43.69714" lon="5.00883">
        <ele>95</ele>
        <time>2011-03-04T11:10:08Z</time>
      </trkpt>
      <trkpt lat="43.69712" lon="5.00898">
        <ele>95</ele>
        <time>2011-03-04T11:10:19Z</time>
      </trkpt>
      <trkpt lat="43.69715" lon="5.00913">
        <ele>94</ele>
        <time>2011-03-04T11:10:29Z</time>
      </trkpt>
      <trkpt lat="43.69719" lon="5.00931">
        <ele>94</ele>
        <time>2011-03-04T11:10:39Z</time>
      </trkpt>
      <trkpt lat="43.69722" lon="5.00946">
        <ele>94</ele>
        <time>2011-03-04T11:10:49Z</time>
      </trkpt>
      <trkpt lat="43.69715" lon="5.0096">
        <ele>94</ele>
        <time>2011-03-04T11:11:00Z</time>
      </trkpt>
      <trkpt lat="43.69702" lon="5.00965">
        <ele>94</ele>
        <time>2011-03-04T11:11:11Z</time>
      </trkpt>
      <trkpt lat="43.6969" lon="5.00968">
        <ele>94</ele>
        <time>2011-03-04T11:11:21Z</time>
      </trkpt>
      <trkpt lat="43.69678" lon="5.00972">
        <ele>94</ele>
        <time>2011-03-04T11:11:31Z</time>
      </trkpt>
      <trkpt lat="43.69666" lon="5.00978">
        <ele>94</ele>
        <time>2011-03-04T11:11:41Z</time>
      </trkpt>
      <trkpt lat="43.69654" lon="5.00984">
        <ele>94</ele>
        <time>2011-03-04T11:11:51Z</time>
      </trkpt>
      <trkpt lat="43.69641" lon="5.00992">
        <ele>94</ele>
        <time>2011-03-04T11:12:02Z</time>
      </trkpt>
      <trkpt lat="43.69629" lon="5.01005">
        <ele>94</ele>
        <time>2011-03-04T11:12:14Z</time>
      </trkpt>
      <trkpt lat="43.6962" lon="5.01016">
        <ele>94</ele>
        <time>2011-03-04T11:12:24Z</time>
      </trkpt>
      <trkpt lat="43.6961" lon="5.01027">
        <ele>94</ele>
        <time>2011-03-04T11:12:34Z</time>
      </trkpt>
      <trkpt lat="43.696" lon="5.01039">
        <ele>94</ele>
        <time>2011-03-04T11:12:44Z</time>
      </trkpt>
      <trkpt lat="43.6959" lon="5.0105">
        <ele>94</ele>
        <time>2011-03-04T11:12:54Z</time>
      </trkpt>
      <trkpt lat="43.69581" lon="5.01061">
        <ele>94</ele>
        <time>2011-03-04T11:13:04Z</time>
      </trkpt>
      <trkpt lat="43.69572" lon="5.01069">
        <ele>94</ele>
        <time>2011-03-04T11:13:14Z</time>
      </trkpt>
      <trkpt lat="43.69562" lon="5.01081">
        <ele>94</ele>
        <time>2011-03-04T11:13:24Z</time>
      </trkpt>
      <trkpt lat="43.69552" lon="5.01091">
        <ele>94</ele>
        <time>2011-03-04T11:13:34Z</time>
      </trkpt>
      <trkpt lat="43.69541" lon="5.01102">
        <ele>94</ele>
        <time>2011-03-04T11:13:45Z</time>
      </trkpt>
      <trkpt lat="43.69529" lon="5.01107">
        <ele>94</ele>
        <time>2011-03-04T11:13:55Z</time>
      </trkpt>
      <trkpt lat="43.69515" lon="5.01104">
        <ele>94</ele>
        <time>2011-03-04T11:14:06Z</time>
      </trkpt>
      <trkpt lat="43.69503" lon="5.01108">
        <ele>94</ele>
        <time>2011-03-04T11:14:17Z</time>
      </trkpt>
      <trkpt lat="43.69492" lon="5.01117">
        <ele>94</ele>
        <time>2011-03-04T11:14:28Z</time>
      </trkpt>
      <trkpt lat="43.6948" lon="5.01128">
        <ele>94</ele>
        <time>2011-03-04T11:14:40Z</time>
      </trkpt>
      <trkpt lat="43.69469" lon="5.01143">
        <ele>92</ele>
        <time>2011-03-04T11:14:52Z</time>
      </trkpt>
      <trkpt lat="43.69458" lon="5.01157">
        <ele>90</ele>
        <time>2011-03-04T11:15:04Z</time>
      </trkpt>
      <trkpt lat="43.69448" lon="5.01171">
        <ele>88</ele>
        <time>2011-03-04T11:15:16Z</time>
      </trkpt>
      <trkpt lat="43.69437" lon="5.01185">
        <ele>88</ele>
        <time>2011-03-04T11:15:28Z</time>
      </trkpt>
      <trkpt lat="43.69428" lon="5.01196">
        <ele>87</ele>
        <time>2011-03-04T11:15:38Z</time>
      </trkpt>
      <trkpt lat="43.69418" lon="5.01206">
        <ele>85</ele>
        <time>2011-03-04T11:15:49Z</time>
      </trkpt>
      <trkpt lat="43.69407" lon="5.01217">
        <ele>85</ele>
        <time>2011-03-04T11:15:59Z</time>
      </trkpt>
      <trkpt lat="43.69395" lon="5.01227">
        <ele>85</ele>
        <time>2011-03-04T11:16:10Z</time>
      </trkpt>
      <trkpt lat="43.69382" lon="5.01236">
        <ele>86</ele>
        <time>2011-03-04T11:16:20Z</time>
      </trkpt>
      <trkpt lat="43.69373" lon="5.01247">
        <ele>86</ele>
        <time>2011-03-04T11:16:30Z</time>
      </trkpt>
      <trkpt lat="43.69362" lon="5.01257">
        <ele>86</ele>
        <time>2011-03-04T11:16:41Z</time>
      </trkpt>
      <trkpt lat="43.69353" lon="5.01266">
        <ele>86</ele>
        <time>2011-03-04T11:16:52Z</time>
      </trkpt>
      <trkpt lat="43.69344" lon="5.01276">
        <ele>86</ele>
        <time>2011-03-04T11:17:02Z</time>
      </trkpt>
      <trkpt lat="43.69335" lon="5.01287">
        <ele>86</ele>
        <time>2011-03-04T11:17:12Z</time>
      </trkpt>
      <trkpt lat="43.69323" lon="5.01299">
        <ele>86</ele>
        <time>2011-03-04T11:17:24Z</time>
      </trkpt>
      <trkpt lat="43.6931" lon="5.01302">
        <ele>86</ele>
        <time>2011-03-04T11:17:35Z</time>
      </trkpt>
      <trkpt lat="43.69303" lon="5.01288">
        <ele>86</ele>
        <time>2011-03-04T11:17:45Z</time>
      </trkpt>
      <trkpt lat="43.69301" lon="5.01271">
        <ele>86</ele>
        <time>2011-03-04T11:17:55Z</time>
      </trkpt>
      <trkpt lat="43.69298" lon="5.01254">
        <ele>86</ele>
        <time>2011-03-04T11:18:05Z</time>
      </trkpt>
      <trkpt lat="43.69295" lon="5.01237">
        <ele>86</ele>
        <time>2011-03-04T11:18:15Z</time>
      </trkpt>
      <trkpt lat="43.69291" lon="5.0122">
        <ele>86</ele>
        <time>2011-03-04T11:18:25Z</time>
      </trkpt>
      <trkpt lat="43.69286" lon="5.01203">
        <ele>86</ele>
        <time>2011-03-04T11:18:35Z</time>
      </trkpt>
      <trkpt lat="43.69281" lon="5.01187">
        <ele>86</ele>
        <time>2011-03-04T11:18:45Z</time>
      </trkpt>
      <trkpt lat="43.69277" lon="5.01171">
        <ele>86</ele>
        <time>2011-03-04T11:18:55Z</time>
      </trkpt>
      <trkpt lat="43.69273" lon="5.01156">
        <ele>86</ele>
        <time>2011-03-04T11:19:05Z</time>
      </trkpt>
      <trkpt lat="43.6927" lon="5.01146">
        <ele>86</ele>
        <time>2011-03-04T11:19:15Z</time>
      </trkpt>
      <trkpt lat="43.69268" lon="5.01133">
        <ele>86</ele>
        <time>2011-03-04T11:19:26Z</time>
      </trkpt>
      <trkpt lat="43.69269" lon="5.01117">
        <ele>86</ele>
        <time>2011-03-04T11:19:38Z</time>
      </trkpt>
      <trkpt lat="43.69269" lon="5.011">
        <ele>86</ele>
        <time>2011-03-04T11:19:49Z</time>
      </trkpt>
      <trkpt lat="43.69268" lon="5.01081">
        <ele>86</ele>
        <time>2011-03-04T11:20:00Z</time>
      </trkpt>
      <trkpt lat="43.69267" lon="5.01064">
        <ele>86</ele>
        <time>2011-03-04T11:20:10Z</time>
      </trkpt>
      <trkpt lat="43.69267" lon="5.01047">
        <ele>86</ele>
        <time>2011-03-04T11:20:20Z</time>
      </trkpt>
      <trkpt lat="43.69267" lon="5.0103">
        <ele>86</ele>
        <time>2011-03-04T11:20:30Z</time>
      </trkpt>
      <trkpt lat="43.69267" lon="5.01013">
        <ele>86</ele>
        <time>2011-03-04T11:20:40Z</time>
      </trkpt>
      <trkpt lat="43.69268" lon="5.00995">
        <ele>86</ele>
        <time>2011-03-04T11:20:51Z</time>
      </trkpt>
      <trkpt lat="43.69268" lon="5.00979">
        <ele>86</ele>
        <time>2011-03-04T11:21:01Z</time>
      </trkpt>
      <trkpt lat="43.69268" lon="5.00962">
        <ele>86</ele>
        <time>2011-03-04T11:21:11Z</time>
      </trkpt>
      <trkpt lat="43.69269" lon="5.00946">
        <ele>86</ele>
        <time>2011-03-04T11:21:21Z</time>
      </trkpt>
      <trkpt lat="43.6927" lon="5.00929">
        <ele>86</ele>
        <time>2011-03-04T11:21:32Z</time>
      </trkpt>
      <trkpt lat="43.69272" lon="5.00913">
        <ele>86</ele>
        <time>2011-03-04T11:21:43Z</time>
      </trkpt>
      <trkpt lat="43.69274" lon="5.00897">
        <ele>86</ele>
        <time>2011-03-04T11:21:54Z</time>
      </trkpt>
      <trkpt lat="43.69274" lon="5.00883">
        <ele>86</ele>
        <time>2011-03-04T11:22:04Z</time>
      </trkpt>
      <trkpt lat="43.69275" lon="5.00868">
        <ele>86</ele>
        <time>2011-03-04T11:22:15Z</time>
      </trkpt>
      <trkpt lat="43.69275" lon="5.00854">
        <ele>86</ele>
        <time>2011-03-04T11:22:27Z</time>
      </trkpt>
      <trkpt lat="43.69276" lon="5.00839">
        <ele>86</ele>
        <time>2011-03-04T11:22:37Z</time>
      </trkpt>
      <trkpt lat="43.69276" lon="5.00822">
        <ele>86</ele>
        <time>2011-03-04T11:22:47Z</time>
      </trkpt>
      <trkpt lat="43.69277" lon="5.00806">
        <ele>87</ele>
        <time>2011-03-04T11:22:57Z</time>
      </trkpt>
      <trkpt lat="43.69282" lon="5.00788">
        <ele>91</ele>
        <time>2011-03-04T11:23:09Z</time>
      </trkpt>
      <trkpt lat="43.69285" lon="5.00781">
        <ele>91</ele>
        <time>2011-03-04T11:23:19Z</time>
      </trkpt>
      <trkpt lat="43.69291" lon="5.00765">
        <ele>92</ele>
        <time>2011-03-04T11:23:30Z</time>
      </trkpt>
      <trkpt lat="43.69297" lon="5.00748">
        <ele>94</ele>
        <time>2011-03-04T11:23:40Z</time>
      </trkpt>
      <trkpt lat="43.69303" lon="5.00731">
        <ele>96</ele>
        <time>2011-03-04T11:23:50Z</time>
      </trkpt>
      <trkpt lat="43.69308" lon="5.00715">
        <ele>97</ele>
        <time>2011-03-04T11:24:00Z</time>
      </trkpt>
      <trkpt lat="43.69313" lon="5.007">
        <ele>97</ele>
        <time>2011-03-04T11:24:11Z</time>
      </trkpt>
      <trkpt lat="43.69319" lon="5.00686">
        <ele>97</ele>
        <time>2011-03-04T11:24:22Z</time>
      </trkpt>
      <trkpt lat="43.69324" lon="5.00669">
        <ele>97</ele>
        <time>2011-03-04T11:24:34Z</time>
      </trkpt>
      <trkpt lat="43.69328" lon="5.00655">
        <ele>97</ele>
        <time>2011-03-04T11:24:44Z</time>
      </trkpt>
      <trkpt lat="43.69331" lon="5.00639">
        <ele>97</ele>
        <time>2011-03-04T11:24:55Z</time>
      </trkpt>
      <trkpt lat="43.69335" lon="5.00624">
        <ele>97</ele>
        <time>2011-03-04T11:25:05Z</time>
      </trkpt>
      <trkpt lat="43.69339" lon="5.00607">
        <ele>97</ele>
        <time>2011-03-04T11:25:22Z</time>
      </trkpt>
      <trkpt lat="43.69342" lon="5.00592">
        <ele>98</ele>
        <time>2011-03-04T11:25:32Z</time>
      </trkpt>
      <trkpt lat="43.69346" lon="5.00578">
        <ele>100</ele>
        <time>2011-03-04T11:26:05Z</time>
      </trkpt>
      <trkpt lat="43.69346" lon="5.00576">
        <ele>100</ele>
        <time>2011-03-04T11:26:34Z</time>
      </trkpt>
      <trkpt lat="43.69347" lon="5.00572">
        <ele>100</ele>
        <time>2011-03-04T11:26:44Z</time>
      </trkpt>
      <trkpt lat="43.69348" lon="5.00559">
        <ele>100</ele>
        <time>2011-03-04T11:26:55Z</time>
      </trkpt>
      <trkpt lat="43.69352" lon="5.00543">
        <ele>101</ele>
        <time>2011-03-04T11:27:05Z</time>
      </trkpt>
      <trkpt lat="43.69356" lon="5.0053">
        <ele>101</ele>
        <time>2011-03-04T11:27:15Z</time>
      </trkpt>
      <trkpt lat="43.69362" lon="5.00517">
        <ele>101</ele>
        <time>2011-03-04T11:27:25Z</time>
      </trkpt>
      <trkpt lat="43.69368" lon="5.00501">
        <ele>101</ele>
        <time>2011-03-04T11:27:36Z</time>
      </trkpt>
      <trkpt lat="43.69374" lon="5.00485">
        <ele>101</ele>
        <time>2011-03-04T11:27:46Z</time>
      </trkpt>
      <trkpt lat="43.69378" lon="5.00467">
        <ele>101</ele>
        <time>2011-03-04T11:27:56Z</time>
      </trkpt>
      <trkpt lat="43.69383" lon="5.00449">
        <ele>101</ele>
        <time>2011-03-04T11:28:06Z</time>
      </trkpt>
      <trkpt lat="43.69389" lon="5.00431">
        <ele>101</ele>
        <time>2011-03-04T11:28:16Z</time>
      </trkpt>
      <trkpt lat="43.69394" lon="5.00414">
        <ele>101</ele>
        <time>2011-03-04T11:28:26Z</time>
      </trkpt>
      <trkpt lat="43.69398" lon="5.00396">
        <ele>101</ele>
        <time>2011-03-04T11:28:36Z</time>
      </trkpt>
      <trkpt lat="43.69402" lon="5.00377">
        <ele>101</ele>
        <time>2011-03-04T11:28:46Z</time>
      </trkpt>
      <trkpt lat="43.69404" lon="5.00357">
        <ele>101</ele>
        <time>2011-03-04T11:28:56Z</time>
      </trkpt>
      <trkpt lat="43.69405" lon="5.00339">
        <ele>101</ele>
        <time>2011-03-04T11:29:06Z</time>
      </trkpt>
      <trkpt lat="43.69407" lon="5.00318">
        <ele>101</ele>
        <time>2011-03-04T11:29:16Z</time>
      </trkpt>
      <trkpt lat="43.69413" lon="5.00303">
        <ele>101</ele>
        <time>2011-03-04T11:29:26Z</time>
      </trkpt>
      <trkpt lat="43.69419" lon="5.00291">
        <ele>101</ele>
        <time>2011-03-04T11:29:36Z</time>
      </trkpt>
      <trkpt lat="43.69416" lon="5.00286">
        <ele>101</ele>
        <time>2011-03-04T11:29:46Z</time>
      </trkpt>
      <trkpt lat="43.69407" lon="5.00281">
        <ele>101</ele>
        <time>2011-03-04T11:29:57Z</time>
      </trkpt>
      <trkpt lat="43.69404" lon="5.00276">
        <ele>101</ele>
        <time>2011-03-04T11:30:08Z</time>
      </trkpt>
      <trkpt lat="43.69402" lon="5.00274">
        <ele>103</ele>
        <time>2011-03-04T11:30:34Z</time>
      </trkpt>
      <trkpt lat="43.69395" lon="5.00275">
        <ele>103</ele>
        <time>2011-03-04T11:30:44Z</time>
      </trkpt>
      <trkpt lat="43.69394" lon="5.00275">
        <ele>103</ele>
        <time>2011-03-04T11:30:54Z</time>
      </trkpt>
      <trkpt lat="43.69402" lon="5.00275">
        <ele>103</ele>
        <time>2011-03-04T11:31:04Z</time>
      </trkpt>
      <trkpt lat="43.69404" lon="5.00262">
        <ele>103</ele>
        <time>2011-03-04T11:31:15Z</time>
      </trkpt>
      <trkpt lat="43.69403" lon="5.00249">
        <ele>103</ele>
        <time>2011-03-04T11:31:25Z</time>
      </trkpt>
      <trkpt lat="43.69407" lon="5.00244">
        <ele>104</ele>
        <time>2011-03-04T11:31:35Z</time>
      </trkpt>
      <trkpt lat="43.69413" lon="5.00242">
        <ele>104</ele>
        <time>2011-03-04T11:31:45Z</time>
      </trkpt>
      <trkpt lat="43.69413" lon="5.0024">
        <ele>107</ele>
        <time>2011-03-04T11:31:59Z</time>
      </trkpt>
      <trkpt lat="43.69414" lon="5.00238">
        <ele>107</ele>
        <time>2011-03-04T11:32:31Z</time>
      </trkpt>
      <trkpt lat="43.69415" lon="5.00235">
        <ele>107</ele>
        <time>2011-03-04T11:32:45Z</time>
      </trkpt>
      <trkpt lat="43.69416" lon="5.00238">
        <ele>107</ele>
        <time>2011-03-04T11:33:05Z</time>
      </trkpt>
      <trkpt lat="43.69416" lon="5.00239">
        <ele>106</ele>
        <time>2011-03-04T11:33:51Z</time>
      </trkpt>
      <trkpt lat="43.69417" lon="5.00238">
        <ele>106</ele>
        <time>2011-03-04T11:34:03Z</time>
      </trkpt>
      <trkpt lat="43.69416" lon="5.00239">
        <ele>106</ele>
        <time>2011-03-04T11:34:47Z</time>
      </trkpt>
      <trkpt lat="43.69416" lon="5.0024">
        <ele>106</ele>
        <time>2011-03-04T11:35:03Z</time>
      </trkpt>
      <trkpt lat="43.69418" lon="5.0024">
        <ele>105</ele>
        <time>2011-03-04T11:35:54Z</time>
      </trkpt>
      <trkpt lat="43.69418" lon="5.00239">
        <ele>105</ele>
        <time>2011-03-04T11:38:31Z</time>
      </trkpt>
      <trkpt lat="43.69417" lon="5.0024">
        <ele>105</ele>
        <time>2011-03-04T11:39:23Z</time>
      </trkpt>
      <trkpt lat="43.69416" lon="5.0024">
        <ele>105</ele>
        <time>2011-03-04T11:43:57Z</time>
      </trkpt>
      <trkpt lat="43.69417" lon="5.00241">
        <ele>105</ele>
        <time>2011-03-04T11:47:42Z</time>
      </trkpt>
      <trkpt lat="43.69416" lon="5.00242">
        <ele>105</ele>
        <time>2011-03-04T11:47:58Z</time>
      </trkpt>
      <trkpt lat="43.69416" lon="5.0024">
        <ele>105</ele>
        <time>2011-03-04T11:48:23Z</time>
      </trkpt>
      <trkpt lat="43.69416" lon="5.00242">
        <ele>105</ele>
        <time>2011-03-04T11:48:38Z</time>
      </trkpt>
      <trkpt lat="43.69417" lon="5.0024">
        <ele>105</ele>
        <time>2011-03-04T11:49:29Z</time>
      </trkpt>
      <trkpt lat="43.69417" lon="5.00239">
        <ele>105</ele>
        <time>2011-03-04T11:50:05Z</time>
      </trkpt>
      <trkpt lat="43.69416" lon="5.00239">
        <ele>105</ele>
        <time>2011-03-04T11:51:35Z</time>
      </trkpt>
      <trkpt lat="43.69416" lon="5.00241">
        <ele>105</ele>
        <time>2011-03-04T11:52:31Z</time>
      </trkpt>
      <trkpt lat="43.69415" lon="5.00241">
        <ele>105</ele>
        <time>2011-03-04T11:54:22Z</time>
      </trkpt>
      <trkpt lat="43.69416" lon="5.00242">
        <ele>105</ele>
        <time>2011-03-04T11:55:41Z</time>
      </trkpt>
      <trkpt lat="43.69415" lon="5.00242">
        <ele>106</ele>
        <time>2011-03-04T11:55:59Z</time>
      </trkpt>
      <trkpt lat="43.69416" lon="5.00242">
        <ele>106</ele>
        <time>2011-03-04T11:56:13Z</time>
      </trkpt>
      <trkpt lat="43.69417" lon="5.0024">
        <ele>106</ele>
        <time>2011-03-04T11:56:25Z</time>
      </trkpt>
      <trkpt lat="43.69416" lon="5.00239">
        <ele>106</ele>
        <time>2011-03-04T11:56:42Z</time>
      </trkpt>
      <trkpt lat="43.69416" lon="5.0024">
        <ele>106</ele>
        <time>2011-03-04T11:57:01Z</time>
      </trkpt>
      <trkpt lat="43.69416" lon="5.00242">
        <ele>105</ele>
        <time>2011-03-04T11:57:41Z</time>
      </trkpt>
      <trkpt lat="43.69417" lon="5.00241">
        <ele>104</ele>
        <time>2011-03-04T11:58:34Z</time>
      </trkpt>
      <trkpt lat="43.69417" lon="5.0024">
        <ele>104</ele>
        <time>2011-03-04T11:58:54Z</time>
      </trkpt>
      <trkpt lat="43.69416" lon="5.00238">
        <ele>104</ele>
        <time>2011-03-04T11:59:33Z</time>
      </trkpt>
      <trkpt lat="43.69417" lon="5.0024">
        <ele>104</ele>
        <time>2011-03-04T12:00:36Z</time>
      </trkpt>
      <trkpt lat="43.69416" lon="5.00237">
        <ele>104</ele>
        <time>2011-03-04T12:01:11Z</time>
      </trkpt>
      <trkpt lat="43.69414" lon="5.00236">
        <ele>105</ele>
        <time>2011-03-04T12:01:43Z</time>
      </trkpt>
      <trkpt lat="43.69415" lon="5.00239">
        <ele>105</ele>
        <time>2011-03-04T12:02:04Z</time>
      </trkpt>
      <trkpt lat="43.69416" lon="5.00241">
        <ele>105</ele>
        <time>2011-03-04T12:02:27Z</time>
      </trkpt>
      <trkpt lat="43.69416" lon="5.0024">
        <ele>105</ele>
        <time>2011-03-04T12:02:51Z</time>
      </trkpt>
      <trkpt lat="43.69416" lon="5.00238">
        <ele>105</ele>
        <time>2011-03-04T12:03:27Z</time>
      </trkpt>
      <trkpt lat="43.69416" lon="5.0024">
        <ele>105</ele>
        <time>2011-03-04T12:04:23Z</time>
      </trkpt>
      <trkpt lat="43.69416" lon="5.00241">
        <ele>105</ele>
        <time>2011-03-04T12:06:09Z</time>
      </trkpt>
      <trkpt lat="43.69417" lon="5.0024">
        <ele>105</ele>
        <time>2011-03-04T12:07:00Z</time>
      </trkpt>
      <trkpt lat="43.69417" lon="5.00238">
        <ele>105</ele>
        <time>2011-03-04T12:07:21Z</time>
      </trkpt>
      <trkpt lat="43.69418" lon="5.0024">
        <ele>105</ele>
        <time>2011-03-04T12:07:33Z</time>
      </trkpt>
      <trkpt lat="43.69417" lon="5.00246">
        <ele>105</ele>
        <time>2011-03-04T12:07:43Z</time>
      </trkpt>
      <trkpt lat="43.6941" lon="5.00247">
        <ele>105</ele>
        <time>2011-03-04T12:07:53Z</time>
      </trkpt>
      <trkpt lat="43.69411" lon="5.00246">
        <ele>105</ele>
        <time>2011-03-04T12:08:34Z</time>
      </trkpt>
      <trkpt lat="43.69416" lon="5.00242">
        <ele>105</ele>
        <time>2011-03-04T12:08:44Z</time>
      </trkpt>
      <trkpt lat="43.69416" lon="5.00239">
        <ele>105</ele>
        <time>2011-03-04T12:09:39Z</time>
      </trkpt>
      <trkpt lat="43.69418" lon="5.00241">
        <ele>105</ele>
        <time>2011-03-04T12:10:16Z</time>
      </trkpt>
      <trkpt lat="43.69418" lon="5.0024">
        <ele>105</ele>
        <time>2011-03-04T12:10:30Z</time>
      </trkpt>
      <trkpt lat="43.69416" lon="5.00236">
        <ele>105</ele>
        <time>2011-03-04T12:11:42Z</time>
      </trkpt>
      <trkpt lat="43.69418" lon="5.00233">
        <ele>110</ele>
        <time>2011-03-04T12:13:35Z</time>
      </trkpt>
      <trkpt lat="43.69418" lon="5.0023">
        <ele>108</ele>
        <time>2011-03-04T12:14:01Z</time>
      </trkpt>
      <trkpt lat="43.69416" lon="5.00232">
        <ele>108</ele>
        <time>2011-03-04T12:14:15Z</time>
      </trkpt>
      <trkpt lat="43.69417" lon="5.00234">
        <ele>108</ele>
        <time>2011-03-04T12:14:25Z</time>
      </trkpt>
      <trkpt lat="43.69415" lon="5.00235">
        <ele>108</ele>
        <time>2011-03-04T12:14:43Z</time>
      </trkpt>
      <trkpt lat="43.69416" lon="5.00237">
        <ele>108</ele>
        <time>2011-03-04T12:15:21Z</time>
      </trkpt>
      <trkpt lat="43.69416" lon="5.00239">
        <ele>108</ele>
        <time>2011-03-04T12:15:41Z</time>
      </trkpt>
      <trkpt lat="43.69416" lon="5.00237">
        <ele>108</ele>
        <time>2011-03-04T12:15:52Z</time>
      </trkpt>
      <trkpt lat="43.69418" lon="5.00238">
        <ele>108</ele>
        <time>2011-03-04T12:16:20Z</time>
      </trkpt>
      <trkpt lat="43.69423" lon="5.00237">
        <ele>108</ele>
        <time>2011-03-04T12:16:32Z</time>
      </trkpt>
      <trkpt lat="43.69428" lon="5.00238">
        <ele>108</ele>
        <time>2011-03-04T12:16:43Z</time>
      </trkpt>
      <trkpt lat="43.69432" lon="5.00227">
        <ele>108</ele>
        <time>2011-03-04T12:16:54Z</time>
      </trkpt>
      <trkpt lat="43.69435" lon="5.00216">
        <ele>108</ele>
        <time>2011-03-04T12:17:04Z</time>
      </trkpt>
      <trkpt lat="43.6944" lon="5.00205">
        <ele>108</ele>
        <time>2011-03-04T12:17:14Z</time>
      </trkpt>
      <trkpt lat="43.69444" lon="5.00191">
        <ele>108</ele>
        <time>2011-03-04T12:17:25Z</time>
      </trkpt>
      <trkpt lat="43.69451" lon="5.00178">
        <ele>108</ele>
        <time>2011-03-04T12:17:36Z</time>
      </trkpt>
      <trkpt lat="43.69457" lon="5.00168">
        <ele>108</ele>
        <time>2011-03-04T12:17:46Z</time>
      </trkpt>
      <trkpt lat="43.69462" lon="5.00158">
        <ele>108</ele>
        <time>2011-03-04T12:17:56Z</time>
      </trkpt>
      <trkpt lat="43.69464" lon="5.00145">
        <ele>108</ele>
        <time>2011-03-04T12:18:06Z</time>
      </trkpt>
      <trkpt lat="43.69467" lon="5.00132">
        <ele>108</ele>
        <time>2011-03-04T12:18:17Z</time>
      </trkpt>
      <trkpt lat="43.69472" lon="5.00119">
        <ele>108</ele>
        <time>2011-03-04T12:18:27Z</time>
      </trkpt>
      <trkpt lat="43.69479" lon="5.00108">
        <ele>108</ele>
        <time>2011-03-04T12:18:37Z</time>
      </trkpt>
      <trkpt lat="43.69485" lon="5.00097">
        <ele>108</ele>
        <time>2011-03-04T12:18:47Z</time>
      </trkpt>
      <trkpt lat="43.69492" lon="5.00086">
        <ele>108</ele>
        <time>2011-03-04T12:18:57Z</time>
      </trkpt>
      <trkpt lat="43.69498" lon="5.00073">
        <ele>108</ele>
        <time>2011-03-04T12:19:08Z</time>
      </trkpt>
      <trkpt lat="43.69503" lon="5.00061">
        <ele>108</ele>
        <time>2011-03-04T12:19:18Z</time>
      </trkpt>
      <trkpt lat="43.69506" lon="5.00047">
        <ele>109</ele>
        <time>2011-03-04T12:19:28Z</time>
      </trkpt>
      <trkpt lat="43.69509" lon="5.00032">
        <ele>109</ele>
        <time>2011-03-04T12:19:38Z</time>
      </trkpt>
      <trkpt lat="43.69508" lon="5.00015">
        <ele>109</ele>
        <time>2011-03-04T12:19:48Z</time>
      </trkpt>
      <trkpt lat="43.69509" lon="4.99999">
        <ele>109</ele>
        <time>2011-03-04T12:19:58Z</time>
      </trkpt>
      <trkpt lat="43.69514" lon="4.99984">
        <ele>110</ele>
        <time>2011-03-04T12:20:09Z</time>
      </trkpt>
      <trkpt lat="43.69522" lon="4.99971">
        <ele>111</ele>
        <time>2011-03-04T12:20:20Z</time>
      </trkpt>
      <trkpt lat="43.69527" lon="4.99958">
        <ele>112</ele>
        <time>2011-03-04T12:20:30Z</time>
      </trkpt>
      <trkpt lat="43.6953" lon="4.99943">
        <ele>113</ele>
        <time>2011-03-04T12:20:40Z</time>
      </trkpt>
      <trkpt lat="43.69532" lon="4.99929">
        <ele>113</ele>
        <time>2011-03-04T12:20:50Z</time>
      </trkpt>
      <trkpt lat="43.69537" lon="4.99913">
        <ele>115</ele>
        <time>2011-03-04T12:21:01Z</time>
      </trkpt>
      <trkpt lat="43.69545" lon="4.99901">
        <ele>116</ele>
        <time>2011-03-04T12:21:11Z</time>
      </trkpt>
      <trkpt lat="43.69553" lon="4.99891">
        <ele>116</ele>
        <time>2011-03-04T12:21:21Z</time>
      </trkpt>
      <trkpt lat="43.69562" lon="4.99881">
        <ele>117</ele>
        <time>2011-03-04T12:21:31Z</time>
      </trkpt>
      <trkpt lat="43.69571" lon="4.99872">
        <ele>117</ele>
        <time>2011-03-04T12:21:41Z</time>
      </trkpt>
      <trkpt lat="43.69577" lon="4.99858">
        <ele>118</ele>
        <time>2011-03-04T12:21:51Z</time>
      </trkpt>
      <trkpt lat="43.6958" lon="4.99842">
        <ele>118</ele>
        <time>2011-03-04T12:22:01Z</time>
      </trkpt>
      <trkpt lat="43.69586" lon="4.99825">
        <ele>118</ele>
        <time>2011-03-04T12:22:12Z</time>
      </trkpt>
      <trkpt lat="43.69594" lon="4.99813">
        <ele>118</ele>
        <time>2011-03-04T12:22:22Z</time>
      </trkpt>
      <trkpt lat="43.69603" lon="4.99799">
        <ele>118</ele>
        <time>2011-03-04T12:22:33Z</time>
      </trkpt>
      <trkpt lat="43.69607" lon="4.99784">
        <ele>118</ele>
        <time>2011-03-04T12:22:43Z</time>
      </trkpt>
      <trkpt lat="43.69611" lon="4.99767">
        <ele>119</ele>
        <time>2011-03-04T12:22:53Z</time>
      </trkpt>
      <trkpt lat="43.69615" lon="4.99752">
        <ele>120</ele>
        <time>2011-03-04T12:23:03Z</time>
      </trkpt>
      <trkpt lat="43.69622" lon="4.99736">
        <ele>120</ele>
        <time>2011-03-04T12:23:14Z</time>
      </trkpt>
      <trkpt lat="43.69631" lon="4.99723">
        <ele>121</ele>
        <time>2011-03-04T12:23:25Z</time>
      </trkpt>
      <trkpt lat="43.69641" lon="4.99711">
        <ele>122</ele>
        <time>2011-03-04T12:23:35Z</time>
      </trkpt>
      <trkpt lat="43.6965" lon="4.99699">
        <ele>122</ele>
        <time>2011-03-04T12:23:45Z</time>
      </trkpt>
      <trkpt lat="43.69659" lon="4.99687">
        <ele>123</ele>
        <time>2011-03-04T12:23:55Z</time>
      </trkpt>
      <trkpt lat="43.69665" lon="4.99672">
        <ele>123</ele>
        <time>2011-03-04T12:24:05Z</time>
      </trkpt>
      <trkpt lat="43.6967" lon="4.99655">
        <ele>123</ele>
        <time>2011-03-04T12:24:15Z</time>
      </trkpt>
      <trkpt lat="43.69675" lon="4.99639">
        <ele>123</ele>
        <time>2011-03-04T12:24:25Z</time>
      </trkpt>
      <trkpt lat="43.69679" lon="4.99623">
        <ele>123</ele>
        <time>2011-03-04T12:24:35Z</time>
      </trkpt>
      <trkpt lat="43.69685" lon="4.99609">
        <ele>123</ele>
        <time>2011-03-04T12:24:45Z</time>
      </trkpt>
      <trkpt lat="43.6969" lon="4.99592">
        <ele>123</ele>
        <time>2011-03-04T12:24:55Z</time>
      </trkpt>
      <trkpt lat="43.69693" lon="4.99576">
        <ele>123</ele>
        <time>2011-03-04T12:25:05Z</time>
      </trkpt>
      <trkpt lat="43.69697" lon="4.99559">
        <ele>123</ele>
        <time>2011-03-04T12:25:15Z</time>
      </trkpt>
      <trkpt lat="43.69701" lon="4.99544">
        <ele>123</ele>
        <time>2011-03-04T12:25:25Z</time>
      </trkpt>
      <trkpt lat="43.69707" lon="4.9953">
        <ele>123</ele>
        <time>2011-03-04T12:25:35Z</time>
      </trkpt>
      <trkpt lat="43.69714" lon="4.99518">
        <ele>123</ele>
        <time>2011-03-04T12:25:45Z</time>
      </trkpt>
      <trkpt lat="43.69724" lon="4.99504">
        <ele>123</ele>
        <time>2011-03-04T12:25:56Z</time>
      </trkpt>
      <trkpt lat="43.69731" lon="4.99491">
        <ele>123</ele>
        <time>2011-03-04T12:26:06Z</time>
      </trkpt>
      <trkpt lat="43.69737" lon="4.99476">
        <ele>123</ele>
        <time>2011-03-04T12:26:16Z</time>
      </trkpt>
      <trkpt lat="43.6974" lon="4.99459">
        <ele>123</ele>
        <time>2011-03-04T12:26:26Z</time>
      </trkpt>
      <trkpt lat="43.69741" lon="4.99442">
        <ele>123</ele>
        <time>2011-03-04T12:26:36Z</time>
      </trkpt>
      <trkpt lat="43.69743" lon="4.99426">
        <ele>123</ele>
        <time>2011-03-04T12:26:46Z</time>
      </trkpt>
      <trkpt lat="43.69745" lon="4.99409">
        <ele>123</ele>
        <time>2011-03-04T12:26:56Z</time>
      </trkpt>
      <trkpt lat="43.69746" lon="4.99393">
        <ele>123</ele>
        <time>2011-03-04T12:27:06Z</time>
      </trkpt>
      <trkpt lat="43.69746" lon="4.99378">
        <ele>123</ele>
        <time>2011-03-04T12:27:16Z</time>
      </trkpt>
      <trkpt lat="43.69746" lon="4.99363">
        <ele>123</ele>
        <time>2011-03-04T12:27:26Z</time>
      </trkpt>
      <trkpt lat="43.69746" lon="4.99347">
        <ele>123</ele>
        <time>2011-03-04T12:27:36Z</time>
      </trkpt>
      <trkpt lat="43.69748" lon="4.99331">
        <ele>123</ele>
        <time>2011-03-04T12:27:47Z</time>
      </trkpt>
      <trkpt lat="43.69751" lon="4.99321">
        <ele>123</ele>
        <time>2011-03-04T12:27:58Z</time>
      </trkpt>
      <trkpt lat="43.6975" lon="4.99304">
        <ele>123</ele>
        <time>2011-03-04T12:28:08Z</time>
      </trkpt>
      <trkpt lat="43.69749" lon="4.99288">
        <ele>123</ele>
        <time>2011-03-04T12:28:18Z</time>
      </trkpt>
      <trkpt lat="43.6975" lon="4.99271">
        <ele>123</ele>
        <time>2011-03-04T12:28:28Z</time>
      </trkpt>
      <trkpt lat="43.69752" lon="4.99257">
        <ele>123</ele>
        <time>2011-03-04T12:28:38Z</time>
      </trkpt>
      <trkpt lat="43.69752" lon="4.9924">
        <ele>123</ele>
        <time>2011-03-04T12:28:48Z</time>
      </trkpt>
      <trkpt lat="43.6975" lon="4.99225">
        <ele>123</ele>
        <time>2011-03-04T12:28:58Z</time>
      </trkpt>
      <trkpt lat="43.69749" lon="4.99207">
        <ele>123</ele>
        <time>2011-03-04T12:29:08Z</time>
      </trkpt>
      <trkpt lat="43.69752" lon="4.99192">
        <ele>123</ele>
        <time>2011-03-04T12:29:18Z</time>
      </trkpt>
      <trkpt lat="43.69756" lon="4.99176">
        <ele>123</ele>
        <time>2011-03-04T12:29:28Z</time>
      </trkpt>
      <trkpt lat="43.69757" lon="4.9916">
        <ele>123</ele>
        <time>2011-03-04T12:29:38Z</time>
      </trkpt>
      <trkpt lat="43.69757" lon="4.99143">
        <ele>123</ele>
        <time>2011-03-04T12:29:48Z</time>
      </trkpt>
      <trkpt lat="43.69758" lon="4.99126">
        <ele>123</ele>
        <time>2011-03-04T12:29:58Z</time>
      </trkpt>
      <trkpt lat="43.6976" lon="4.99109">
        <ele>123</ele>
        <time>2011-03-04T12:30:08Z</time>
      </trkpt>
      <trkpt lat="43.6976" lon="4.99092">
        <ele>123</ele>
        <time>2011-03-04T12:30:18Z</time>
      </trkpt>
      <trkpt lat="43.69757" lon="4.99076">
        <ele>123</ele>
        <time>2011-03-04T12:30:28Z</time>
      </trkpt>
      <trkpt lat="43.69754" lon="4.99061">
        <ele>123</ele>
        <time>2011-03-04T12:30:38Z</time>
      </trkpt>
      <trkpt lat="43.69753" lon="4.99044">
        <ele>123</ele>
        <time>2011-03-04T12:30:48Z</time>
      </trkpt>
      <trkpt lat="43.69753" lon="4.99027">
        <ele>123</ele>
        <time>2011-03-04T12:30:58Z</time>
      </trkpt>
      <trkpt lat="43.69754" lon="4.99011">
        <ele>123</ele>
        <time>2011-03-04T12:31:08Z</time>
      </trkpt>
      <trkpt lat="43.69756" lon="4.98994">
        <ele>123</ele>
        <time>2011-03-04T12:31:18Z</time>
      </trkpt>
      <trkpt lat="43.69762" lon="4.9898">
        <ele>123</ele>
        <time>2011-03-04T12:31:28Z</time>
      </trkpt>
      <trkpt lat="43.69768" lon="4.98965">
        <ele>123</ele>
        <time>2011-03-04T12:31:38Z</time>
      </trkpt>
      <trkpt lat="43.69772" lon="4.98948">
        <ele>124</ele>
        <time>2011-03-04T12:31:48Z</time>
      </trkpt>
      <trkpt lat="43.69778" lon="4.98932">
        <ele>126</ele>
        <time>2011-03-04T12:31:58Z</time>
      </trkpt>
      <trkpt lat="43.69781" lon="4.98913">
        <ele>126</ele>
        <time>2011-03-04T12:32:08Z</time>
      </trkpt>
      <trkpt lat="43.69785" lon="4.98895">
        <ele>127</ele>
        <time>2011-03-04T12:32:18Z</time>
      </trkpt>
      <trkpt lat="43.6979" lon="4.98878">
        <ele>127</ele>
        <time>2011-03-04T12:32:28Z</time>
      </trkpt>
      <trkpt lat="43.69795" lon="4.98862">
        <ele>127</ele>
        <time>2011-03-04T12:32:38Z</time>
      </trkpt>
      <trkpt lat="43.69802" lon="4.98846">
        <ele>127</ele>
        <time>2011-03-04T12:32:48Z</time>
      </trkpt>
      <trkpt lat="43.6981" lon="4.9883">
        <ele>127</ele>
        <time>2011-03-04T12:32:59Z</time>
      </trkpt>
      <trkpt lat="43.69818" lon="4.98815">
        <ele>127</ele>
        <time>2011-03-04T12:33:10Z</time>
      </trkpt>
      <trkpt lat="43.69825" lon="4.98802">
        <ele>127</ele>
        <time>2011-03-04T12:33:21Z</time>
      </trkpt>
      <trkpt lat="43.6983" lon="4.98795">
        <ele>127</ele>
        <time>2011-03-04T12:33:32Z</time>
      </trkpt>
      <trkpt lat="43.69834" lon="4.98779">
        <ele>127</ele>
        <time>2011-03-04T12:33:42Z</time>
      </trkpt>
      <trkpt lat="43.69835" lon="4.98762">
        <ele>127</ele>
        <time>2011-03-04T12:33:53Z</time>
      </trkpt>
      <trkpt lat="43.69834" lon="4.98747">
        <ele>127</ele>
        <time>2011-03-04T12:34:03Z</time>
      </trkpt>
      <trkpt lat="43.69834" lon="4.98731">
        <ele>127</ele>
        <time>2011-03-04T12:34:13Z</time>
      </trkpt>
      <trkpt lat="43.69832" lon="4.98712">
        <ele>127</ele>
        <time>2011-03-04T12:34:23Z</time>
      </trkpt>
      <trkpt lat="43.69832" lon="4.98694">
        <ele>127</ele>
        <time>2011-03-04T12:34:33Z</time>
      </trkpt>
      <trkpt lat="43.69833" lon="4.98677">
        <ele>127</ele>
        <time>2011-03-04T12:34:43Z</time>
      </trkpt>
      <trkpt lat="43.69838" lon="4.98663">
        <ele>127</ele>
        <time>2011-03-04T12:34:53Z</time>
      </trkpt>
      <trkpt lat="43.69846" lon="4.98651">
        <ele>127</ele>
        <time>2011-03-04T12:35:03Z</time>
      </trkpt>
      <trkpt lat="43.69854" lon="4.9864">
        <ele>127</ele>
        <time>2011-03-04T12:35:13Z</time>
      </trkpt>
      <trkpt lat="43.69859" lon="4.98626">
        <ele>127</ele>
        <time>2011-03-04T12:35:23Z</time>
      </trkpt>
      <trkpt lat="43.69862" lon="4.9861">
        <ele>127</ele>
        <time>2011-03-04T12:35:33Z</time>
      </trkpt>
      <trkpt lat="43.69865" lon="4.98594">
        <ele>128</ele>
        <time>2011-03-04T12:35:44Z</time>
      </trkpt>
      <trkpt lat="43.6987" lon="4.9858">
        <ele>128</ele>
        <time>2011-03-04T12:35:54Z</time>
      </trkpt>
      <trkpt lat="43.69875" lon="4.98565">
        <ele>128</ele>
        <time>2011-03-04T12:36:04Z</time>
      </trkpt>
      <trkpt lat="43.69881" lon="4.98551">
        <ele>128</ele>
        <time>2011-03-04T12:36:14Z</time>
      </trkpt>
      <trkpt lat="43.69886" lon="4.98534">
        <ele>129</ele>
        <time>2011-03-04T12:36:25Z</time>
      </trkpt>
      <trkpt lat="43.69889" lon="4.98519">
        <ele>129</ele>
        <time>2011-03-04T12:36:35Z</time>
      </trkpt>
      <trkpt lat="43.69894" lon="4.98502">
        <ele>131</ele>
        <time>2011-03-04T12:36:46Z</time>
      </trkpt>
      <trkpt lat="43.69898" lon="4.98486">
        <ele>131</ele>
        <time>2011-03-04T12:36:57Z</time>
      </trkpt>
      <trkpt lat="43.69903" lon="4.98471">
        <ele>132</ele>
        <time>2011-03-04T12:37:07Z</time>
      </trkpt>
      <trkpt lat="43.6991" lon="4.98453">
        <ele>133</ele>
        <time>2011-03-04T12:37:19Z</time>
      </trkpt>
      <trkpt lat="43.69917" lon="4.98436">
        <ele>134</ele>
        <time>2011-03-04T12:37:30Z</time>
      </trkpt>
      <trkpt lat="43.69922" lon="4.98418">
        <ele>134</ele>
        <time>2011-03-04T12:37:41Z</time>
      </trkpt>
      <trkpt lat="43.69924" lon="4.98401">
        <ele>134</ele>
        <time>2011-03-04T12:37:51Z</time>
      </trkpt>
      <trkpt lat="43.69928" lon="4.98385">
        <ele>134</ele>
        <time>2011-03-04T12:38:01Z</time>
      </trkpt>
      <trkpt lat="43.69933" lon="4.9837">
        <ele>135</ele>
        <time>2011-03-04T12:38:11Z</time>
      </trkpt>
      <trkpt lat="43.69939" lon="4.98353">
        <ele>136</ele>
        <time>2011-03-04T12:38:22Z</time>
      </trkpt>
      <trkpt lat="43.69946" lon="4.98338">
        <ele>137</ele>
        <time>2011-03-04T12:38:32Z</time>
      </trkpt>
      <trkpt lat="43.69953" lon="4.98322">
        <ele>137</ele>
        <time>2011-03-04T12:38:42Z</time>
      </trkpt>
      <trkpt lat="43.69958" lon="4.98306">
        <ele>137</ele>
        <time>2011-03-04T12:38:52Z</time>
      </trkpt>
      <trkpt lat="43.69964" lon="4.9829">
        <ele>137</ele>
        <time>2011-03-04T12:39:02Z</time>
      </trkpt>
      <trkpt lat="43.69972" lon="4.98275">
        <ele>137</ele>
        <time>2011-03-04T12:39:12Z</time>
      </trkpt>
      <trkpt lat="43.69979" lon="4.98259">
        <ele>137</ele>
        <time>2011-03-04T12:39:22Z</time>
      </trkpt>
      <trkpt lat="43.69985" lon="4.98244">
        <ele>137</ele>
        <time>2011-03-04T12:39:32Z</time>
      </trkpt>
      <trkpt lat="43.69991" lon="4.98227">
        <ele>137</ele>
        <time>2011-03-04T12:39:42Z</time>
      </trkpt>
      <trkpt lat="43.69995" lon="4.98212">
        <ele>139</ele>
        <time>2011-03-04T12:39:52Z</time>
      </trkpt>
      <trkpt lat="43.7" lon="4.98197">
        <ele>139</ele>
        <time>2011-03-04T12:40:02Z</time>
      </trkpt>
      <trkpt lat="43.70004" lon="4.98181">
        <ele>140</ele>
        <time>2011-03-04T12:40:12Z</time>
      </trkpt>
      <trkpt lat="43.70007" lon="4.98165">
        <ele>140</ele>
        <time>2011-03-04T12:40:22Z</time>
      </trkpt>
      <trkpt lat="43.70009" lon="4.98146">
        <ele>140</ele>
        <time>2011-03-04T12:40:32Z</time>
      </trkpt>
      <trkpt lat="43.70013" lon="4.98129">
        <ele>140</ele>
        <time>2011-03-04T12:40:42Z</time>
      </trkpt>
      <trkpt lat="43.70018" lon="4.98112">
        <ele>141</ele>
        <time>2011-03-04T12:40:52Z</time>
      </trkpt>
      <trkpt lat="43.70023" lon="4.98095">
        <ele>141</ele>
        <time>2011-03-04T12:41:02Z</time>
      </trkpt>
      <trkpt lat="43.70027" lon="4.98078">
        <ele>142</ele>
        <time>2011-03-04T12:41:12Z</time>
      </trkpt>
      <trkpt lat="43.70031" lon="4.9806">
        <ele>143</ele>
        <time>2011-03-04T12:41:22Z</time>
      </trkpt>
      <trkpt lat="43.70034" lon="4.98043">
        <ele>144</ele>
        <time>2011-03-04T12:41:32Z</time>
      </trkpt>
      <trkpt lat="43.70038" lon="4.98027">
        <ele>145</ele>
        <time>2011-03-04T12:41:42Z</time>
      </trkpt>
      <trkpt lat="43.70042" lon="4.98012">
        <ele>146</ele>
        <time>2011-03-04T12:41:52Z</time>
      </trkpt>
      <trkpt lat="43.70048" lon="4.97997">
        <ele>147</ele>
        <time>2011-03-04T12:42:03Z</time>
      </trkpt>
      <trkpt lat="43.70056" lon="4.97983">
        <ele>148</ele>
        <time>2011-03-04T12:42:14Z</time>
      </trkpt>
      <trkpt lat="43.70064" lon="4.97973">
        <ele>149</ele>
        <time>2011-03-04T12:42:24Z</time>
      </trkpt>
      <trkpt lat="43.70073" lon="4.97964">
        <ele>150</ele>
        <time>2011-03-04T12:42:34Z</time>
      </trkpt>
      <trkpt lat="43.70082" lon="4.97953">
        <ele>152</ele>
        <time>2011-03-04T12:42:45Z</time>
      </trkpt>
      <trkpt lat="43.70091" lon="4.97939">
        <ele>153</ele>
        <time>2011-03-04T12:42:55Z</time>
      </trkpt>
      <trkpt lat="43.70097" lon="4.97925">
        <ele>153</ele>
        <time>2011-03-04T12:43:05Z</time>
      </trkpt>
      <trkpt lat="43.70101" lon="4.97909">
        <ele>153</ele>
        <time>2011-03-04T12:43:15Z</time>
      </trkpt>
      <trkpt lat="43.70105" lon="4.97893">
        <ele>154</ele>
        <time>2011-03-04T12:43:25Z</time>
      </trkpt>
      <trkpt lat="43.70111" lon="4.97878">
        <ele>154</ele>
        <time>2011-03-04T12:43:35Z</time>
      </trkpt>
      <trkpt lat="43.70116" lon="4.97862">
        <ele>154</ele>
        <time>2011-03-04T12:43:45Z</time>
      </trkpt>
      <trkpt lat="43.70118" lon="4.97844">
        <ele>154</ele>
        <time>2011-03-04T12:43:55Z</time>
      </trkpt>
      <trkpt lat="43.70121" lon="4.97824">
        <ele>154</ele>
        <time>2011-03-04T12:44:05Z</time>
      </trkpt>
      <trkpt lat="43.70127" lon="4.97808">
        <ele>154</ele>
        <time>2011-03-04T12:44:15Z</time>
      </trkpt>
      <trkpt lat="43.70138" lon="4.97794">
        <ele>154</ele>
        <time>2011-03-04T12:44:26Z</time>
      </trkpt>
      <trkpt lat="43.70147" lon="4.97779">
        <ele>154</ele>
        <time>2011-03-04T12:44:37Z</time>
      </trkpt>
      <trkpt lat="43.70156" lon="4.97764">
        <ele>154</ele>
        <time>2011-03-04T12:44:47Z</time>
      </trkpt>
      <trkpt lat="43.70162" lon="4.97745">
        <ele>154</ele>
        <time>2011-03-04T12:44:57Z</time>
      </trkpt>
      <trkpt lat="43.70166" lon="4.97728">
        <ele>154</ele>
        <time>2011-03-04T12:45:07Z</time>
      </trkpt>
      <trkpt lat="43.70172" lon="4.97712">
        <ele>154</ele>
        <time>2011-03-04T12:45:17Z</time>
      </trkpt>
      <trkpt lat="43.7018" lon="4.97696">
        <ele>154</ele>
        <time>2011-03-04T12:45:28Z</time>
      </trkpt>
      <trkpt lat="43.70189" lon="4.97681">
        <ele>154</ele>
        <time>2011-03-04T12:45:39Z</time>
      </trkpt>
      <trkpt lat="43.70197" lon="4.97667">
        <ele>154</ele>
        <time>2011-03-04T12:45:50Z</time>
      </trkpt>
      <trkpt lat="43.70204" lon="4.97652">
        <ele>154</ele>
        <time>2011-03-04T12:46:01Z</time>
      </trkpt>
      <trkpt lat="43.70212" lon="4.97638">
        <ele>154</ele>
        <time>2011-03-04T12:46:12Z</time>
      </trkpt>
      <trkpt lat="43.70219" lon="4.97622">
        <ele>154</ele>
        <time>2011-03-04T12:46:23Z</time>
      </trkpt>
      <trkpt lat="43.70226" lon="4.97608">
        <ele>154</ele>
        <time>2011-03-04T12:46:33Z</time>
      </trkpt>
      <trkpt lat="43.70234" lon="4.97594">
        <ele>154</ele>
        <time>2011-03-04T12:46:43Z</time>
      </trkpt>
      <trkpt lat="43.70241" lon="4.97582">
        <ele>154</ele>
        <time>2011-03-04T12:46:53Z</time>
      </trkpt>
      <trkpt lat="43.70246" lon="4.97567">
        <ele>154</ele>
        <time>2011-03-04T12:47:03Z</time>
      </trkpt>
      <trkpt lat="43.70246" lon="4.97549">
        <ele>154</ele>
        <time>2011-03-04T12:47:13Z</time>
      </trkpt>
      <trkpt lat="43.70247" lon="4.97529">
        <ele>155</ele>
        <time>2011-03-04T12:47:24Z</time>
      </trkpt>
      <trkpt lat="43.70249" lon="4.97511">
        <ele>155</ele>
        <time>2011-03-04T12:47:34Z</time>
      </trkpt>
      <trkpt lat="43.70251" lon="4.97492">
        <ele>155</ele>
        <time>2011-03-04T12:47:44Z</time>
      </trkpt>
      <trkpt lat="43.70253" lon="4.97475">
        <ele>155</ele>
        <time>2011-03-04T12:47:54Z</time>
      </trkpt>
      <trkpt lat="43.70257" lon="4.97458">
        <ele>155</ele>
        <time>2011-03-04T12:48:04Z</time>
      </trkpt>
      <trkpt lat="43.70264" lon="4.97441">
        <ele>155</ele>
        <time>2011-03-04T12:48:14Z</time>
      </trkpt>
      <trkpt lat="43.70272" lon="4.97426">
        <ele>155</ele>
        <time>2011-03-04T12:48:24Z</time>
      </trkpt>
      <trkpt lat="43.70279" lon="4.9741">
        <ele>155</ele>
        <time>2011-03-04T12:48:34Z</time>
      </trkpt>
      <trkpt lat="43.70286" lon="4.97395">
        <ele>155</ele>
        <time>2011-03-04T12:48:44Z</time>
      </trkpt>
      <trkpt lat="43.70293" lon="4.97381">
        <ele>155</ele>
        <time>2011-03-04T12:48:54Z</time>
      </trkpt>
      <trkpt lat="43.70302" lon="4.97367">
        <ele>155</ele>
        <time>2011-03-04T12:49:05Z</time>
      </trkpt>
      <trkpt lat="43.70312" lon="4.97354">
        <ele>156</ele>
        <time>2011-03-04T12:49:16Z</time>
      </trkpt>
      <trkpt lat="43.70322" lon="4.97341">
        <ele>156</ele>
        <time>2011-03-04T12:49:27Z</time>
      </trkpt>
      <trkpt lat="43.7033" lon="4.97328">
        <ele>157</ele>
        <time>2011-03-04T12:49:37Z</time>
      </trkpt>
      <trkpt lat="43.70335" lon="4.97312">
        <ele>158</ele>
        <time>2011-03-04T12:49:47Z</time>
      </trkpt>
      <trkpt lat="43.70338" lon="4.97296">
        <ele>158</ele>
        <time>2011-03-04T12:49:57Z</time>
      </trkpt>
      <trkpt lat="43.7034" lon="4.97278">
        <ele>158</ele>
        <time>2011-03-04T12:50:07Z</time>
      </trkpt>
      <trkpt lat="43.70343" lon="4.97262">
        <ele>158</ele>
        <time>2011-03-04T12:50:17Z</time>
      </trkpt>
      <trkpt lat="43.70348" lon="4.97246">
        <ele>158</ele>
        <time>2011-03-04T12:50:27Z</time>
      </trkpt>
      <trkpt lat="43.70354" lon="4.97232">
        <ele>159</ele>
        <time>2011-03-04T12:50:37Z</time>
      </trkpt>
      <trkpt lat="43.70363" lon="4.97219">
        <ele>160</ele>
        <time>2011-03-04T12:50:47Z</time>
      </trkpt>
      <trkpt lat="43.70372" lon="4.97208">
        <ele>160</ele>
        <time>2011-03-04T12:50:57Z</time>
      </trkpt>
      <trkpt lat="43.70383" lon="4.97197">
        <ele>160</ele>
        <time>2011-03-04T12:51:07Z</time>
      </trkpt>
      <trkpt lat="43.70393" lon="4.97184">
        <ele>160</ele>
        <time>2011-03-04T12:51:17Z</time>
      </trkpt>
      <trkpt lat="43.70398" lon="4.97167">
        <ele>160</ele>
        <time>2011-03-04T12:51:27Z</time>
      </trkpt>
      <trkpt lat="43.704" lon="4.97149">
        <ele>161</ele>
        <time>2011-03-04T12:51:37Z</time>
      </trkpt>
      <trkpt lat="43.704" lon="4.97132">
        <ele>163</ele>
        <time>2011-03-04T12:51:47Z</time>
      </trkpt>
      <trkpt lat="43.704" lon="4.97114">
        <ele>163</ele>
        <time>2011-03-04T12:51:57Z</time>
      </trkpt>
      <trkpt lat="43.70401" lon="4.97096">
        <ele>164</ele>
        <time>2011-03-04T12:52:07Z</time>
      </trkpt>
      <trkpt lat="43.70404" lon="4.9708">
        <ele>164</ele>
        <time>2011-03-04T12:52:17Z</time>
      </trkpt>
      <trkpt lat="43.70409" lon="4.97065">
        <ele>164</ele>
        <time>2011-03-04T12:52:27Z</time>
      </trkpt>
      <trkpt lat="43.70413" lon="4.97055">
        <ele>164</ele>
        <time>2011-03-04T12:52:38Z</time>
      </trkpt>
      <trkpt lat="43.70418" lon="4.97043">
        <ele>164</ele>
        <time>2011-03-04T12:52:48Z</time>
      </trkpt>
      <trkpt lat="43.70421" lon="4.97029">
        <ele>164</ele>
        <time>2011-03-04T12:52:58Z</time>
      </trkpt>
      <trkpt lat="43.70422" lon="4.97014">
        <ele>164</ele>
        <time>2011-03-04T12:53:08Z</time>
      </trkpt>
      <trkpt lat="43.70422" lon="4.96999">
        <ele>164</ele>
        <time>2011-03-04T12:53:18Z</time>
      </trkpt>
      <trkpt lat="43.7042" lon="4.96983">
        <ele>164</ele>
        <time>2011-03-04T12:53:29Z</time>
      </trkpt>
      <trkpt lat="43.7042" lon="4.96968">
        <ele>164</ele>
        <time>2011-03-04T12:53:39Z</time>
      </trkpt>
      <trkpt lat="43.70422" lon="4.96954">
        <ele>163</ele>
        <time>2011-03-04T12:53:49Z</time>
      </trkpt>
      <trkpt lat="43.70425" lon="4.9694">
        <ele>162</ele>
        <time>2011-03-04T12:53:59Z</time>
      </trkpt>
      <trkpt lat="43.70429" lon="4.96926">
        <ele>161</ele>
        <time>2011-03-04T12:54:09Z</time>
      </trkpt>
      <trkpt lat="43.70433" lon="4.96911">
        <ele>161</ele>
        <time>2011-03-04T12:54:19Z</time>
      </trkpt>
      <trkpt lat="43.70439" lon="4.96897">
        <ele>160</ele>
        <time>2011-03-04T12:54:30Z</time>
      </trkpt>
      <trkpt lat="43.70446" lon="4.96883">
        <ele>160</ele>
        <time>2011-03-04T12:54:40Z</time>
      </trkpt>
      <trkpt lat="43.70456" lon="4.9687">
        <ele>159</ele>
        <time>2011-03-04T12:54:51Z</time>
      </trkpt>
      <trkpt lat="43.70465" lon="4.9686">
        <ele>159</ele>
        <time>2011-03-04T12:55:01Z</time>
      </trkpt>
      <trkpt lat="43.70474" lon="4.96848">
        <ele>159</ele>
        <time>2011-03-04T12:55:11Z</time>
      </trkpt>
      <trkpt lat="43.70483" lon="4.96836">
        <ele>158</ele>
        <time>2011-03-04T12:55:22Z</time>
      </trkpt>
      <trkpt lat="43.70491" lon="4.96821">
        <ele>158</ele>
        <time>2011-03-04T12:55:33Z</time>
      </trkpt>
      <trkpt lat="43.70496" lon="4.96807">
        <ele>157</ele>
        <time>2011-03-04T12:55:43Z</time>
      </trkpt>
      <trkpt lat="43.705" lon="4.9679">
        <ele>157</ele>
        <time>2011-03-04T12:55:54Z</time>
      </trkpt>
      <trkpt lat="43.70504" lon="4.96776">
        <ele>157</ele>
        <time>2011-03-04T12:56:04Z</time>
      </trkpt>
      <trkpt lat="43.7051" lon="4.96762">
        <ele>157</ele>
        <time>2011-03-04T12:56:14Z</time>
      </trkpt>
      <trkpt lat="43.70515" lon="4.96748">
        <ele>157</ele>
        <time>2011-03-04T12:56:24Z</time>
      </trkpt>
      <trkpt lat="43.70521" lon="4.96733">
        <ele>157</ele>
        <time>2011-03-04T12:56:34Z</time>
      </trkpt>
      <trkpt lat="43.70527" lon="4.96719">
        <ele>157</ele>
        <time>2011-03-04T12:56:44Z</time>
      </trkpt>
      <trkpt lat="43.70533" lon="4.96703">
        <ele>157</ele>
        <time>2011-03-04T12:56:54Z</time>
      </trkpt>
      <trkpt lat="43.70537" lon="4.96687">
        <ele>157</ele>
        <time>2011-03-04T12:57:04Z</time>
      </trkpt>
      <trkpt lat="43.70541" lon="4.9667">
        <ele>157</ele>
        <time>2011-03-04T12:57:14Z</time>
      </trkpt>
      <trkpt lat="43.70546" lon="4.96653">
        <ele>157</ele>
        <time>2011-03-04T12:57:24Z</time>
      </trkpt>
      <trkpt lat="43.70551" lon="4.96638">
        <ele>157</ele>
        <time>2011-03-04T12:57:34Z</time>
      </trkpt>
      <trkpt lat="43.70557" lon="4.96621">
        <ele>157</ele>
        <time>2011-03-04T12:57:45Z</time>
      </trkpt>
      <trkpt lat="43.70564" lon="4.96608">
        <ele>157</ele>
        <time>2011-03-04T12:57:55Z</time>
      </trkpt>
      <trkpt lat="43.7057" lon="4.96594">
        <ele>157</ele>
        <time>2011-03-04T12:58:05Z</time>
      </trkpt>
      <trkpt lat="43.70576" lon="4.96578">
        <ele>157</ele>
        <time>2011-03-04T12:58:15Z</time>
      </trkpt>
      <trkpt lat="43.70581" lon="4.96562">
        <ele>157</ele>
        <time>2011-03-04T12:58:25Z</time>
      </trkpt>
      <trkpt lat="43.70586" lon="4.96545">
        <ele>157</ele>
        <time>2011-03-04T12:58:35Z</time>
      </trkpt>
      <trkpt lat="43.70592" lon="4.9653">
        <ele>157</ele>
        <time>2011-03-04T12:58:45Z</time>
      </trkpt>
      <trkpt lat="43.70597" lon="4.96515">
        <ele>157</ele>
        <time>2011-03-04T12:58:55Z</time>
      </trkpt>
      <trkpt lat="43.70602" lon="4.965">
        <ele>157</ele>
        <time>2011-03-04T12:59:05Z</time>
      </trkpt>
      <trkpt lat="43.70609" lon="4.96485">
        <ele>157</ele>
        <time>2011-03-04T12:59:15Z</time>
      </trkpt>
      <trkpt lat="43.70616" lon="4.96469">
        <ele>157</ele>
        <time>2011-03-04T12:59:26Z</time>
      </trkpt>
      <trkpt lat="43.70623" lon="4.96454">
        <ele>157</ele>
        <time>2011-03-04T12:59:36Z</time>
      </trkpt>
      <trkpt lat="43.7063" lon="4.96438">
        <ele>157</ele>
        <time>2011-03-04T12:59:47Z</time>
      </trkpt>
      <trkpt lat="43.70636" lon="4.96423">
        <ele>157</ele>
        <time>2011-03-04T12:59:57Z</time>
      </trkpt>
      <trkpt lat="43.7064" lon="4.96407">
        <ele>157</ele>
        <time>2011-03-04T13:00:07Z</time>
      </trkpt>
      <trkpt lat="43.70645" lon="4.96391">
        <ele>157</ele>
        <time>2011-03-04T13:00:17Z</time>
      </trkpt>
      <trkpt lat="43.70649" lon="4.96375">
        <ele>157</ele>
        <time>2011-03-04T13:00:27Z</time>
      </trkpt>
      <trkpt lat="43.70652" lon="4.96358">
        <ele>157</ele>
        <time>2011-03-04T13:00:37Z</time>
      </trkpt>
      <trkpt lat="43.70651" lon="4.96342">
        <ele>157</ele>
        <time>2011-03-04T13:00:47Z</time>
      </trkpt>
      <trkpt lat="43.70648" lon="4.96328">
        <ele>157</ele>
        <time>2011-03-04T13:00:57Z</time>
      </trkpt>
      <trkpt lat="43.70646" lon="4.96311">
        <ele>157</ele>
        <time>2011-03-04T13:01:07Z</time>
      </trkpt>
      <trkpt lat="43.70647" lon="4.96295">
        <ele>157</ele>
        <time>2011-03-04T13:01:17Z</time>
      </trkpt>
      <trkpt lat="43.70648" lon="4.96279">
        <ele>157</ele>
        <time>2011-03-04T13:01:27Z</time>
      </trkpt>
      <trkpt lat="43.70647" lon="4.9626">
        <ele>157</ele>
        <time>2011-03-04T13:01:37Z</time>
      </trkpt>
      <trkpt lat="43.70644" lon="4.96241">
        <ele>157</ele>
        <time>2011-03-04T13:01:47Z</time>
      </trkpt>
      <trkpt lat="43.70645" lon="4.96223">
        <ele>157</ele>
        <time>2011-03-04T13:01:57Z</time>
      </trkpt>
      <trkpt lat="43.70648" lon="4.96206">
        <ele>157</ele>
        <time>2011-03-04T13:02:07Z</time>
      </trkpt>
      <trkpt lat="43.70653" lon="4.96188">
        <ele>157</ele>
        <time>2011-03-04T13:02:18Z</time>
      </trkpt>
      <trkpt lat="43.7066" lon="4.96172">
        <ele>157</ele>
        <time>2011-03-04T13:02:29Z</time>
      </trkpt>
      <trkpt lat="43.70667" lon="4.96156">
        <ele>157</ele>
        <time>2011-03-04T13:02:39Z</time>
      </trkpt>
      <trkpt lat="43.70673" lon="4.96142">
        <ele>157</ele>
        <time>2011-03-04T13:02:49Z</time>
      </trkpt>
      <trkpt lat="43.7068" lon="4.96126">
        <ele>157</ele>
        <time>2011-03-04T13:03:00Z</time>
      </trkpt>
      <trkpt lat="43.70685" lon="4.96109">
        <ele>157</ele>
        <time>2011-03-04T13:03:10Z</time>
      </trkpt>
      <trkpt lat="43.70689" lon="4.96092">
        <ele>157</ele>
        <time>2011-03-04T13:03:20Z</time>
      </trkpt>
      <trkpt lat="43.70697" lon="4.96076">
        <ele>156</ele>
        <time>2011-03-04T13:03:31Z</time>
      </trkpt>
      <trkpt lat="43.70701" lon="4.96058">
        <ele>156</ele>
        <time>2011-03-04T13:03:41Z</time>
      </trkpt>
      <trkpt lat="43.70701" lon="4.96039">
        <ele>156</ele>
        <time>2011-03-04T13:03:51Z</time>
      </trkpt>
      <trkpt lat="43.707" lon="4.96021">
        <ele>156</ele>
        <time>2011-03-04T13:04:01Z</time>
      </trkpt>
      <trkpt lat="43.70702" lon="4.96003">
        <ele>156</ele>
        <time>2011-03-04T13:04:11Z</time>
      </trkpt>
      <trkpt lat="43.70702" lon="4.95986">
        <ele>156</ele>
        <time>2011-03-04T13:04:21Z</time>
      </trkpt>
      <trkpt lat="43.70703" lon="4.95967">
        <ele>155</ele>
        <time>2011-03-04T13:04:31Z</time>
      </trkpt>
      <trkpt lat="43.70705" lon="4.95949">
        <ele>154</ele>
        <time>2011-03-04T13:04:41Z</time>
      </trkpt>
      <trkpt lat="43.70704" lon="4.95931">
        <ele>153</ele>
        <time>2011-03-04T13:04:51Z</time>
      </trkpt>
      <trkpt lat="43.70702" lon="4.95914">
        <ele>152</ele>
        <time>2011-03-04T13:05:01Z</time>
      </trkpt>
      <trkpt lat="43.70699" lon="4.95896">
        <ele>152</ele>
        <time>2011-03-04T13:05:11Z</time>
      </trkpt>
      <trkpt lat="43.70698" lon="4.95879">
        <ele>152</ele>
        <time>2011-03-04T13:05:21Z</time>
      </trkpt>
      <trkpt lat="43.70697" lon="4.95861">
        <ele>152</ele>
        <time>2011-03-04T13:05:31Z</time>
      </trkpt>
      <trkpt lat="43.70697" lon="4.95843">
        <ele>151</ele>
        <time>2011-03-04T13:05:41Z</time>
      </trkpt>
      <trkpt lat="43.70697" lon="4.95825">
        <ele>151</ele>
        <time>2011-03-04T13:05:51Z</time>
      </trkpt>
      <trkpt lat="43.70696" lon="4.95808">
        <ele>149</ele>
        <time>2011-03-04T13:06:01Z</time>
      </trkpt>
      <trkpt lat="43.70693" lon="4.95789">
        <ele>149</ele>
        <time>2011-03-04T13:06:11Z</time>
      </trkpt>
      <trkpt lat="43.70688" lon="4.9577">
        <ele>149</ele>
        <time>2011-03-04T13:06:21Z</time>
      </trkpt>
      <trkpt lat="43.70684" lon="4.95753">
        <ele>149</ele>
        <time>2011-03-04T13:06:31Z</time>
      </trkpt>
      <trkpt lat="43.70678" lon="4.95737">
        <ele>149</ele>
        <time>2011-03-04T13:06:41Z</time>
      </trkpt>
      <trkpt lat="43.70672" lon="4.95721">
        <ele>149</ele>
        <time>2011-03-04T13:06:51Z</time>
      </trkpt>
      <trkpt lat="43.70665" lon="4.95703">
        <ele>149</ele>
        <time>2011-03-04T13:07:02Z</time>
      </trkpt>
      <trkpt lat="43.70662" lon="4.95686">
        <ele>149</ele>
        <time>2011-03-04T13:07:12Z</time>
      </trkpt>
      <trkpt lat="43.7066" lon="4.95669">
        <ele>149</ele>
        <time>2011-03-04T13:07:22Z</time>
      </trkpt>
      <trkpt lat="43.70659" lon="4.9565">
        <ele>149</ele>
        <time>2011-03-04T13:07:32Z</time>
      </trkpt>
      <trkpt lat="43.70655" lon="4.95632">
        <ele>149</ele>
        <time>2011-03-04T13:07:42Z</time>
      </trkpt>
      <trkpt lat="43.70648" lon="4.95617">
        <ele>149</ele>
        <time>2011-03-04T13:07:52Z</time>
      </trkpt>
      <trkpt lat="43.70641" lon="4.95602">
        <ele>149</ele>
        <time>2011-03-04T13:08:02Z</time>
      </trkpt>
      <trkpt lat="43.70638" lon="4.95584">
        <ele>149</ele>
        <time>2011-03-04T13:08:13Z</time>
      </trkpt>
      <trkpt lat="43.70635" lon="4.95565">
        <ele>149</ele>
        <time>2011-03-04T13:08:23Z</time>
      </trkpt>
      <trkpt lat="43.70631" lon="4.95548">
        <ele>149</ele>
        <time>2011-03-04T13:08:33Z</time>
      </trkpt>
      <trkpt lat="43.70628" lon="4.95529">
        <ele>149</ele>
        <time>2011-03-04T13:08:43Z</time>
      </trkpt>
      <trkpt lat="43.70627" lon="4.95511">
        <ele>149</ele>
        <time>2011-03-04T13:08:53Z</time>
      </trkpt>
      <trkpt lat="43.70628" lon="4.95493">
        <ele>149</ele>
        <time>2011-03-04T13:09:03Z</time>
      </trkpt>
      <trkpt lat="43.70628" lon="4.95475">
        <ele>148</ele>
        <time>2011-03-04T13:09:13Z</time>
      </trkpt>
      <trkpt lat="43.70624" lon="4.95458">
        <ele>147</ele>
        <time>2011-03-04T13:09:23Z</time>
      </trkpt>
      <trkpt lat="43.70624" lon="4.9544">
        <ele>145</ele>
        <time>2011-03-04T13:09:33Z</time>
      </trkpt>
      <trkpt lat="43.70624" lon="4.95423">
        <ele>144</ele>
        <time>2011-03-04T13:09:43Z</time>
      </trkpt>
      <trkpt lat="43.70624" lon="4.95404">
        <ele>142</ele>
        <time>2011-03-04T13:09:54Z</time>
      </trkpt>
      <trkpt lat="43.70622" lon="4.95387">
        <ele>140</ele>
        <time>2011-03-04T13:10:04Z</time>
      </trkpt>
      <trkpt lat="43.7062" lon="4.9537">
        <ele>139</ele>
        <time>2011-03-04T13:10:14Z</time>
      </trkpt>
      <trkpt lat="43.70618" lon="4.9535">
        <ele>139</ele>
        <time>2011-03-04T13:10:25Z</time>
      </trkpt>
      <trkpt lat="43.70617" lon="4.95333">
        <ele>139</ele>
        <time>2011-03-04T13:10:35Z</time>
      </trkpt>
      <trkpt lat="43.70612" lon="4.95317">
        <ele>139</ele>
        <time>2011-03-04T13:10:45Z</time>
      </trkpt>
      <trkpt lat="43.70608" lon="4.95301">
        <ele>139</ele>
        <time>2011-03-04T13:10:55Z</time>
      </trkpt>
      <trkpt lat="43.70605" lon="4.95285">
        <ele>139</ele>
        <time>2011-03-04T13:11:05Z</time>
      </trkpt>
      <trkpt lat="43.70603" lon="4.95269">
        <ele>139</ele>
        <time>2011-03-04T13:11:16Z</time>
      </trkpt>
      <trkpt lat="43.706" lon="4.9525">
        <ele>139</ele>
        <time>2011-03-04T13:11:26Z</time>
      </trkpt>
      <trkpt lat="43.70599" lon="4.95232">
        <ele>139</ele>
        <time>2011-03-04T13:11:36Z</time>
      </trkpt>
      <trkpt lat="43.70598" lon="4.95214">
        <ele>139</ele>
        <time>2011-03-04T13:11:46Z</time>
      </trkpt>
      <trkpt lat="43.706" lon="4.95199">
        <ele>139</ele>
        <time>2011-03-04T13:11:56Z</time>
      </trkpt>
      <trkpt lat="43.706" lon="4.95188">
        <ele>139</ele>
        <time>2011-03-04T13:12:06Z</time>
      </trkpt>
      <trkpt lat="43.70599" lon="4.95171">
        <ele>137</ele>
        <time>2011-03-04T13:12:16Z</time>
      </trkpt>
      <trkpt lat="43.70597" lon="4.95155">
        <ele>136</ele>
        <time>2011-03-04T13:12:26Z</time>
      </trkpt>
      <trkpt lat="43.70597" lon="4.95142">
        <ele>136</ele>
        <time>2011-03-04T13:12:36Z</time>
      </trkpt>
      <trkpt lat="43.70598" lon="4.95128">
        <ele>136</ele>
        <time>2011-03-04T13:12:46Z</time>
      </trkpt>
      <trkpt lat="43.70599" lon="4.95128">
        <ele>136</ele>
        <time>2011-03-04T13:12:56Z</time>
      </trkpt>
      <trkpt lat="43.706" lon="4.95127">
        <ele>136</ele>
        <time>2011-03-04T13:13:12Z</time>
      </trkpt>
      <trkpt lat="43.70602" lon="4.95127">
        <ele>136</ele>
        <time>2011-03-04T13:13:35Z</time>
      </trkpt>
      <trkpt lat="43.706" lon="4.95127">
        <ele>136</ele>
        <time>2011-03-04T13:13:58Z</time>
      </trkpt>
      <trkpt lat="43.706" lon="4.95126">
        <ele>136</ele>
        <time>2011-03-04T13:14:30Z</time>
      </trkpt>
      <trkpt lat="43.70601" lon="4.95127">
        <ele>137</ele>
        <time>2011-03-04T13:15:09Z</time>
      </trkpt>
      <trkpt lat="43.706" lon="4.95127">
        <ele>139</ele>
        <time>2011-03-04T13:15:59Z</time>
      </trkpt>
      <trkpt lat="43.70599" lon="4.95127">
        <ele>139</ele>
        <time>2011-03-04T13:16:29Z</time>
      </trkpt>
      <trkpt lat="43.70599" lon="4.95124">
        <ele>139</ele>
        <time>2011-03-04T13:16:46Z</time>
      </trkpt>
      <trkpt lat="43.70599" lon="4.95122">
        <ele>139</ele>
        <time>2011-03-04T13:17:09Z</time>
      </trkpt>
      <trkpt lat="43.706" lon="4.95112">
        <ele>139</ele>
        <time>2011-03-04T13:17:19Z</time>
      </trkpt>
      <trkpt lat="43.70602" lon="4.951">
        <ele>137</ele>
        <time>2011-03-04T13:17:29Z</time>
      </trkpt>
      <trkpt lat="43.70602" lon="4.95087">
        <ele>136</ele>
        <time>2011-03-04T13:17:40Z</time>
      </trkpt>
      <trkpt lat="43.70606" lon="4.95077">
        <ele>136</ele>
        <time>2011-03-04T13:17:51Z</time>
      </trkpt>
      <trkpt lat="43.70608" lon="4.95062">
        <ele>136</ele>
        <time>2011-03-04T13:18:01Z</time>
      </trkpt>
      <trkpt lat="43.70614" lon="4.95049">
        <ele>135</ele>
        <time>2011-03-04T13:18:12Z</time>
      </trkpt>
      <trkpt lat="43.70613" lon="4.95033">
        <ele>135</ele>
        <time>2011-03-04T13:18:22Z</time>
      </trkpt>
      <trkpt lat="43.70612" lon="4.95019">
        <ele>134</ele>
        <time>2011-03-04T13:18:32Z</time>
      </trkpt>
      <trkpt lat="43.70612" lon="4.95013">
        <ele>133</ele>
        <time>2011-03-04T13:18:45Z</time>
      </trkpt>
      <trkpt lat="43.70613" lon="4.95013">
        <ele>130</ele>
        <time>2011-03-04T13:19:10Z</time>
      </trkpt>
      <trkpt lat="43.70612" lon="4.95">
        <ele>130</ele>
        <time>2011-03-04T13:19:20Z</time>
      </trkpt>
      <trkpt lat="43.70612" lon="4.9499">
        <ele>130</ele>
        <time>2011-03-04T13:19:30Z</time>
      </trkpt>
      <trkpt lat="43.70611" lon="4.94974">
        <ele>130</ele>
        <time>2011-03-04T13:19:40Z</time>
      </trkpt>
      <trkpt lat="43.70608" lon="4.94954">
        <ele>130</ele>
        <time>2011-03-04T13:19:50Z</time>
      </trkpt>
      <trkpt lat="43.70607" lon="4.94937">
        <ele>130</ele>
        <time>2011-03-04T13:20:00Z</time>
      </trkpt>
      <trkpt lat="43.70612" lon="4.9492">
        <ele>130</ele>
        <time>2011-03-04T13:20:10Z</time>
      </trkpt>
      <trkpt lat="43.70617" lon="4.94903">
        <ele>130</ele>
        <time>2011-03-04T13:20:20Z</time>
      </trkpt>
      <trkpt lat="43.70627" lon="4.9489">
        <ele>130</ele>
        <time>2011-03-04T13:20:30Z</time>
      </trkpt>
      <trkpt lat="43.70638" lon="4.9488">
        <ele>130</ele>
        <time>2011-03-04T13:20:40Z</time>
      </trkpt>
      <trkpt lat="43.70649" lon="4.94869">
        <ele>130</ele>
        <time>2011-03-04T13:20:51Z</time>
      </trkpt>
      <trkpt lat="43.70659" lon="4.94872">
        <ele>130</ele>
        <time>2011-03-04T13:21:01Z</time>
      </trkpt>
      <trkpt lat="43.70671" lon="4.94883">
        <ele>130</ele>
        <time>2011-03-04T13:21:12Z</time>
      </trkpt>
      <trkpt lat="43.70684" lon="4.94894">
        <ele>130</ele>
        <time>2011-03-04T13:21:23Z</time>
      </trkpt>
      <trkpt lat="43.70693" lon="4.94904">
        <ele>132</ele>
        <time>2011-03-04T13:21:33Z</time>
      </trkpt>
      <trkpt lat="43.70702" lon="4.94912">
        <ele>135</ele>
        <time>2011-03-04T13:21:43Z</time>
      </trkpt>
      <trkpt lat="43.70709" lon="4.94918">
        <ele>138</ele>
        <time>2011-03-04T13:21:54Z</time>
      </trkpt>
      <trkpt lat="43.70716" lon="4.94918">
        <ele>138</ele>
        <time>2011-03-04T13:22:04Z</time>
      </trkpt>
      <trkpt lat="43.70719" lon="4.94929">
        <ele>138</ele>
        <time>2011-03-04T13:22:14Z</time>
      </trkpt>
      <trkpt lat="43.7072" lon="4.94944">
        <ele>138</ele>
        <time>2011-03-04T13:22:25Z</time>
      </trkpt>
      <trkpt lat="43.70724" lon="4.9495">
        <ele>138</ele>
        <time>2011-03-04T13:22:35Z</time>
      </trkpt>
      <trkpt lat="43.70729" lon="4.9494">
        <ele>138</ele>
        <time>2011-03-04T13:22:45Z</time>
      </trkpt>
      <trkpt lat="43.70734" lon="4.94934">
        <ele>139</ele>
        <time>2011-03-04T13:22:55Z</time>
      </trkpt>
      <trkpt lat="43.70739" lon="4.94926">
        <ele>141</ele>
        <time>2011-03-04T13:23:06Z</time>
      </trkpt>
      <trkpt lat="43.70741" lon="4.94911">
        <ele>143</ele>
        <time>2011-03-04T13:23:40Z</time>
      </trkpt>
      <trkpt lat="43.70743" lon="4.949">
        <ele>143</ele>
        <time>2011-03-04T13:23:50Z</time>
      </trkpt>
      <trkpt lat="43.70744" lon="4.94884">
        <ele>143</ele>
        <time>2011-03-04T13:24:00Z</time>
      </trkpt>
      <trkpt lat="43.70749" lon="4.94871">
        <ele>143</ele>
        <time>2011-03-04T13:24:11Z</time>
      </trkpt>
      <trkpt lat="43.70756" lon="4.94871">
        <ele>143</ele>
        <time>2011-03-04T13:24:21Z</time>
      </trkpt>
      <trkpt lat="43.70759" lon="4.94868">
        <ele>144</ele>
        <time>2011-03-04T13:24:31Z</time>
      </trkpt>
      <trkpt lat="43.70763" lon="4.94876">
        <ele>147</ele>
        <time>2011-03-04T13:24:43Z</time>
      </trkpt>
      <trkpt lat="43.70771" lon="4.9487">
        <ele>150</ele>
        <time>2011-03-04T13:24:55Z</time>
      </trkpt>
      <trkpt lat="43.70778" lon="4.94858">
        <ele>153</ele>
        <time>2011-03-04T13:25:06Z</time>
      </trkpt>
      <trkpt lat="43.70781" lon="4.94864">
        <ele>155</ele>
        <time>2011-03-04T13:25:16Z</time>
      </trkpt>
      <trkpt lat="43.7078" lon="4.94869">
        <ele>157</ele>
        <time>2011-03-04T13:25:26Z</time>
      </trkpt>
      <trkpt lat="43.70785" lon="4.9487">
        <ele>158</ele>
        <time>2011-03-04T13:25:36Z</time>
      </trkpt>
      <trkpt lat="43.70787" lon="4.94876">
        <ele>160</ele>
        <time>2011-03-04T13:25:47Z</time>
      </trkpt>
      <trkpt lat="43.70784" lon="4.94884">
        <ele>164</ele>
        <time>2011-03-04T13:25:57Z</time>
      </trkpt>
      <trkpt lat="43.70782" lon="4.94889">
        <ele>168</ele>
        <time>2011-03-04T13:26:08Z</time>
      </trkpt>
      <trkpt lat="43.70778" lon="4.94894">
        <ele>170</ele>
        <time>2011-03-04T13:26:18Z</time>
      </trkpt>
      <trkpt lat="43.70777" lon="4.94895">
        <ele>170</ele>
        <time>2011-03-04T13:26:30Z</time>
      </trkpt>
      <trkpt lat="43.70778" lon="4.94897">
        <ele>170</ele>
        <time>2011-03-04T13:26:42Z</time>
      </trkpt>
      <trkpt lat="43.70778" lon="4.94897">
        <ele>170</ele>
        <time>2011-03-04T13:27:39Z</time>
      </trkpt>
      <trkpt lat="43.70778" lon="4.94895">
        <ele>170</ele>
        <time>2011-03-04T13:28:13Z</time>
      </trkpt>
      <trkpt lat="43.70776" lon="4.94901">
        <ele>170</ele>
        <time>2011-03-04T13:28:40Z</time>
      </trkpt>
      <trkpt lat="43.7078" lon="4.94907">
        <ele>170</ele>
        <time>2011-03-04T13:28:51Z</time>
      </trkpt>
      <trkpt lat="43.70779" lon="4.94908">
        <ele>170</ele>
        <time>2011-03-04T13:29:02Z</time>
      </trkpt>
      <trkpt lat="43.70779" lon="4.94911">
        <ele>170</ele>
        <time>2011-03-04T13:29:13Z</time>
      </trkpt>
      <trkpt lat="43.7078" lon="4.94918">
        <ele>170</ele>
        <time>2011-03-04T13:29:24Z</time>
      </trkpt>
      <trkpt lat="43.7078" lon="4.9492">
        <ele>170</ele>
        <time>2011-03-04T13:29:40Z</time>
      </trkpt>
      <trkpt lat="43.70778" lon="4.94922">
        <ele>170</ele>
        <time>2011-03-04T13:29:59Z</time>
      </trkpt>
      <trkpt lat="43.70779" lon="4.94921">
        <ele>170</ele>
        <time>2011-03-04T13:30:36Z</time>
      </trkpt>
      <trkpt lat="43.70779" lon="4.9492">
        <ele>170</ele>
        <time>2011-03-04T13:30:58Z</time>
      </trkpt>
      <trkpt lat="43.70777" lon="4.94919">
        <ele>170</ele>
        <time>2011-03-04T13:31:10Z</time>
      </trkpt>
      <trkpt lat="43.70777" lon="4.94916">
        <ele>170</ele>
        <time>2011-03-04T13:31:29Z</time>
      </trkpt>
      <trkpt lat="43.70778" lon="4.94916">
        <ele>170</ele>
        <time>2011-03-04T13:31:43Z</time>
      </trkpt>
      <trkpt lat="43.70777" lon="4.94919">
        <ele>170</ele>
        <time>2011-03-04T13:31:54Z</time>
      </trkpt>
      <trkpt lat="43.70777" lon="4.94923">
        <ele>170</ele>
        <time>2011-03-04T13:32:09Z</time>
      </trkpt>
      <trkpt lat="43.70777" lon="4.94922">
        <ele>170</ele>
        <time>2011-03-04T13:32:33Z</time>
      </trkpt>
      <trkpt lat="43.70777" lon="4.94919">
        <ele>170</ele>
        <time>2011-03-04T13:32:52Z</time>
      </trkpt>
      <trkpt lat="43.70778" lon="4.9492">
        <ele>171</ele>
        <time>2011-03-04T13:33:11Z</time>
      </trkpt>
      <trkpt lat="43.70777" lon="4.94922">
        <ele>171</ele>
        <time>2011-03-04T13:33:27Z</time>
      </trkpt>
      <trkpt lat="43.7078" lon="4.94919">
        <ele>172</ele>
        <time>2011-03-04T13:33:41Z</time>
      </trkpt>
      <trkpt lat="43.70781" lon="4.94918">
        <ele>173</ele>
        <time>2011-03-04T13:33:53Z</time>
      </trkpt>
      <trkpt lat="43.70777" lon="4.9492">
        <ele>174</ele>
        <time>2011-03-04T13:34:08Z</time>
      </trkpt>
      <trkpt lat="43.70779" lon="4.94917">
        <ele>178</ele>
        <time>2011-03-04T13:34:24Z</time>
      </trkpt>
      <trkpt lat="43.70776" lon="4.94919">
        <ele>178</ele>
        <time>2011-03-04T13:34:34Z</time>
      </trkpt>
      <trkpt lat="43.70774" lon="4.94917">
        <ele>178</ele>
        <time>2011-03-04T13:34:46Z</time>
      </trkpt>
      <trkpt lat="43.70773" lon="4.94912">
        <ele>175</ele>
        <time>2011-03-04T13:35:02Z</time>
      </trkpt>
      <trkpt lat="43.70773" lon="4.94909">
        <ele>170</ele>
        <time>2011-03-04T13:35:22Z</time>
      </trkpt>
      <trkpt lat="43.70773" lon="4.94907">
        <ele>170</ele>
        <time>2011-03-04T13:36:05Z</time>
      </trkpt>
      <trkpt lat="43.70776" lon="4.94901">
        <ele>170</ele>
        <time>2011-03-04T13:36:17Z</time>
      </trkpt>
      <trkpt lat="43.7078" lon="4.94891">
        <ele>170</ele>
        <time>2011-03-04T13:36:28Z</time>
      </trkpt>
      <trkpt lat="43.70782" lon="4.94884">
        <ele>170</ele>
        <time>2011-03-04T13:36:38Z</time>
      </trkpt>
      <trkpt lat="43.70785" lon="4.94874">
        <ele>170</ele>
        <time>2011-03-04T13:36:49Z</time>
      </trkpt>
      <trkpt lat="43.70787" lon="4.94867">
        <ele>170</ele>
        <time>2011-03-04T13:36:59Z</time>
      </trkpt>
      <trkpt lat="43.70784" lon="4.94866">
        <ele>166</ele>
        <time>2011-03-04T13:37:10Z</time>
      </trkpt>
      <trkpt lat="43.70783" lon="4.9486">
        <ele>165</ele>
        <time>2011-03-04T13:37:23Z</time>
      </trkpt>
      <trkpt lat="43.70783" lon="4.94857">
        <ele>163</ele>
        <time>2011-03-04T13:37:33Z</time>
      </trkpt>
      <trkpt lat="43.70779" lon="4.94855">
        <ele>160</ele>
        <time>2011-03-04T13:37:43Z</time>
      </trkpt>
      <trkpt lat="43.70774" lon="4.94848">
        <ele>159</ele>
        <time>2011-03-04T13:37:54Z</time>
      </trkpt>
      <trkpt lat="43.70766" lon="4.94855">
        <ele>155</ele>
        <time>2011-03-04T13:38:05Z</time>
      </trkpt>
      <trkpt lat="43.70763" lon="4.94858">
        <ele>152</ele>
        <time>2011-03-04T13:38:16Z</time>
      </trkpt>
      <trkpt lat="43.70757" lon="4.94863">
        <ele>150</ele>
        <time>2011-03-04T13:38:28Z</time>
      </trkpt>
      <trkpt lat="43.70751" lon="4.94866">
        <ele>149</ele>
        <time>2011-03-04T13:38:39Z</time>
      </trkpt>
      <trkpt lat="43.70747" lon="4.94877">
        <ele>149</ele>
        <time>2011-03-04T13:38:49Z</time>
      </trkpt>
      <trkpt lat="43.70747" lon="4.94882">
        <ele>148</ele>
        <time>2011-03-04T13:38:59Z</time>
      </trkpt>
      <trkpt lat="43.70743" lon="4.94885">
        <ele>148</ele>
        <time>2011-03-04T13:39:10Z</time>
      </trkpt>
      <trkpt lat="43.70736" lon="4.94893">
        <ele>145</ele>
        <time>2011-03-04T13:39:20Z</time>
      </trkpt>
      <trkpt lat="43.70734" lon="4.94907">
        <ele>143</ele>
        <time>2011-03-04T13:39:30Z</time>
      </trkpt>
      <trkpt lat="43.70732" lon="4.9492">
        <ele>143</ele>
        <time>2011-03-04T13:39:40Z</time>
      </trkpt>
      <trkpt lat="43.7073" lon="4.94933">
        <ele>143</ele>
        <time>2011-03-04T13:39:50Z</time>
      </trkpt>
      <trkpt lat="43.70722" lon="4.94935">
        <ele>141</ele>
        <time>2011-03-04T13:40:01Z</time>
      </trkpt>
      <trkpt lat="43.70719" lon="4.94925">
        <ele>140</ele>
        <time>2011-03-04T13:40:11Z</time>
      </trkpt>
      <trkpt lat="43.70719" lon="4.94917">
        <ele>139</ele>
        <time>2011-03-04T13:40:40Z</time>
      </trkpt>
      <trkpt lat="43.70718" lon="4.94915">
        <ele>139</ele>
        <time>2011-03-04T13:40:53Z</time>
      </trkpt>
      <trkpt lat="43.70718" lon="4.94914">
        <ele>139</ele>
        <time>2011-03-04T13:41:08Z</time>
      </trkpt>
      <trkpt lat="43.70719" lon="4.94906">
        <ele>139</ele>
        <time>2011-03-04T13:41:20Z</time>
      </trkpt>
      <trkpt lat="43.70719" lon="4.949">
        <ele>139</ele>
        <time>2011-03-04T13:41:31Z</time>
      </trkpt>
      <trkpt lat="43.70719" lon="4.94893">
        <ele>139</ele>
        <time>2011-03-04T13:41:41Z</time>
      </trkpt>
      <trkpt lat="43.70717" lon="4.94882">
        <ele>138</ele>
        <time>2011-03-04T13:41:52Z</time>
      </trkpt>
      <trkpt lat="43.70716" lon="4.94872">
        <ele>138</ele>
        <time>2011-03-04T13:42:02Z</time>
      </trkpt>
      <trkpt lat="43.70717" lon="4.94864">
        <ele>137</ele>
        <time>2011-03-04T13:42:12Z</time>
      </trkpt>
      <trkpt lat="43.7072" lon="4.94854">
        <ele>137</ele>
        <time>2011-03-04T13:42:23Z</time>
      </trkpt>
      <trkpt lat="43.70724" lon="4.94844">
        <ele>137</ele>
        <time>2011-03-04T13:42:33Z</time>
      </trkpt>
      <trkpt lat="43.70726" lon="4.94838">
        <ele>137</ele>
        <time>2011-03-04T13:42:52Z</time>
      </trkpt>
      <trkpt lat="43.70727" lon="4.94832">
        <ele>137</ele>
        <time>2011-03-04T13:43:04Z</time>
      </trkpt>
      <trkpt lat="43.70728" lon="4.94824">
        <ele>137</ele>
        <time>2011-03-04T13:43:15Z</time>
      </trkpt>
      <trkpt lat="43.70731" lon="4.94815">
        <ele>137</ele>
        <time>2011-03-04T13:43:26Z</time>
      </trkpt>
      <trkpt lat="43.7073" lon="4.94809">
        <ele>137</ele>
        <time>2011-03-04T13:43:37Z</time>
      </trkpt>
      <trkpt lat="43.70728" lon="4.94804">
        <ele>137</ele>
        <time>2011-03-04T13:43:52Z</time>
      </trkpt>
      <trkpt lat="43.70725" lon="4.948">
        <ele>137</ele>
        <time>2011-03-04T13:44:03Z</time>
      </trkpt>
      <trkpt lat="43.70717" lon="4.94799">
        <ele>136</ele>
        <time>2011-03-04T13:44:13Z</time>
      </trkpt>
      <trkpt lat="43.70709" lon="4.948">
        <ele>134</ele>
        <time>2011-03-04T13:44:24Z</time>
      </trkpt>
      <trkpt lat="43.707" lon="4.94794">
        <ele>132</ele>
        <time>2011-03-04T13:44:36Z</time>
      </trkpt>
      <trkpt lat="43.70693" lon="4.94787">
        <ele>130</ele>
        <time>2011-03-04T13:44:48Z</time>
      </trkpt>
      <trkpt lat="43.70695" lon="4.94775">
        <ele>130</ele>
        <time>2011-03-04T13:44:58Z</time>
      </trkpt>
      <trkpt lat="43.70698" lon="4.94764">
        <ele>129</ele>
        <time>2011-03-04T13:45:12Z</time>
      </trkpt>
      <trkpt lat="43.70701" lon="4.94753">
        <ele>129</ele>
        <time>2011-03-04T13:45:22Z</time>
      </trkpt>
      <trkpt lat="43.70706" lon="4.94744">
        <ele>126</ele>
        <time>2011-03-04T13:45:32Z</time>
      </trkpt>
      <trkpt lat="43.7071" lon="4.94731">
        <ele>123</ele>
        <time>2011-03-04T13:45:42Z</time>
      </trkpt>
      <trkpt lat="43.70713" lon="4.9472">
        <ele>124</ele>
        <time>2011-03-04T13:45:53Z</time>
      </trkpt>
    </trkseg>
  </trk>
</gpx>